<?xml version="1.0" encoding="UTF-8" standalone="no" ?>
<gpx xmlns="http://www.topografix.com/GPX/1/1" xmlns:xsi="http://www.w3.org/2001/XMLSchema-instance" xsi:schemaLocation="http://www.topografix.com/GPX/1/1 http://www.topografix.com/GPX/1/1/gpx.xsd" version="1.1" creator="VisuGPX - https://www.visugpx.com">
  <metadata>
    <name>20260511-bleriot plage</name>
  </metadata>
  <trk>
    <name><![CDATA[SityTrail - bleriot plage]]></name>
    <trkseg>
      <trkpt lat="50.96114" lon="1.8281">
        <ele>5</ele>
        <time>2026-05-11T07:47:02.664Z</time>
      </trkpt>
      <trkpt lat="50.96117" lon="1.82802">
        <ele>5</ele>
        <time>2026-05-11T07:49:40.664Z</time>
      </trkpt>
      <trkpt lat="50.96117" lon="1.82802">
        <ele>5</ele>
        <time>2026-05-11T07:49:46.663Z</time>
      </trkpt>
      <trkpt lat="50.96117" lon="1.82802">
        <ele>5</ele>
        <time>2026-05-11T07:49:51.664Z</time>
      </trkpt>
      <trkpt lat="50.96117" lon="1.82801">
        <ele>5</ele>
        <time>2026-05-11T07:49:56.162Z</time>
      </trkpt>
      <trkpt lat="50.9612" lon="1.82797">
        <ele>5</ele>
        <time>2026-05-11T07:50:00.244Z</time>
      </trkpt>
      <trkpt lat="50.96123" lon="1.82791">
        <ele>5</ele>
        <time>2026-05-11T07:50:04.663Z</time>
      </trkpt>
      <trkpt lat="50.96125" lon="1.82785">
        <ele>5</ele>
        <time>2026-05-11T07:50:08.663Z</time>
      </trkpt>
      <trkpt lat="50.96126" lon="1.82779">
        <ele>5</ele>
        <time>2026-05-11T07:50:13.619Z</time>
      </trkpt>
      <trkpt lat="50.9613" lon="1.82772">
        <ele>5</ele>
        <time>2026-05-11T07:50:18.544Z</time>
      </trkpt>
      <trkpt lat="50.96133" lon="1.82769">
        <ele>5</ele>
        <time>2026-05-11T07:50:22.925Z</time>
      </trkpt>
      <trkpt lat="50.96137" lon="1.82765">
        <ele>5</ele>
        <time>2026-05-11T07:50:27.465Z</time>
      </trkpt>
      <trkpt lat="50.96141" lon="1.82763">
        <ele>6</ele>
        <time>2026-05-11T07:50:31.564Z</time>
      </trkpt>
      <trkpt lat="50.96145" lon="1.82765">
        <ele>5</ele>
        <time>2026-05-11T07:50:35.620Z</time>
      </trkpt>
      <trkpt lat="50.96149" lon="1.8276">
        <ele>6</ele>
        <time>2026-05-11T07:50:40.158Z</time>
      </trkpt>
      <trkpt lat="50.96153" lon="1.82762">
        <ele>6</ele>
        <time>2026-05-11T07:50:44.286Z</time>
      </trkpt>
      <trkpt lat="50.96158" lon="1.82759">
        <ele>6</ele>
        <time>2026-05-11T07:50:48.559Z</time>
      </trkpt>
      <trkpt lat="50.96158" lon="1.82754">
        <ele>6</ele>
        <time>2026-05-11T07:50:52.664Z</time>
      </trkpt>
      <trkpt lat="50.96158" lon="1.82754">
        <ele>6</ele>
        <time>2026-05-11T07:52:00.938Z</time>
      </trkpt>
      <trkpt lat="50.9616" lon="1.82748">
        <ele>6</ele>
        <time>2026-05-11T07:52:05.398Z</time>
      </trkpt>
      <trkpt lat="50.9616" lon="1.82741">
        <ele>6</ele>
        <time>2026-05-11T07:52:09.839Z</time>
      </trkpt>
      <trkpt lat="50.96158" lon="1.82731">
        <ele>7</ele>
        <time>2026-05-11T07:52:14.663Z</time>
      </trkpt>
      <trkpt lat="50.96154" lon="1.82722">
        <ele>7</ele>
        <time>2026-05-11T07:52:18.785Z</time>
      </trkpt>
      <trkpt lat="50.96153" lon="1.82713">
        <ele>7</ele>
        <time>2026-05-11T07:52:23.385Z</time>
      </trkpt>
      <trkpt lat="50.96152" lon="1.82705">
        <ele>6</ele>
        <time>2026-05-11T07:52:27.905Z</time>
      </trkpt>
      <trkpt lat="50.96149" lon="1.82697">
        <ele>6</ele>
        <time>2026-05-11T07:52:32.381Z</time>
      </trkpt>
      <trkpt lat="50.96148" lon="1.82688">
        <ele>6</ele>
        <time>2026-05-11T07:52:36.858Z</time>
      </trkpt>
      <trkpt lat="50.96147" lon="1.82682">
        <ele>6</ele>
        <time>2026-05-11T07:52:41.379Z</time>
      </trkpt>
      <trkpt lat="50.96144" lon="1.82673">
        <ele>5</ele>
        <time>2026-05-11T07:52:45.504Z</time>
      </trkpt>
      <trkpt lat="50.96142" lon="1.82666">
        <ele>5</ele>
        <time>2026-05-11T07:52:50.525Z</time>
      </trkpt>
      <trkpt lat="50.9614" lon="1.82657">
        <ele>5</ele>
        <time>2026-05-11T07:52:54.878Z</time>
      </trkpt>
      <trkpt lat="50.96139" lon="1.82649">
        <ele>6</ele>
        <time>2026-05-11T07:52:59.400Z</time>
      </trkpt>
      <trkpt lat="50.96136" lon="1.8264">
        <ele>6</ele>
        <time>2026-05-11T07:53:03.921Z</time>
      </trkpt>
      <trkpt lat="50.96135" lon="1.82632">
        <ele>6</ele>
        <time>2026-05-11T07:53:08.423Z</time>
      </trkpt>
      <trkpt lat="50.96133" lon="1.82624">
        <ele>2</ele>
        <time>2026-05-11T07:53:12.821Z</time>
      </trkpt>
      <trkpt lat="50.96132" lon="1.82618">
        <ele>2</ele>
        <time>2026-05-11T07:53:17.245Z</time>
      </trkpt>
      <trkpt lat="50.96131" lon="1.82609">
        <ele>2</ele>
        <time>2026-05-11T07:53:21.664Z</time>
      </trkpt>
      <trkpt lat="50.96129" lon="1.826">
        <ele>2</ele>
        <time>2026-05-11T07:53:26.225Z</time>
      </trkpt>
      <trkpt lat="50.96127" lon="1.82592">
        <ele>5</ele>
        <time>2026-05-11T07:53:30.781Z</time>
      </trkpt>
      <trkpt lat="50.96128" lon="1.8258">
        <ele>5</ele>
        <time>2026-05-11T07:54:20.663Z</time>
      </trkpt>
      <trkpt lat="50.96125" lon="1.82576">
        <ele>6</ele>
        <time>2026-05-11T07:54:24.664Z</time>
      </trkpt>
      <trkpt lat="50.9612" lon="1.82573">
        <ele>6</ele>
        <time>2026-05-11T07:54:29.020Z</time>
      </trkpt>
      <trkpt lat="50.96116" lon="1.82568">
        <ele>5</ele>
        <time>2026-05-11T07:54:33.225Z</time>
      </trkpt>
      <trkpt lat="50.96114" lon="1.82565">
        <ele>5</ele>
        <time>2026-05-11T07:54:37.579Z</time>
      </trkpt>
      <trkpt lat="50.96111" lon="1.8256">
        <ele>5</ele>
        <time>2026-05-11T07:55:08.664Z</time>
      </trkpt>
      <trkpt lat="50.96107" lon="1.82558">
        <ele>5</ele>
        <time>2026-05-11T07:55:12.838Z</time>
      </trkpt>
      <trkpt lat="50.96103" lon="1.82557">
        <ele>5</ele>
        <time>2026-05-11T07:55:16.858Z</time>
      </trkpt>
      <trkpt lat="50.96099" lon="1.82557">
        <ele>5</ele>
        <time>2026-05-11T07:55:20.922Z</time>
      </trkpt>
      <trkpt lat="50.96096" lon="1.8256">
        <ele>7</ele>
        <time>2026-05-11T07:55:25.020Z</time>
      </trkpt>
      <trkpt lat="50.9609" lon="1.82558">
        <ele>7</ele>
        <time>2026-05-11T07:55:29.541Z</time>
      </trkpt>
      <trkpt lat="50.96085" lon="1.82555">
        <ele>7</ele>
        <time>2026-05-11T07:55:34.124Z</time>
      </trkpt>
      <trkpt lat="50.96081" lon="1.82554">
        <ele>7</ele>
        <time>2026-05-11T07:55:38.660Z</time>
      </trkpt>
      <trkpt lat="50.96077" lon="1.82551">
        <ele>7</ele>
        <time>2026-05-11T07:55:42.664Z</time>
      </trkpt>
      <trkpt lat="50.96073" lon="1.8255">
        <ele>7</ele>
        <time>2026-05-11T07:55:47.105Z</time>
      </trkpt>
      <trkpt lat="50.96069" lon="1.82551">
        <ele>7</ele>
        <time>2026-05-11T07:55:51.581Z</time>
      </trkpt>
      <trkpt lat="50.96063" lon="1.82548">
        <ele>7</ele>
        <time>2026-05-11T07:55:56.101Z</time>
      </trkpt>
      <trkpt lat="50.96062" lon="1.82548">
        <ele>7</ele>
        <time>2026-05-11T07:56:00.664Z</time>
      </trkpt>
      <trkpt lat="50.96059" lon="1.82553">
        <ele>7</ele>
        <time>2026-05-11T07:56:55.340Z</time>
      </trkpt>
      <trkpt lat="50.96054" lon="1.8255">
        <ele>7</ele>
        <time>2026-05-11T07:56:59.421Z</time>
      </trkpt>
      <trkpt lat="50.96048" lon="1.82547">
        <ele>7</ele>
        <time>2026-05-11T07:57:03.942Z</time>
      </trkpt>
      <trkpt lat="50.96043" lon="1.82544">
        <ele>7</ele>
        <time>2026-05-11T07:57:08.480Z</time>
      </trkpt>
      <trkpt lat="50.96039" lon="1.82543">
        <ele>7</ele>
        <time>2026-05-11T07:57:12.543Z</time>
      </trkpt>
      <trkpt lat="50.96035" lon="1.82541">
        <ele>7</ele>
        <time>2026-05-11T07:57:17.664Z</time>
      </trkpt>
      <trkpt lat="50.96034" lon="1.82544">
        <ele>7</ele>
        <time>2026-05-11T07:57:21.944Z</time>
      </trkpt>
      <trkpt lat="50.96027" lon="1.82545">
        <ele>7</ele>
        <time>2026-05-11T07:57:26.403Z</time>
      </trkpt>
      <trkpt lat="50.96023" lon="1.82543">
        <ele>7</ele>
        <time>2026-05-11T07:57:30.879Z</time>
      </trkpt>
      <trkpt lat="50.96018" lon="1.82544">
        <ele>7</ele>
        <time>2026-05-11T07:57:35.242Z</time>
      </trkpt>
      <trkpt lat="50.96013" lon="1.82542">
        <ele>6</ele>
        <time>2026-05-11T07:57:39.560Z</time>
      </trkpt>
      <trkpt lat="50.96009" lon="1.82538">
        <ele>6</ele>
        <time>2026-05-11T07:57:44.327Z</time>
      </trkpt>
      <trkpt lat="50.96004" lon="1.82538">
        <ele>6</ele>
        <time>2026-05-11T07:57:48.926Z</time>
      </trkpt>
      <trkpt lat="50.95999" lon="1.82536">
        <ele>6</ele>
        <time>2026-05-11T07:57:53.358Z</time>
      </trkpt>
      <trkpt lat="50.95994" lon="1.82536">
        <ele>6</ele>
        <time>2026-05-11T07:57:57.904Z</time>
      </trkpt>
      <trkpt lat="50.95988" lon="1.82534">
        <ele>6</ele>
        <time>2026-05-11T07:58:02.364Z</time>
      </trkpt>
      <trkpt lat="50.95987" lon="1.82532">
        <ele>6</ele>
        <time>2026-05-11T07:58:06.384Z</time>
      </trkpt>
      <trkpt lat="50.95983" lon="1.82533">
        <ele>6</ele>
        <time>2026-05-11T07:58:10.664Z</time>
      </trkpt>
      <trkpt lat="50.95976" lon="1.82534">
        <ele>6</ele>
        <time>2026-05-11T07:58:15.161Z</time>
      </trkpt>
      <trkpt lat="50.95971" lon="1.82525">
        <ele>6</ele>
        <time>2026-05-11T07:58:19.602Z</time>
      </trkpt>
      <trkpt lat="50.95969" lon="1.82518">
        <ele>6</ele>
        <time>2026-05-11T07:58:24.122Z</time>
      </trkpt>
      <trkpt lat="50.95966" lon="1.82511">
        <ele>6</ele>
        <time>2026-05-11T07:58:28.126Z</time>
      </trkpt>
      <trkpt lat="50.95967" lon="1.82503">
        <ele>6</ele>
        <time>2026-05-11T07:58:32.664Z</time>
      </trkpt>
      <trkpt lat="50.95967" lon="1.82495">
        <ele>6</ele>
        <time>2026-05-11T07:58:36.663Z</time>
      </trkpt>
      <trkpt lat="50.95967" lon="1.82486">
        <ele>6</ele>
        <time>2026-05-11T07:58:41.344Z</time>
      </trkpt>
      <trkpt lat="50.95966" lon="1.82482">
        <ele>7</ele>
        <time>2026-05-11T07:58:45.382Z</time>
      </trkpt>
      <trkpt lat="50.95965" lon="1.82471">
        <ele>7</ele>
        <time>2026-05-11T07:58:49.919Z</time>
      </trkpt>
      <trkpt lat="50.95964" lon="1.82463">
        <ele>7</ele>
        <time>2026-05-11T07:58:54.484Z</time>
      </trkpt>
      <trkpt lat="50.95964" lon="1.82455">
        <ele>6</ele>
        <time>2026-05-11T07:58:59.022Z</time>
      </trkpt>
      <trkpt lat="50.95963" lon="1.82447">
        <ele>6</ele>
        <time>2026-05-11T07:59:03.103Z</time>
      </trkpt>
      <trkpt lat="50.95963" lon="1.82438">
        <ele>6</ele>
        <time>2026-05-11T07:59:07.658Z</time>
      </trkpt>
      <trkpt lat="50.95962" lon="1.82429">
        <ele>6</ele>
        <time>2026-05-11T07:59:12.225Z</time>
      </trkpt>
      <trkpt lat="50.95962" lon="1.82424">
        <ele>6</ele>
        <time>2026-05-11T07:59:16.664Z</time>
      </trkpt>
      <trkpt lat="50.95962" lon="1.82413">
        <ele>6</ele>
        <time>2026-05-11T07:59:21.579Z</time>
      </trkpt>
      <trkpt lat="50.95963" lon="1.82404">
        <ele>6</ele>
        <time>2026-05-11T07:59:26.144Z</time>
      </trkpt>
      <trkpt lat="50.95963" lon="1.824">
        <ele>6</ele>
        <time>2026-05-11T07:59:30.480Z</time>
      </trkpt>
      <trkpt lat="50.9596" lon="1.82391">
        <ele>6</ele>
        <time>2026-05-11T07:59:35.004Z</time>
      </trkpt>
      <trkpt lat="50.95956" lon="1.82385">
        <ele>5</ele>
        <time>2026-05-11T07:59:39.542Z</time>
      </trkpt>
      <trkpt lat="50.95957" lon="1.82373">
        <ele>4</ele>
        <time>2026-05-11T07:59:44.142Z</time>
      </trkpt>
      <trkpt lat="50.95958" lon="1.82364">
        <ele>4</ele>
        <time>2026-05-11T07:59:48.663Z</time>
      </trkpt>
      <trkpt lat="50.95958" lon="1.82356">
        <ele>4</ele>
        <time>2026-05-11T07:59:53.261Z</time>
      </trkpt>
      <trkpt lat="50.95957" lon="1.82349">
        <ele>4</ele>
        <time>2026-05-11T07:59:57.281Z</time>
      </trkpt>
      <trkpt lat="50.95957" lon="1.82341">
        <ele>4</ele>
        <time>2026-05-11T08:00:01.864Z</time>
      </trkpt>
      <trkpt lat="50.95957" lon="1.82333">
        <ele>4</ele>
        <time>2026-05-11T08:00:05.901Z</time>
      </trkpt>
      <trkpt lat="50.95957" lon="1.82325">
        <ele>4</ele>
        <time>2026-05-11T08:00:10.465Z</time>
      </trkpt>
      <trkpt lat="50.95956" lon="1.82316">
        <ele>4</ele>
        <time>2026-05-11T08:00:15.003Z</time>
      </trkpt>
      <trkpt lat="50.95955" lon="1.82308">
        <ele>4</ele>
        <time>2026-05-11T08:00:19.541Z</time>
      </trkpt>
      <trkpt lat="50.95955" lon="1.823">
        <ele>4</ele>
        <time>2026-05-11T08:00:24.043Z</time>
      </trkpt>
      <trkpt lat="50.95953" lon="1.82291">
        <ele>4</ele>
        <time>2026-05-11T08:00:28.458Z</time>
      </trkpt>
      <trkpt lat="50.95952" lon="1.82281">
        <ele>4</ele>
        <time>2026-05-11T08:00:32.944Z</time>
      </trkpt>
      <trkpt lat="50.95951" lon="1.82273">
        <ele>4</ele>
        <time>2026-05-11T08:00:37.664Z</time>
      </trkpt>
      <trkpt lat="50.95949" lon="1.82266">
        <ele>4</ele>
        <time>2026-05-11T08:00:41.801Z</time>
      </trkpt>
      <trkpt lat="50.95947" lon="1.82258">
        <ele>5</ele>
        <time>2026-05-11T08:00:46.286Z</time>
      </trkpt>
      <trkpt lat="50.95945" lon="1.82251">
        <ele>5</ele>
        <time>2026-05-11T08:00:50.306Z</time>
      </trkpt>
      <trkpt lat="50.95943" lon="1.82244">
        <ele>5</ele>
        <time>2026-05-11T08:00:54.343Z</time>
      </trkpt>
      <trkpt lat="50.95941" lon="1.82236">
        <ele>4</ele>
        <time>2026-05-11T08:00:58.900Z</time>
      </trkpt>
      <trkpt lat="50.95941" lon="1.82234">
        <ele>4</ele>
        <time>2026-05-11T08:01:02.981Z</time>
      </trkpt>
      <trkpt lat="50.95939" lon="1.82228">
        <ele>4</ele>
        <time>2026-05-11T08:01:07.663Z</time>
      </trkpt>
      <trkpt lat="50.95939" lon="1.82228">
        <ele>4</ele>
        <time>2026-05-11T08:01:12.117Z</time>
      </trkpt>
      <trkpt lat="50.95939" lon="1.82222">
        <ele>4</ele>
        <time>2026-05-11T08:01:16.663Z</time>
      </trkpt>
      <trkpt lat="50.95943" lon="1.82213">
        <ele>4</ele>
        <time>2026-05-11T08:01:21.245Z</time>
      </trkpt>
      <trkpt lat="50.95941" lon="1.82204">
        <ele>5</ele>
        <time>2026-05-11T08:01:25.801Z</time>
      </trkpt>
      <trkpt lat="50.95939" lon="1.82196">
        <ele>5</ele>
        <time>2026-05-11T08:01:29.838Z</time>
      </trkpt>
      <trkpt lat="50.95937" lon="1.82189">
        <ele>5</ele>
        <time>2026-05-11T08:01:33.884Z</time>
      </trkpt>
      <trkpt lat="50.95936" lon="1.82182">
        <ele>5</ele>
        <time>2026-05-11T08:01:37.957Z</time>
      </trkpt>
      <trkpt lat="50.95935" lon="1.82174">
        <ele>4</ele>
        <time>2026-05-11T08:01:42.003Z</time>
      </trkpt>
      <trkpt lat="50.95933" lon="1.82167">
        <ele>4</ele>
        <time>2026-05-11T08:01:46.041Z</time>
      </trkpt>
      <trkpt lat="50.95932" lon="1.8216">
        <ele>4</ele>
        <time>2026-05-11T08:01:50.043Z</time>
      </trkpt>
      <trkpt lat="50.95931" lon="1.82152">
        <ele>5</ele>
        <time>2026-05-11T08:01:54.097Z</time>
      </trkpt>
      <trkpt lat="50.95929" lon="1.82145">
        <ele>5</ele>
        <time>2026-05-11T08:01:58.118Z</time>
      </trkpt>
      <trkpt lat="50.95926" lon="1.82139">
        <ele>5</ele>
        <time>2026-05-11T08:02:02.121Z</time>
      </trkpt>
      <trkpt lat="50.95924" lon="1.82131">
        <ele>5</ele>
        <time>2026-05-11T08:02:06.657Z</time>
      </trkpt>
      <trkpt lat="50.95923" lon="1.82125">
        <ele>5</ele>
        <time>2026-05-11T08:02:11.663Z</time>
      </trkpt>
      <trkpt lat="50.9592" lon="1.82121">
        <ele>5</ele>
        <time>2026-05-11T08:02:16.102Z</time>
      </trkpt>
      <trkpt lat="50.9592" lon="1.82112">
        <ele>5</ele>
        <time>2026-05-11T08:02:20.640Z</time>
      </trkpt>
      <trkpt lat="50.95918" lon="1.821">
        <ele>5</ele>
        <time>2026-05-11T08:02:25.124Z</time>
      </trkpt>
      <trkpt lat="50.95916" lon="1.82094">
        <ele>5</ele>
        <time>2026-05-11T08:02:29.145Z</time>
      </trkpt>
      <trkpt lat="50.95913" lon="1.82086">
        <ele>5</ele>
        <time>2026-05-11T08:02:33.664Z</time>
      </trkpt>
      <trkpt lat="50.9591" lon="1.82078">
        <ele>5</ele>
        <time>2026-05-11T08:02:38.299Z</time>
      </trkpt>
      <trkpt lat="50.95909" lon="1.82073">
        <ele>5</ele>
        <time>2026-05-11T08:02:42.898Z</time>
      </trkpt>
      <trkpt lat="50.95911" lon="1.82064">
        <ele>5</ele>
        <time>2026-05-11T08:02:46.997Z</time>
      </trkpt>
      <trkpt lat="50.95914" lon="1.82058">
        <ele>5</ele>
        <time>2026-05-11T08:02:51.140Z</time>
      </trkpt>
      <trkpt lat="50.95918" lon="1.82053">
        <ele>5</ele>
        <time>2026-05-11T08:02:55.238Z</time>
      </trkpt>
      <trkpt lat="50.95923" lon="1.82051">
        <ele>5</ele>
        <time>2026-05-11T08:02:59.399Z</time>
      </trkpt>
      <trkpt lat="50.95926" lon="1.82052">
        <ele>5</ele>
        <time>2026-05-11T08:03:04.120Z</time>
      </trkpt>
      <trkpt lat="50.95933" lon="1.82051">
        <ele>5</ele>
        <time>2026-05-11T08:03:08.623Z</time>
      </trkpt>
      <trkpt lat="50.95938" lon="1.82052">
        <ele>5</ele>
        <time>2026-05-11T08:03:13.117Z</time>
      </trkpt>
      <trkpt lat="50.95942" lon="1.82051">
        <ele>5</ele>
        <time>2026-05-11T08:03:17.259Z</time>
      </trkpt>
      <trkpt lat="50.95943" lon="1.82047">
        <ele>5</ele>
        <time>2026-05-11T08:03:21.341Z</time>
      </trkpt>
      <trkpt lat="50.95949" lon="1.82045">
        <ele>5</ele>
        <time>2026-05-11T08:03:25.440Z</time>
      </trkpt>
      <trkpt lat="50.95954" lon="1.82042">
        <ele>5</ele>
        <time>2026-05-11T08:03:29.619Z</time>
      </trkpt>
      <trkpt lat="50.95959" lon="1.82042">
        <ele>4</ele>
        <time>2026-05-11T08:03:33.663Z</time>
      </trkpt>
      <trkpt lat="50.95963" lon="1.82048">
        <ele>4</ele>
        <time>2026-05-11T08:03:38.018Z</time>
      </trkpt>
      <trkpt lat="50.95963" lon="1.8205">
        <ele>4</ele>
        <time>2026-05-11T08:04:17.664Z</time>
      </trkpt>
      <trkpt lat="50.95968" lon="1.82051">
        <ele>4</ele>
        <time>2026-05-11T08:04:22.243Z</time>
      </trkpt>
      <trkpt lat="50.95975" lon="1.8205">
        <ele>4</ele>
        <time>2026-05-11T08:04:26.483Z</time>
      </trkpt>
      <trkpt lat="50.95981" lon="1.82052">
        <ele>4</ele>
        <time>2026-05-11T08:04:30.801Z</time>
      </trkpt>
      <trkpt lat="50.95986" lon="1.82051">
        <ele>4</ele>
        <time>2026-05-11T08:04:35.663Z</time>
      </trkpt>
      <trkpt lat="50.95985" lon="1.82051">
        <ele>4</ele>
        <time>2026-05-11T08:04:40.482Z</time>
      </trkpt>
      <trkpt lat="50.95985" lon="1.8205">
        <ele>4</ele>
        <time>2026-05-11T08:04:44.598Z</time>
      </trkpt>
      <trkpt lat="50.9598" lon="1.82052">
        <ele>4</ele>
        <time>2026-05-11T08:04:49.443Z</time>
      </trkpt>
      <trkpt lat="50.95974" lon="1.82052">
        <ele>4</ele>
        <time>2026-05-11T08:04:53.937Z</time>
      </trkpt>
      <trkpt lat="50.95967" lon="1.82054">
        <ele>4</ele>
        <time>2026-05-11T08:04:58.319Z</time>
      </trkpt>
      <trkpt lat="50.95961" lon="1.82053">
        <ele>4</ele>
        <time>2026-05-11T08:05:02.663Z</time>
      </trkpt>
      <trkpt lat="50.95958" lon="1.82052">
        <ele>5</ele>
        <time>2026-05-11T08:05:06.662Z</time>
      </trkpt>
      <trkpt lat="50.95954" lon="1.82043">
        <ele>5</ele>
        <time>2026-05-11T08:05:11.625Z</time>
      </trkpt>
      <trkpt lat="50.95953" lon="1.82032">
        <ele>6</ele>
        <time>2026-05-11T08:05:16.180Z</time>
      </trkpt>
      <trkpt lat="50.95953" lon="1.82023">
        <ele>6</ele>
        <time>2026-05-11T08:05:20.244Z</time>
      </trkpt>
      <trkpt lat="50.95955" lon="1.82016">
        <ele>6</ele>
        <time>2026-05-11T08:05:24.360Z</time>
      </trkpt>
      <trkpt lat="50.95957" lon="1.82011">
        <ele>5</ele>
        <time>2026-05-11T08:05:28.618Z</time>
      </trkpt>
      <trkpt lat="50.95957" lon="1.82004">
        <ele>5</ele>
        <time>2026-05-11T08:05:32.663Z</time>
      </trkpt>
      <trkpt lat="50.95955" lon="1.82001">
        <ele>5</ele>
        <time>2026-05-11T08:05:37.662Z</time>
      </trkpt>
      <trkpt lat="50.95955" lon="1.81994">
        <ele>5</ele>
        <time>2026-05-11T08:05:41.924Z</time>
      </trkpt>
      <trkpt lat="50.95957" lon="1.81987">
        <ele>5</ele>
        <time>2026-05-11T08:05:46.023Z</time>
      </trkpt>
      <trkpt lat="50.95958" lon="1.81979">
        <ele>6</ele>
        <time>2026-05-11T08:05:50.140Z</time>
      </trkpt>
      <trkpt lat="50.95956" lon="1.81971">
        <ele>6</ele>
        <time>2026-05-11T08:05:54.283Z</time>
      </trkpt>
      <trkpt lat="50.95957" lon="1.81963">
        <ele>6</ele>
        <time>2026-05-11T08:05:58.399Z</time>
      </trkpt>
      <trkpt lat="50.95956" lon="1.81959">
        <ele>6</ele>
        <time>2026-05-11T08:06:02.480Z</time>
      </trkpt>
      <trkpt lat="50.95955" lon="1.81948">
        <ele>5</ele>
        <time>2026-05-11T08:06:06.483Z</time>
      </trkpt>
      <trkpt lat="50.95955" lon="1.8194">
        <ele>5</ele>
        <time>2026-05-11T08:06:10.503Z</time>
      </trkpt>
      <trkpt lat="50.95954" lon="1.81932">
        <ele>5</ele>
        <time>2026-05-11T08:06:14.541Z</time>
      </trkpt>
      <trkpt lat="50.95954" lon="1.81924">
        <ele>6</ele>
        <time>2026-05-11T08:06:18.798Z</time>
      </trkpt>
      <trkpt lat="50.95955" lon="1.81916">
        <ele>6</ele>
        <time>2026-05-11T08:06:22.879Z</time>
      </trkpt>
      <trkpt lat="50.95955" lon="1.81909">
        <ele>6</ele>
        <time>2026-05-11T08:06:27.004Z</time>
      </trkpt>
      <trkpt lat="50.95955" lon="1.81901">
        <ele>6</ele>
        <time>2026-05-11T08:06:31.103Z</time>
      </trkpt>
      <trkpt lat="50.95954" lon="1.81893">
        <ele>6</ele>
        <time>2026-05-11T08:06:35.184Z</time>
      </trkpt>
      <trkpt lat="50.95953" lon="1.81886">
        <ele>6</ele>
        <time>2026-05-11T08:06:39.257Z</time>
      </trkpt>
      <trkpt lat="50.9595" lon="1.81879">
        <ele>6</ele>
        <time>2026-05-11T08:06:43.322Z</time>
      </trkpt>
      <trkpt lat="50.9595" lon="1.81876">
        <ele>6</ele>
        <time>2026-05-11T08:06:47.938Z</time>
      </trkpt>
      <trkpt lat="50.9595" lon="1.81866">
        <ele>7</ele>
        <time>2026-05-11T08:06:52.480Z</time>
      </trkpt>
      <trkpt lat="50.9595" lon="1.81858">
        <ele>7</ele>
        <time>2026-05-11T08:06:56.983Z</time>
      </trkpt>
      <trkpt lat="50.95948" lon="1.81852">
        <ele>7</ele>
        <time>2026-05-11T08:07:01.567Z</time>
      </trkpt>
      <trkpt lat="50.95945" lon="1.81847">
        <ele>5</ele>
        <time>2026-05-11T08:07:06.121Z</time>
      </trkpt>
      <trkpt lat="50.95942" lon="1.81839">
        <ele>5</ele>
        <time>2026-05-11T08:07:10.263Z</time>
      </trkpt>
      <trkpt lat="50.95944" lon="1.81834">
        <ele>5</ele>
        <time>2026-05-11T08:07:22.963Z</time>
      </trkpt>
      <trkpt lat="50.95945" lon="1.81834">
        <ele>5</ele>
        <time>2026-05-11T08:07:28.663Z</time>
      </trkpt>
      <trkpt lat="50.95945" lon="1.81834">
        <ele>5</ele>
        <time>2026-05-11T08:07:33.663Z</time>
      </trkpt>
      <trkpt lat="50.95948" lon="1.81832">
        <ele>5</ele>
        <time>2026-05-11T08:07:38.122Z</time>
      </trkpt>
      <trkpt lat="50.95954" lon="1.81826">
        <ele>5</ele>
        <time>2026-05-11T08:07:42.663Z</time>
      </trkpt>
      <trkpt lat="50.95955" lon="1.81825">
        <ele>5</ele>
        <time>2026-05-11T08:07:46.662Z</time>
      </trkpt>
      <trkpt lat="50.95958" lon="1.81823">
        <ele>6</ele>
        <time>2026-05-11T08:07:50.786Z</time>
      </trkpt>
      <trkpt lat="50.9596" lon="1.81817">
        <ele>8</ele>
        <time>2026-05-11T08:07:54.878Z</time>
      </trkpt>
      <trkpt lat="50.95961" lon="1.81809">
        <ele>8</ele>
        <time>2026-05-11T08:07:59.179Z</time>
      </trkpt>
      <trkpt lat="50.9596" lon="1.81803">
        <ele>8</ele>
        <time>2026-05-11T08:08:03.481Z</time>
      </trkpt>
      <trkpt lat="50.95961" lon="1.81796">
        <ele>8</ele>
        <time>2026-05-11T08:08:07.860Z</time>
      </trkpt>
      <trkpt lat="50.95962" lon="1.81789">
        <ele>5</ele>
        <time>2026-05-11T08:08:12.301Z</time>
      </trkpt>
      <trkpt lat="50.95963" lon="1.81784">
        <ele>5</ele>
        <time>2026-05-11T08:08:16.663Z</time>
      </trkpt>
      <trkpt lat="50.95964" lon="1.81778">
        <ele>5</ele>
        <time>2026-05-11T08:08:21.104Z</time>
      </trkpt>
      <trkpt lat="50.95965" lon="1.81772">
        <ele>5</ele>
        <time>2026-05-11T08:08:25.663Z</time>
      </trkpt>
      <trkpt lat="50.95966" lon="1.81766">
        <ele>5</ele>
        <time>2026-05-11T08:08:29.663Z</time>
      </trkpt>
      <trkpt lat="50.95967" lon="1.81761">
        <ele>6</ele>
        <time>2026-05-11T08:08:34.446Z</time>
      </trkpt>
      <trkpt lat="50.95968" lon="1.81755">
        <ele>6</ele>
        <time>2026-05-11T08:08:39.080Z</time>
      </trkpt>
      <trkpt lat="50.95968" lon="1.8175">
        <ele>6</ele>
        <time>2026-05-11T08:08:43.582Z</time>
      </trkpt>
      <trkpt lat="50.95969" lon="1.81743">
        <ele>6</ele>
        <time>2026-05-11T08:08:48.261Z</time>
      </trkpt>
      <trkpt lat="50.95968" lon="1.81737">
        <ele>6</ele>
        <time>2026-05-11T08:08:52.662Z</time>
      </trkpt>
      <trkpt lat="50.95969" lon="1.81731">
        <ele>5</ele>
        <time>2026-05-11T08:08:57.345Z</time>
      </trkpt>
      <trkpt lat="50.9597" lon="1.81724">
        <ele>5</ele>
        <time>2026-05-11T08:09:01.662Z</time>
      </trkpt>
      <trkpt lat="50.95971" lon="1.81722">
        <ele>5</ele>
        <time>2026-05-11T08:09:05.663Z</time>
      </trkpt>
      <trkpt lat="50.95972" lon="1.81717">
        <ele>5</ele>
        <time>2026-05-11T08:09:10.282Z</time>
      </trkpt>
      <trkpt lat="50.95974" lon="1.81712">
        <ele>5</ele>
        <time>2026-05-11T08:09:14.662Z</time>
      </trkpt>
      <trkpt lat="50.95975" lon="1.81705">
        <ele>6</ele>
        <time>2026-05-11T08:09:19.200Z</time>
      </trkpt>
      <trkpt lat="50.95976" lon="1.81698">
        <ele>6</ele>
        <time>2026-05-11T08:09:23.658Z</time>
      </trkpt>
      <trkpt lat="50.95977" lon="1.81693">
        <ele>6</ele>
        <time>2026-05-11T08:09:28.021Z</time>
      </trkpt>
      <trkpt lat="50.95978" lon="1.81691">
        <ele>6</ele>
        <time>2026-05-11T08:09:32.663Z</time>
      </trkpt>
      <trkpt lat="50.95978" lon="1.81689">
        <ele>6</ele>
        <time>2026-05-11T08:09:36.662Z</time>
      </trkpt>
      <trkpt lat="50.95977" lon="1.81685">
        <ele>6</ele>
        <time>2026-05-11T08:09:40.839Z</time>
      </trkpt>
      <trkpt lat="50.95976" lon="1.81678">
        <ele>7</ele>
        <time>2026-05-11T08:09:45.403Z</time>
      </trkpt>
      <trkpt lat="50.95975" lon="1.81673">
        <ele>7</ele>
        <time>2026-05-11T08:09:49.423Z</time>
      </trkpt>
      <trkpt lat="50.9597" lon="1.81673">
        <ele>7</ele>
        <time>2026-05-11T08:09:53.961Z</time>
      </trkpt>
      <trkpt lat="50.95966" lon="1.81674">
        <ele>7</ele>
        <time>2026-05-11T08:09:58.499Z</time>
      </trkpt>
      <trkpt lat="50.95963" lon="1.81673">
        <ele>7</ele>
        <time>2026-05-11T08:10:03.045Z</time>
      </trkpt>
      <trkpt lat="50.95959" lon="1.81676">
        <ele>7</ele>
        <time>2026-05-11T08:10:07.662Z</time>
      </trkpt>
      <trkpt lat="50.95957" lon="1.81677">
        <ele>6</ele>
        <time>2026-05-11T08:10:11.662Z</time>
      </trkpt>
      <trkpt lat="50.95954" lon="1.81677">
        <ele>6</ele>
        <time>2026-05-11T08:10:15.860Z</time>
      </trkpt>
      <trkpt lat="50.9595" lon="1.81677">
        <ele>6</ele>
        <time>2026-05-11T08:10:20.320Z</time>
      </trkpt>
      <trkpt lat="50.95945" lon="1.81677">
        <ele>6</ele>
        <time>2026-05-11T08:10:24.663Z</time>
      </trkpt>
      <trkpt lat="50.95941" lon="1.81677">
        <ele>6</ele>
        <time>2026-05-11T08:10:29.139Z</time>
      </trkpt>
      <trkpt lat="50.95937" lon="1.81678">
        <ele>6</ele>
        <time>2026-05-11T08:10:33.625Z</time>
      </trkpt>
      <trkpt lat="50.95933" lon="1.81683">
        <ele>5</ele>
        <time>2026-05-11T08:10:38.425Z</time>
      </trkpt>
      <trkpt lat="50.95929" lon="1.81685">
        <ele>5</ele>
        <time>2026-05-11T08:10:42.662Z</time>
      </trkpt>
      <trkpt lat="50.95927" lon="1.81675">
        <ele>5</ele>
        <time>2026-05-11T08:11:42.662Z</time>
      </trkpt>
      <trkpt lat="50.95927" lon="1.81674">
        <ele>5</ele>
        <time>2026-05-11T08:11:46.663Z</time>
      </trkpt>
      <trkpt lat="50.95927" lon="1.81673">
        <ele>5</ele>
        <time>2026-05-11T08:11:52.663Z</time>
      </trkpt>
      <trkpt lat="50.95925" lon="1.8167">
        <ele>5</ele>
        <time>2026-05-11T08:11:56.663Z</time>
      </trkpt>
      <trkpt lat="50.95923" lon="1.81662">
        <ele>5</ele>
        <time>2026-05-11T08:12:01.158Z</time>
      </trkpt>
      <trkpt lat="50.95923" lon="1.81658">
        <ele>5</ele>
        <time>2026-05-11T08:12:05.537Z</time>
      </trkpt>
      <trkpt lat="50.95922" lon="1.8165">
        <ele>5</ele>
        <time>2026-05-11T08:12:09.944Z</time>
      </trkpt>
      <trkpt lat="50.95922" lon="1.81642">
        <ele>5</ele>
        <time>2026-05-11T08:12:14.535Z</time>
      </trkpt>
      <trkpt lat="50.95924" lon="1.81638">
        <ele>5</ele>
        <time>2026-05-11T08:12:18.662Z</time>
      </trkpt>
      <trkpt lat="50.95923" lon="1.81631">
        <ele>5</ele>
        <time>2026-05-11T08:12:22.959Z</time>
      </trkpt>
      <trkpt lat="50.95922" lon="1.81624">
        <ele>5</ele>
        <time>2026-05-11T08:12:27.059Z</time>
      </trkpt>
      <trkpt lat="50.95921" lon="1.81617">
        <ele>5</ele>
        <time>2026-05-11T08:12:31.204Z</time>
      </trkpt>
      <trkpt lat="50.95923" lon="1.81611">
        <ele>5</ele>
        <time>2026-05-11T08:12:35.663Z</time>
      </trkpt>
      <trkpt lat="50.95925" lon="1.81606">
        <ele>5</ele>
        <time>2026-05-11T08:12:39.864Z</time>
      </trkpt>
      <trkpt lat="50.95925" lon="1.816">
        <ele>5</ele>
        <time>2026-05-11T08:12:43.919Z</time>
      </trkpt>
      <trkpt lat="50.95925" lon="1.81592">
        <ele>6</ele>
        <time>2026-05-11T08:12:48.079Z</time>
      </trkpt>
      <trkpt lat="50.95924" lon="1.81585">
        <ele>6</ele>
        <time>2026-05-11T08:12:52.222Z</time>
      </trkpt>
      <trkpt lat="50.95924" lon="1.81578">
        <ele>6</ele>
        <time>2026-05-11T08:12:56.505Z</time>
      </trkpt>
      <trkpt lat="50.95923" lon="1.81571">
        <ele>6</ele>
        <time>2026-05-11T08:13:00.561Z</time>
      </trkpt>
      <trkpt lat="50.9592" lon="1.81563">
        <ele>6</ele>
        <time>2026-05-11T08:13:05.018Z</time>
      </trkpt>
      <trkpt lat="50.95919" lon="1.81555">
        <ele>6</ele>
        <time>2026-05-11T08:13:09.346Z</time>
      </trkpt>
      <trkpt lat="50.95919" lon="1.8155">
        <ele>6</ele>
        <time>2026-05-11T08:13:13.461Z</time>
      </trkpt>
      <trkpt lat="50.95918" lon="1.8154">
        <ele>7</ele>
        <time>2026-05-11T08:13:17.662Z</time>
      </trkpt>
      <trkpt lat="50.95916" lon="1.81535">
        <ele>7</ele>
        <time>2026-05-11T08:13:21.821Z</time>
      </trkpt>
      <trkpt lat="50.95915" lon="1.81527">
        <ele>7</ele>
        <time>2026-05-11T08:13:25.964Z</time>
      </trkpt>
      <trkpt lat="50.95915" lon="1.81519">
        <ele>7</ele>
        <time>2026-05-11T08:13:30.222Z</time>
      </trkpt>
      <trkpt lat="50.95915" lon="1.81512">
        <ele>6</ele>
        <time>2026-05-11T08:13:34.401Z</time>
      </trkpt>
      <trkpt lat="50.95914" lon="1.81505">
        <ele>6</ele>
        <time>2026-05-11T08:13:38.662Z</time>
      </trkpt>
      <trkpt lat="50.95914" lon="1.81504">
        <ele>6</ele>
        <time>2026-05-11T08:13:42.662Z</time>
      </trkpt>
      <trkpt lat="50.95914" lon="1.81502">
        <ele>6</ele>
        <time>2026-05-11T08:14:08.663Z</time>
      </trkpt>
      <trkpt lat="50.95914" lon="1.81502">
        <ele>6</ele>
        <time>2026-05-11T08:14:13.663Z</time>
      </trkpt>
      <trkpt lat="50.95913" lon="1.81501">
        <ele>6</ele>
        <time>2026-05-11T08:14:18.662Z</time>
      </trkpt>
      <trkpt lat="50.9591" lon="1.81496">
        <ele>6</ele>
        <time>2026-05-11T08:14:23.059Z</time>
      </trkpt>
      <trkpt lat="50.9591" lon="1.8149">
        <ele>6</ele>
        <time>2026-05-11T08:14:27.298Z</time>
      </trkpt>
      <trkpt lat="50.95909" lon="1.81481">
        <ele>8</ele>
        <time>2026-05-11T08:14:31.379Z</time>
      </trkpt>
      <trkpt lat="50.95907" lon="1.81473">
        <ele>8</ele>
        <time>2026-05-11T08:14:35.443Z</time>
      </trkpt>
      <trkpt lat="50.95904" lon="1.81463">
        <ele>8</ele>
        <time>2026-05-11T08:14:39.962Z</time>
      </trkpt>
      <trkpt lat="50.95901" lon="1.81457">
        <ele>5</ele>
        <time>2026-05-11T08:14:44.545Z</time>
      </trkpt>
      <trkpt lat="50.95899" lon="1.81449">
        <ele>5</ele>
        <time>2026-05-11T08:14:48.599Z</time>
      </trkpt>
      <trkpt lat="50.95898" lon="1.81442">
        <ele>5</ele>
        <time>2026-05-11T08:14:52.663Z</time>
      </trkpt>
      <trkpt lat="50.95896" lon="1.81435">
        <ele>5</ele>
        <time>2026-05-11T08:14:56.662Z</time>
      </trkpt>
      <trkpt lat="50.95895" lon="1.81427">
        <ele>8</ele>
        <time>2026-05-11T08:15:00.782Z</time>
      </trkpt>
      <trkpt lat="50.95893" lon="1.81419">
        <ele>8</ele>
        <time>2026-05-11T08:15:05.477Z</time>
      </trkpt>
      <trkpt lat="50.95891" lon="1.81414">
        <ele>8</ele>
        <time>2026-05-11T08:15:09.505Z</time>
      </trkpt>
      <trkpt lat="50.9589" lon="1.81408">
        <ele>8</ele>
        <time>2026-05-11T08:15:13.824Z</time>
      </trkpt>
      <trkpt lat="50.9589" lon="1.81401">
        <ele>7</ele>
        <time>2026-05-11T08:15:18.019Z</time>
      </trkpt>
      <trkpt lat="50.95888" lon="1.81395">
        <ele>7</ele>
        <time>2026-05-11T08:15:22.083Z</time>
      </trkpt>
      <trkpt lat="50.95886" lon="1.81388">
        <ele>7</ele>
        <time>2026-05-11T08:15:26.181Z</time>
      </trkpt>
      <trkpt lat="50.95884" lon="1.81381">
        <ele>7</ele>
        <time>2026-05-11T08:15:30.360Z</time>
      </trkpt>
      <trkpt lat="50.95883" lon="1.81375">
        <ele>8</ele>
        <time>2026-05-11T08:15:34.379Z</time>
      </trkpt>
      <trkpt lat="50.9588" lon="1.81368">
        <ele>8</ele>
        <time>2026-05-11T08:15:38.399Z</time>
      </trkpt>
      <trkpt lat="50.95878" lon="1.81361">
        <ele>8</ele>
        <time>2026-05-11T08:15:42.464Z</time>
      </trkpt>
      <trkpt lat="50.95876" lon="1.81354">
        <ele>8</ele>
        <time>2026-05-11T08:15:46.482Z</time>
      </trkpt>
      <trkpt lat="50.95875" lon="1.81346">
        <ele>5</ele>
        <time>2026-05-11T08:15:50.663Z</time>
      </trkpt>
      <trkpt lat="50.95872" lon="1.81339">
        <ele>5</ele>
        <time>2026-05-11T08:15:54.960Z</time>
      </trkpt>
      <trkpt lat="50.9587" lon="1.81331">
        <ele>5</ele>
        <time>2026-05-11T08:15:59.401Z</time>
      </trkpt>
      <trkpt lat="50.95871" lon="1.81326">
        <ele>5</ele>
        <time>2026-05-11T08:16:03.439Z</time>
      </trkpt>
      <trkpt lat="50.9587" lon="1.81317">
        <ele>7</ele>
        <time>2026-05-11T08:16:08.002Z</time>
      </trkpt>
      <trkpt lat="50.95866" lon="1.81307">
        <ele>7</ele>
        <time>2026-05-11T08:16:12.479Z</time>
      </trkpt>
      <trkpt lat="50.95865" lon="1.81301">
        <ele>7</ele>
        <time>2026-05-11T08:16:16.577Z</time>
      </trkpt>
      <trkpt lat="50.95864" lon="1.81296">
        <ele>7</ele>
        <time>2026-05-11T08:16:20.658Z</time>
      </trkpt>
      <trkpt lat="50.95863" lon="1.81286">
        <ele>6</ele>
        <time>2026-05-11T08:16:24.663Z</time>
      </trkpt>
      <trkpt lat="50.95861" lon="1.81277">
        <ele>6</ele>
        <time>2026-05-11T08:16:28.663Z</time>
      </trkpt>
      <trkpt lat="50.95859" lon="1.8127">
        <ele>6</ele>
        <time>2026-05-11T08:16:33.385Z</time>
      </trkpt>
      <trkpt lat="50.95857" lon="1.81266">
        <ele>6</ele>
        <time>2026-05-11T08:16:37.422Z</time>
      </trkpt>
      <trkpt lat="50.95855" lon="1.81261">
        <ele>8</ele>
        <time>2026-05-11T08:16:41.424Z</time>
      </trkpt>
      <trkpt lat="50.95851" lon="1.81259">
        <ele>8</ele>
        <time>2026-05-11T08:16:45.662Z</time>
      </trkpt>
      <trkpt lat="50.95847" lon="1.81259">
        <ele>8</ele>
        <time>2026-05-11T08:16:50.201Z</time>
      </trkpt>
      <trkpt lat="50.95844" lon="1.81255">
        <ele>6</ele>
        <time>2026-05-11T08:16:54.484Z</time>
      </trkpt>
      <trkpt lat="50.95841" lon="1.81254">
        <ele>6</ele>
        <time>2026-05-11T08:16:58.663Z</time>
      </trkpt>
      <trkpt lat="50.95843" lon="1.81249">
        <ele>6</ele>
        <time>2026-05-11T08:17:28.662Z</time>
      </trkpt>
      <trkpt lat="50.95845" lon="1.81256">
        <ele>6</ele>
        <time>2026-05-11T08:17:33.243Z</time>
      </trkpt>
      <trkpt lat="50.95849" lon="1.8126">
        <ele>8</ele>
        <time>2026-05-11T08:17:37.663Z</time>
      </trkpt>
      <trkpt lat="50.95849" lon="1.81261">
        <ele>8</ele>
        <time>2026-05-11T08:17:42.564Z</time>
      </trkpt>
      <trkpt lat="50.9585" lon="1.81261">
        <ele>8</ele>
        <time>2026-05-11T08:17:47.463Z</time>
      </trkpt>
      <trkpt lat="50.95854" lon="1.81257">
        <ele>8</ele>
        <time>2026-05-11T08:17:52.001Z</time>
      </trkpt>
      <trkpt lat="50.95856" lon="1.81249">
        <ele>8</ele>
        <time>2026-05-11T08:17:56.239Z</time>
      </trkpt>
      <trkpt lat="50.95853" lon="1.81243">
        <ele>8</ele>
        <time>2026-05-11T08:18:00.338Z</time>
      </trkpt>
      <trkpt lat="50.9585" lon="1.81236">
        <ele>8</ele>
        <time>2026-05-11T08:18:04.902Z</time>
      </trkpt>
      <trkpt lat="50.95845" lon="1.81231">
        <ele>5</ele>
        <time>2026-05-11T08:18:09.662Z</time>
      </trkpt>
      <trkpt lat="50.95842" lon="1.81223">
        <ele>5</ele>
        <time>2026-05-11T08:18:13.819Z</time>
      </trkpt>
      <trkpt lat="50.95841" lon="1.81216">
        <ele>5</ele>
        <time>2026-05-11T08:18:18.085Z</time>
      </trkpt>
      <trkpt lat="50.95841" lon="1.8121">
        <ele>5</ele>
        <time>2026-05-11T08:18:22.132Z</time>
      </trkpt>
      <trkpt lat="50.95843" lon="1.81202">
        <ele>6</ele>
        <time>2026-05-11T08:18:26.880Z</time>
      </trkpt>
      <trkpt lat="50.95843" lon="1.81195">
        <ele>6</ele>
        <time>2026-05-11T08:18:31.382Z</time>
      </trkpt>
      <trkpt lat="50.95843" lon="1.81191">
        <ele>6</ele>
        <time>2026-05-11T08:18:35.498Z</time>
      </trkpt>
      <trkpt lat="50.95841" lon="1.81184">
        <ele>6</ele>
        <time>2026-05-11T08:18:39.518Z</time>
      </trkpt>
      <trkpt lat="50.95841" lon="1.81176">
        <ele>6</ele>
        <time>2026-05-11T08:18:43.644Z</time>
      </trkpt>
      <trkpt lat="50.95841" lon="1.81169">
        <ele>6</ele>
        <time>2026-05-11T08:18:47.663Z</time>
      </trkpt>
      <trkpt lat="50.95841" lon="1.81162">
        <ele>6</ele>
        <time>2026-05-11T08:18:51.938Z</time>
      </trkpt>
      <trkpt lat="50.95841" lon="1.81156">
        <ele>6</ele>
        <time>2026-05-11T08:18:56.080Z</time>
      </trkpt>
      <trkpt lat="50.95841" lon="1.81148">
        <ele>6</ele>
        <time>2026-05-11T08:19:00.180Z</time>
      </trkpt>
      <trkpt lat="50.95841" lon="1.81141">
        <ele>6</ele>
        <time>2026-05-11T08:19:04.199Z</time>
      </trkpt>
      <trkpt lat="50.9584" lon="1.81134">
        <ele>6</ele>
        <time>2026-05-11T08:19:08.662Z</time>
      </trkpt>
      <trkpt lat="50.9584" lon="1.81126">
        <ele>6</ele>
        <time>2026-05-11T08:19:12.940Z</time>
      </trkpt>
      <trkpt lat="50.95839" lon="1.81119">
        <ele>5</ele>
        <time>2026-05-11T08:19:17.179Z</time>
      </trkpt>
      <trkpt lat="50.95839" lon="1.8111">
        <ele>5</ele>
        <time>2026-05-11T08:19:21.340Z</time>
      </trkpt>
      <trkpt lat="50.95838" lon="1.81104">
        <ele>5</ele>
        <time>2026-05-11T08:19:25.360Z</time>
      </trkpt>
      <trkpt lat="50.95838" lon="1.81096">
        <ele>5</ele>
        <time>2026-05-11T08:19:29.397Z</time>
      </trkpt>
      <trkpt lat="50.95838" lon="1.8109">
        <ele>5</ele>
        <time>2026-05-11T08:19:33.443Z</time>
      </trkpt>
      <trkpt lat="50.95838" lon="1.81082">
        <ele>5</ele>
        <time>2026-05-11T08:19:37.481Z</time>
      </trkpt>
      <trkpt lat="50.95837" lon="1.81073">
        <ele>5</ele>
        <time>2026-05-11T08:19:42.080Z</time>
      </trkpt>
      <trkpt lat="50.95837" lon="1.81066">
        <ele>4</ele>
        <time>2026-05-11T08:19:46.143Z</time>
      </trkpt>
      <trkpt lat="50.95832" lon="1.81055">
        <ele>4</ele>
        <time>2026-05-11T08:20:08.243Z</time>
      </trkpt>
      <trkpt lat="50.95829" lon="1.81058">
        <ele>4</ele>
        <time>2026-05-11T08:20:12.543Z</time>
      </trkpt>
      <trkpt lat="50.95828" lon="1.8105">
        <ele>4</ele>
        <time>2026-05-11T08:20:16.563Z</time>
      </trkpt>
      <trkpt lat="50.95828" lon="1.81043">
        <ele>4</ele>
        <time>2026-05-11T08:20:20.662Z</time>
      </trkpt>
      <trkpt lat="50.95827" lon="1.81036">
        <ele>4</ele>
        <time>2026-05-11T08:20:25.401Z</time>
      </trkpt>
      <trkpt lat="50.95826" lon="1.81029">
        <ele>4</ele>
        <time>2026-05-11T08:20:29.663Z</time>
      </trkpt>
      <trkpt lat="50.95825" lon="1.8102">
        <ele>4</ele>
        <time>2026-05-11T08:20:34.161Z</time>
      </trkpt>
      <trkpt lat="50.95824" lon="1.81013">
        <ele>3</ele>
        <time>2026-05-11T08:20:38.619Z</time>
      </trkpt>
      <trkpt lat="50.95823" lon="1.81006">
        <ele>3</ele>
        <time>2026-05-11T08:20:42.639Z</time>
      </trkpt>
      <trkpt lat="50.95823" lon="1.80998">
        <ele>3</ele>
        <time>2026-05-11T08:20:46.663Z</time>
      </trkpt>
      <trkpt lat="50.95822" lon="1.80989">
        <ele>3</ele>
        <time>2026-05-11T08:20:51.178Z</time>
      </trkpt>
      <trkpt lat="50.95823" lon="1.8098">
        <ele>4</ele>
        <time>2026-05-11T08:20:55.497Z</time>
      </trkpt>
      <trkpt lat="50.95822" lon="1.80972">
        <ele>4</ele>
        <time>2026-05-11T08:20:59.964Z</time>
      </trkpt>
      <trkpt lat="50.95819" lon="1.80964">
        <ele>3</ele>
        <time>2026-05-11T08:21:04.519Z</time>
      </trkpt>
      <trkpt lat="50.9582" lon="1.8096">
        <ele>4</ele>
        <time>2026-05-11T08:21:08.565Z</time>
      </trkpt>
      <trkpt lat="50.95825" lon="1.80956">
        <ele>2</ele>
        <time>2026-05-11T08:21:12.857Z</time>
      </trkpt>
      <trkpt lat="50.95826" lon="1.80954">
        <ele>2</ele>
        <time>2026-05-11T08:21:17.663Z</time>
      </trkpt>
      <trkpt lat="50.95826" lon="1.80953">
        <ele>2</ele>
        <time>2026-05-11T08:21:21.663Z</time>
      </trkpt>
      <trkpt lat="50.95827" lon="1.80951">
        <ele>2</ele>
        <time>2026-05-11T08:21:25.882Z</time>
      </trkpt>
      <trkpt lat="50.95829" lon="1.80945">
        <ele>2</ele>
        <time>2026-05-11T08:21:30.060Z</time>
      </trkpt>
      <trkpt lat="50.9583" lon="1.80938">
        <ele>2</ele>
        <time>2026-05-11T08:21:34.265Z</time>
      </trkpt>
      <trkpt lat="50.95834" lon="1.80932">
        <ele>2</ele>
        <time>2026-05-11T08:21:38.486Z</time>
      </trkpt>
      <trkpt lat="50.95836" lon="1.80926">
        <ele>5</ele>
        <time>2026-05-11T08:21:42.662Z</time>
      </trkpt>
      <trkpt lat="50.95837" lon="1.80921">
        <ele>5</ele>
        <time>2026-05-11T08:21:46.964Z</time>
      </trkpt>
      <trkpt lat="50.95837" lon="1.80918">
        <ele>5</ele>
        <time>2026-05-11T08:21:51.662Z</time>
      </trkpt>
      <trkpt lat="50.95838" lon="1.80914">
        <ele>5</ele>
        <time>2026-05-11T08:21:55.942Z</time>
      </trkpt>
      <trkpt lat="50.9584" lon="1.80905">
        <ele>5</ele>
        <time>2026-05-11T08:22:00.059Z</time>
      </trkpt>
      <trkpt lat="50.9584" lon="1.80897">
        <ele>5</ele>
        <time>2026-05-11T08:22:04.123Z</time>
      </trkpt>
      <trkpt lat="50.95839" lon="1.80889">
        <ele>5</ele>
        <time>2026-05-11T08:22:08.221Z</time>
      </trkpt>
      <trkpt lat="50.95838" lon="1.80882">
        <ele>5</ele>
        <time>2026-05-11T08:22:12.363Z</time>
      </trkpt>
      <trkpt lat="50.95838" lon="1.80874">
        <ele>7</ele>
        <time>2026-05-11T08:22:16.480Z</time>
      </trkpt>
      <trkpt lat="50.95838" lon="1.80866">
        <ele>7</ele>
        <time>2026-05-11T08:22:20.605Z</time>
      </trkpt>
      <trkpt lat="50.95837" lon="1.80859">
        <ele>7</ele>
        <time>2026-05-11T08:22:24.663Z</time>
      </trkpt>
      <trkpt lat="50.95836" lon="1.80851">
        <ele>7</ele>
        <time>2026-05-11T08:22:29.365Z</time>
      </trkpt>
      <trkpt lat="50.95836" lon="1.80843">
        <ele>6</ele>
        <time>2026-05-11T08:22:33.481Z</time>
      </trkpt>
      <trkpt lat="50.95835" lon="1.80835">
        <ele>6</ele>
        <time>2026-05-11T08:22:37.501Z</time>
      </trkpt>
      <trkpt lat="50.95834" lon="1.80828">
        <ele>6</ele>
        <time>2026-05-11T08:22:41.662Z</time>
      </trkpt>
      <trkpt lat="50.95833" lon="1.8082">
        <ele>6</ele>
        <time>2026-05-11T08:22:46.022Z</time>
      </trkpt>
      <trkpt lat="50.95833" lon="1.80813">
        <ele>7</ele>
        <time>2026-05-11T08:22:50.341Z</time>
      </trkpt>
      <trkpt lat="50.95832" lon="1.80806">
        <ele>7</ele>
        <time>2026-05-11T08:22:54.658Z</time>
      </trkpt>
      <trkpt lat="50.95831" lon="1.80798">
        <ele>7</ele>
        <time>2026-05-11T08:22:58.986Z</time>
      </trkpt>
      <trkpt lat="50.9583" lon="1.80791">
        <ele>6</ele>
        <time>2026-05-11T08:23:03.260Z</time>
      </trkpt>
      <trkpt lat="50.95829" lon="1.80784">
        <ele>6</ele>
        <time>2026-05-11T08:23:07.481Z</time>
      </trkpt>
      <trkpt lat="50.95827" lon="1.80777">
        <ele>6</ele>
        <time>2026-05-11T08:23:11.642Z</time>
      </trkpt>
      <trkpt lat="50.95826" lon="1.8077">
        <ele>6</ele>
        <time>2026-05-11T08:23:16.662Z</time>
      </trkpt>
      <trkpt lat="50.95824" lon="1.8076">
        <ele>7</ele>
        <time>2026-05-11T08:23:20.998Z</time>
      </trkpt>
      <trkpt lat="50.95822" lon="1.80753">
        <ele>7</ele>
        <time>2026-05-11T08:23:25.140Z</time>
      </trkpt>
      <trkpt lat="50.95822" lon="1.80745">
        <ele>7</ele>
        <time>2026-05-11T08:23:29.318Z</time>
      </trkpt>
      <trkpt lat="50.95821" lon="1.80738">
        <ele>7</ele>
        <time>2026-05-11T08:23:33.663Z</time>
      </trkpt>
      <trkpt lat="50.95821" lon="1.8073">
        <ele>7</ele>
        <time>2026-05-11T08:23:38.419Z</time>
      </trkpt>
      <trkpt lat="50.9582" lon="1.80722">
        <ele>7</ele>
        <time>2026-05-11T08:23:42.596Z</time>
      </trkpt>
      <trkpt lat="50.95819" lon="1.80715">
        <ele>5</ele>
        <time>2026-05-11T08:23:46.863Z</time>
      </trkpt>
      <trkpt lat="50.95817" lon="1.80708">
        <ele>7</ele>
        <time>2026-05-11T08:23:51.479Z</time>
      </trkpt>
      <trkpt lat="50.95814" lon="1.80701">
        <ele>7</ele>
        <time>2026-05-11T08:23:55.662Z</time>
      </trkpt>
      <trkpt lat="50.95812" lon="1.80695">
        <ele>7</ele>
        <time>2026-05-11T08:24:00.309Z</time>
      </trkpt>
      <trkpt lat="50.9581" lon="1.80686">
        <ele>7</ele>
        <time>2026-05-11T08:24:05.425Z</time>
      </trkpt>
      <trkpt lat="50.9581" lon="1.80679">
        <ele>5</ele>
        <time>2026-05-11T08:24:09.662Z</time>
      </trkpt>
      <trkpt lat="50.9581" lon="1.80672">
        <ele>5</ele>
        <time>2026-05-11T08:24:13.859Z</time>
      </trkpt>
      <trkpt lat="50.9581" lon="1.80665">
        <ele>5</ele>
        <time>2026-05-11T08:24:18.265Z</time>
      </trkpt>
      <trkpt lat="50.95811" lon="1.80659">
        <ele>5</ele>
        <time>2026-05-11T08:24:22.382Z</time>
      </trkpt>
      <trkpt lat="50.95812" lon="1.80652">
        <ele>8</ele>
        <time>2026-05-11T08:24:26.663Z</time>
      </trkpt>
      <trkpt lat="50.95812" lon="1.80646">
        <ele>8</ele>
        <time>2026-05-11T08:24:31.079Z</time>
      </trkpt>
      <trkpt lat="50.95813" lon="1.8064">
        <ele>8</ele>
        <time>2026-05-11T08:24:35.503Z</time>
      </trkpt>
      <trkpt lat="50.95814" lon="1.80634">
        <ele>8</ele>
        <time>2026-05-11T08:24:39.961Z</time>
      </trkpt>
      <trkpt lat="50.95815" lon="1.80627">
        <ele>8</ele>
        <time>2026-05-11T08:24:44.419Z</time>
      </trkpt>
      <trkpt lat="50.95816" lon="1.80621">
        <ele>5</ele>
        <time>2026-05-11T08:24:48.663Z</time>
      </trkpt>
      <trkpt lat="50.95816" lon="1.80614">
        <ele>5</ele>
        <time>2026-05-11T08:24:52.863Z</time>
      </trkpt>
      <trkpt lat="50.95816" lon="1.80606">
        <ele>5</ele>
        <time>2026-05-11T08:24:57.383Z</time>
      </trkpt>
      <trkpt lat="50.95819" lon="1.80604">
        <ele>5</ele>
        <time>2026-05-11T08:25:01.662Z</time>
      </trkpt>
      <trkpt lat="50.95814" lon="1.80603">
        <ele>5</ele>
        <time>2026-05-11T08:26:29.663Z</time>
      </trkpt>
      <trkpt lat="50.95814" lon="1.80601">
        <ele>5</ele>
        <time>2026-05-11T08:26:34.163Z</time>
      </trkpt>
      <trkpt lat="50.95814" lon="1.806">
        <ele>5</ele>
        <time>2026-05-11T08:26:39.662Z</time>
      </trkpt>
      <trkpt lat="50.95814" lon="1.80599">
        <ele>5</ele>
        <time>2026-05-11T08:26:44.520Z</time>
      </trkpt>
      <trkpt lat="50.9581" lon="1.80593">
        <ele>7</ele>
        <time>2026-05-11T08:26:49.040Z</time>
      </trkpt>
      <trkpt lat="50.9581" lon="1.80588">
        <ele>7</ele>
        <time>2026-05-11T08:26:53.217Z</time>
      </trkpt>
      <trkpt lat="50.95809" lon="1.8058">
        <ele>7</ele>
        <time>2026-05-11T08:26:57.325Z</time>
      </trkpt>
      <trkpt lat="50.95807" lon="1.80572">
        <ele>7</ele>
        <time>2026-05-11T08:27:01.424Z</time>
      </trkpt>
      <trkpt lat="50.95807" lon="1.80565">
        <ele>6</ele>
        <time>2026-05-11T08:27:05.540Z</time>
      </trkpt>
      <trkpt lat="50.95808" lon="1.80558">
        <ele>6</ele>
        <time>2026-05-11T08:27:09.603Z</time>
      </trkpt>
      <trkpt lat="50.95808" lon="1.8055">
        <ele>6</ele>
        <time>2026-05-11T08:27:14.044Z</time>
      </trkpt>
      <trkpt lat="50.95807" lon="1.80543">
        <ele>6</ele>
        <time>2026-05-11T08:27:18.099Z</time>
      </trkpt>
      <trkpt lat="50.95806" lon="1.80537">
        <ele>5</ele>
        <time>2026-05-11T08:27:22.663Z</time>
      </trkpt>
      <trkpt lat="50.95804" lon="1.80532">
        <ele>5</ele>
        <time>2026-05-11T08:27:27.244Z</time>
      </trkpt>
      <trkpt lat="50.95802" lon="1.80522">
        <ele>5</ele>
        <time>2026-05-11T08:27:31.361Z</time>
      </trkpt>
      <trkpt lat="50.95803" lon="1.80516">
        <ele>5</ele>
        <time>2026-05-11T08:27:35.459Z</time>
      </trkpt>
      <trkpt lat="50.95804" lon="1.80506">
        <ele>5</ele>
        <time>2026-05-11T08:27:39.602Z</time>
      </trkpt>
      <trkpt lat="50.95803" lon="1.80501">
        <ele>5</ele>
        <time>2026-05-11T08:27:43.662Z</time>
      </trkpt>
      <trkpt lat="50.95803" lon="1.80494">
        <ele>5</ele>
        <time>2026-05-11T08:27:48.063Z</time>
      </trkpt>
      <trkpt lat="50.95804" lon="1.80488">
        <ele>5</ele>
        <time>2026-05-11T08:27:52.101Z</time>
      </trkpt>
      <trkpt lat="50.95802" lon="1.80484">
        <ele>4</ele>
        <time>2026-05-11T08:27:56.365Z</time>
      </trkpt>
      <trkpt lat="50.95801" lon="1.80474">
        <ele>4</ele>
        <time>2026-05-11T08:28:00.525Z</time>
      </trkpt>
      <trkpt lat="50.958" lon="1.80467">
        <ele>4</ele>
        <time>2026-05-11T08:28:04.661Z</time>
      </trkpt>
      <trkpt lat="50.95798" lon="1.80461">
        <ele>4</ele>
        <time>2026-05-11T08:28:09.083Z</time>
      </trkpt>
      <trkpt lat="50.95798" lon="1.80454">
        <ele>6</ele>
        <time>2026-05-11T08:28:13.260Z</time>
      </trkpt>
      <trkpt lat="50.95799" lon="1.80448">
        <ele>6</ele>
        <time>2026-05-11T08:28:17.342Z</time>
      </trkpt>
      <trkpt lat="50.95799" lon="1.80444">
        <ele>6</ele>
        <time>2026-05-11T08:28:21.643Z</time>
      </trkpt>
      <trkpt lat="50.95798" lon="1.80436">
        <ele>6</ele>
        <time>2026-05-11T08:28:25.662Z</time>
      </trkpt>
      <trkpt lat="50.95797" lon="1.80428">
        <ele>4</ele>
        <time>2026-05-11T08:28:30.358Z</time>
      </trkpt>
      <trkpt lat="50.95796" lon="1.80421">
        <ele>4</ele>
        <time>2026-05-11T08:28:34.579Z</time>
      </trkpt>
      <trkpt lat="50.95795" lon="1.80416">
        <ele>4</ele>
        <time>2026-05-11T08:28:38.959Z</time>
      </trkpt>
      <trkpt lat="50.95794" lon="1.80409">
        <ele>4</ele>
        <time>2026-05-11T08:28:43.338Z</time>
      </trkpt>
      <trkpt lat="50.95793" lon="1.80403">
        <ele>4</ele>
        <time>2026-05-11T08:28:47.419Z</time>
      </trkpt>
      <trkpt lat="50.95794" lon="1.80398">
        <ele>7</ele>
        <time>2026-05-11T08:28:51.563Z</time>
      </trkpt>
      <trkpt lat="50.95793" lon="1.80391">
        <ele>7</ele>
        <time>2026-05-11T08:28:56.039Z</time>
      </trkpt>
      <trkpt lat="50.95793" lon="1.80386">
        <ele>7</ele>
        <time>2026-05-11T08:29:00.277Z</time>
      </trkpt>
      <trkpt lat="50.95793" lon="1.80381">
        <ele>7</ele>
        <time>2026-05-11T08:29:04.228Z</time>
      </trkpt>
      <trkpt lat="50.95794" lon="1.80373">
        <ele>4</ele>
        <time>2026-05-11T08:29:08.799Z</time>
      </trkpt>
      <trkpt lat="50.95794" lon="1.80365">
        <ele>4</ele>
        <time>2026-05-11T08:29:13.103Z</time>
      </trkpt>
      <trkpt lat="50.95794" lon="1.80358">
        <ele>4</ele>
        <time>2026-05-11T08:29:17.402Z</time>
      </trkpt>
      <trkpt lat="50.95795" lon="1.8035">
        <ele>4</ele>
        <time>2026-05-11T08:29:21.663Z</time>
      </trkpt>
      <trkpt lat="50.95795" lon="1.80343">
        <ele>7</ele>
        <time>2026-05-11T08:29:25.958Z</time>
      </trkpt>
      <trkpt lat="50.95795" lon="1.80336">
        <ele>7</ele>
        <time>2026-05-11T08:29:30.163Z</time>
      </trkpt>
      <trkpt lat="50.95794" lon="1.80329">
        <ele>7</ele>
        <time>2026-05-11T08:29:34.499Z</time>
      </trkpt>
      <trkpt lat="50.95793" lon="1.80322">
        <ele>7</ele>
        <time>2026-05-11T08:29:38.966Z</time>
      </trkpt>
      <trkpt lat="50.95792" lon="1.80315">
        <ele>4</ele>
        <time>2026-05-11T08:29:43.301Z</time>
      </trkpt>
      <trkpt lat="50.9579" lon="1.80308">
        <ele>4</ele>
        <time>2026-05-11T08:29:47.603Z</time>
      </trkpt>
      <trkpt lat="50.95789" lon="1.80304">
        <ele>4</ele>
        <time>2026-05-11T08:29:51.667Z</time>
      </trkpt>
      <trkpt lat="50.95788" lon="1.80297">
        <ele>4</ele>
        <time>2026-05-11T08:29:55.817Z</time>
      </trkpt>
      <trkpt lat="50.95788" lon="1.80291">
        <ele>6</ele>
        <time>2026-05-11T08:30:00.241Z</time>
      </trkpt>
      <trkpt lat="50.95785" lon="1.80284">
        <ele>6</ele>
        <time>2026-05-11T08:30:04.662Z</time>
      </trkpt>
      <trkpt lat="50.95782" lon="1.80279">
        <ele>6</ele>
        <time>2026-05-11T08:30:09.123Z</time>
      </trkpt>
      <trkpt lat="50.9578" lon="1.80275">
        <ele>6</ele>
        <time>2026-05-11T08:30:13.662Z</time>
      </trkpt>
      <trkpt lat="50.95778" lon="1.80268">
        <ele>6</ele>
        <time>2026-05-11T08:30:18.400Z</time>
      </trkpt>
      <trkpt lat="50.95776" lon="1.80262">
        <ele>4</ele>
        <time>2026-05-11T08:30:23.044Z</time>
      </trkpt>
      <trkpt lat="50.95773" lon="1.80259">
        <ele>4</ele>
        <time>2026-05-11T08:30:27.520Z</time>
      </trkpt>
      <trkpt lat="50.95771" lon="1.80253">
        <ele>4</ele>
        <time>2026-05-11T08:30:31.662Z</time>
      </trkpt>
      <trkpt lat="50.9577" lon="1.80246">
        <ele>4</ele>
        <time>2026-05-11T08:30:35.919Z</time>
      </trkpt>
      <trkpt lat="50.9577" lon="1.80239">
        <ele>4</ele>
        <time>2026-05-11T08:30:40.080Z</time>
      </trkpt>
      <trkpt lat="50.9577" lon="1.80232">
        <ele>7</ele>
        <time>2026-05-11T08:30:44.425Z</time>
      </trkpt>
      <trkpt lat="50.9577" lon="1.80226">
        <ele>7</ele>
        <time>2026-05-11T08:30:48.943Z</time>
      </trkpt>
      <trkpt lat="50.95769" lon="1.8022">
        <ele>7</ele>
        <time>2026-05-11T08:30:53.385Z</time>
      </trkpt>
      <trkpt lat="50.95766" lon="1.80215">
        <ele>7</ele>
        <time>2026-05-11T08:30:57.958Z</time>
      </trkpt>
      <trkpt lat="50.95764" lon="1.8021">
        <ele>5</ele>
        <time>2026-05-11T08:31:02.443Z</time>
      </trkpt>
      <trkpt lat="50.95761" lon="1.80206">
        <ele>6</ele>
        <time>2026-05-11T08:31:06.578Z</time>
      </trkpt>
      <trkpt lat="50.95759" lon="1.80201">
        <ele>6</ele>
        <time>2026-05-11T08:31:10.662Z</time>
      </trkpt>
      <trkpt lat="50.95756" lon="1.80197">
        <ele>6</ele>
        <time>2026-05-11T08:31:15.179Z</time>
      </trkpt>
      <trkpt lat="50.95754" lon="1.80192">
        <ele>6</ele>
        <time>2026-05-11T08:31:19.681Z</time>
      </trkpt>
      <trkpt lat="50.95751" lon="1.80185">
        <ele>6</ele>
        <time>2026-05-11T08:31:24.246Z</time>
      </trkpt>
      <trkpt lat="50.9575" lon="1.8018">
        <ele>6</ele>
        <time>2026-05-11T08:31:28.662Z</time>
      </trkpt>
      <trkpt lat="50.95749" lon="1.80175">
        <ele>6</ele>
        <time>2026-05-11T08:31:32.803Z</time>
      </trkpt>
      <trkpt lat="50.95746" lon="1.80169">
        <ele>6</ele>
        <time>2026-05-11T08:31:37.165Z</time>
      </trkpt>
      <trkpt lat="50.95743" lon="1.80165">
        <ele>6</ele>
        <time>2026-05-11T08:31:41.518Z</time>
      </trkpt>
      <trkpt lat="50.95739" lon="1.80162">
        <ele>6</ele>
        <time>2026-05-11T08:31:46.100Z</time>
      </trkpt>
      <trkpt lat="50.95735" lon="1.80158">
        <ele>5</ele>
        <time>2026-05-11T08:31:50.262Z</time>
      </trkpt>
      <trkpt lat="50.95732" lon="1.80154">
        <ele>5</ele>
        <time>2026-05-11T08:31:54.663Z</time>
      </trkpt>
      <trkpt lat="50.95729" lon="1.8015">
        <ele>6</ele>
        <time>2026-05-11T08:31:59.203Z</time>
      </trkpt>
      <trkpt lat="50.95727" lon="1.80145">
        <ele>6</ele>
        <time>2026-05-11T08:32:03.521Z</time>
      </trkpt>
      <trkpt lat="50.95726" lon="1.80144">
        <ele>6</ele>
        <time>2026-05-11T08:32:07.662Z</time>
      </trkpt>
      <trkpt lat="50.95724" lon="1.80141">
        <ele>6</ele>
        <time>2026-05-11T08:32:11.939Z</time>
      </trkpt>
      <trkpt lat="50.95723" lon="1.80135">
        <ele>6</ele>
        <time>2026-05-11T08:32:16.144Z</time>
      </trkpt>
      <trkpt lat="50.9572" lon="1.80132">
        <ele>6</ele>
        <time>2026-05-11T08:32:20.662Z</time>
      </trkpt>
      <trkpt lat="50.95718" lon="1.80127">
        <ele>6</ele>
        <time>2026-05-11T08:33:20.663Z</time>
      </trkpt>
      <trkpt lat="50.95718" lon="1.80128">
        <ele>6</ele>
        <time>2026-05-11T08:33:39.662Z</time>
      </trkpt>
      <trkpt lat="50.95716" lon="1.80134">
        <ele>6</ele>
        <time>2026-05-11T08:33:44.663Z</time>
      </trkpt>
      <trkpt lat="50.95713" lon="1.80141">
        <ele>6</ele>
        <time>2026-05-11T08:33:49.662Z</time>
      </trkpt>
      <trkpt lat="50.95711" lon="1.80148">
        <ele>6</ele>
        <time>2026-05-11T08:33:54.663Z</time>
      </trkpt>
      <trkpt lat="50.95708" lon="1.80153">
        <ele>3</ele>
        <time>2026-05-11T08:33:59.159Z</time>
      </trkpt>
      <trkpt lat="50.95705" lon="1.80158">
        <ele>3</ele>
        <time>2026-05-11T08:34:03.363Z</time>
      </trkpt>
      <trkpt lat="50.95701" lon="1.80163">
        <ele>3</ele>
        <time>2026-05-11T08:34:07.400Z</time>
      </trkpt>
      <trkpt lat="50.95699" lon="1.80169">
        <ele>3</ele>
        <time>2026-05-11T08:34:11.437Z</time>
      </trkpt>
      <trkpt lat="50.95696" lon="1.80174">
        <ele>3</ele>
        <time>2026-05-11T08:34:15.520Z</time>
      </trkpt>
      <trkpt lat="50.95693" lon="1.8018">
        <ele>3</ele>
        <time>2026-05-11T08:34:19.582Z</time>
      </trkpt>
      <trkpt lat="50.95689" lon="1.80186">
        <ele>4</ele>
        <time>2026-05-11T08:34:23.662Z</time>
      </trkpt>
      <trkpt lat="50.95687" lon="1.80193">
        <ele>4</ele>
        <time>2026-05-11T08:34:28Z</time>
      </trkpt>
      <trkpt lat="50.95681" lon="1.80209">
        <ele>3</ele>
        <time>2026-05-11T08:34:45.763Z</time>
      </trkpt>
      <trkpt lat="50.9568" lon="1.80215">
        <ele>3</ele>
        <time>2026-05-11T08:34:49.880Z</time>
      </trkpt>
      <trkpt lat="50.95679" lon="1.80222">
        <ele>3</ele>
        <time>2026-05-11T08:34:54.085Z</time>
      </trkpt>
      <trkpt lat="50.95678" lon="1.80229">
        <ele>3</ele>
        <time>2026-05-11T08:34:58.499Z</time>
      </trkpt>
      <trkpt lat="50.95678" lon="1.80237">
        <ele>4</ele>
        <time>2026-05-11T08:35:02.519Z</time>
      </trkpt>
      <trkpt lat="50.95678" lon="1.80245">
        <ele>4</ele>
        <time>2026-05-11T08:35:07.022Z</time>
      </trkpt>
      <trkpt lat="50.95679" lon="1.80254">
        <ele>4</ele>
        <time>2026-05-11T08:35:11.498Z</time>
      </trkpt>
      <trkpt lat="50.9568" lon="1.80262">
        <ele>4</ele>
        <time>2026-05-11T08:35:15.984Z</time>
      </trkpt>
      <trkpt lat="50.95681" lon="1.80269">
        <ele>4</ele>
        <time>2026-05-11T08:35:20.477Z</time>
      </trkpt>
      <trkpt lat="50.95683" lon="1.80275">
        <ele>4</ele>
        <time>2026-05-11T08:35:24.524Z</time>
      </trkpt>
      <trkpt lat="50.95682" lon="1.80282">
        <ele>4</ele>
        <time>2026-05-11T08:35:28.604Z</time>
      </trkpt>
      <trkpt lat="50.95681" lon="1.80292">
        <ele>5</ele>
        <time>2026-05-11T08:35:32.663Z</time>
      </trkpt>
      <trkpt lat="50.95682" lon="1.803">
        <ele>5</ele>
        <time>2026-05-11T08:35:37.365Z</time>
      </trkpt>
      <trkpt lat="50.95683" lon="1.80309">
        <ele>5</ele>
        <time>2026-05-11T08:35:41.886Z</time>
      </trkpt>
      <trkpt lat="50.95685" lon="1.80316">
        <ele>5</ele>
        <time>2026-05-11T08:35:45.906Z</time>
      </trkpt>
      <trkpt lat="50.95685" lon="1.80324">
        <ele>5</ele>
        <time>2026-05-11T08:35:50.384Z</time>
      </trkpt>
      <trkpt lat="50.95686" lon="1.80331">
        <ele>5</ele>
        <time>2026-05-11T08:35:54.498Z</time>
      </trkpt>
      <trkpt lat="50.95687" lon="1.80339">
        <ele>5</ele>
        <time>2026-05-11T08:35:58.581Z</time>
      </trkpt>
      <trkpt lat="50.95687" lon="1.80347">
        <ele>5</ele>
        <time>2026-05-11T08:36:02.645Z</time>
      </trkpt>
      <trkpt lat="50.95688" lon="1.80357">
        <ele>5</ele>
        <time>2026-05-11T08:36:07.217Z</time>
      </trkpt>
      <trkpt lat="50.95687" lon="1.80364">
        <ele>5</ele>
        <time>2026-05-11T08:36:11.237Z</time>
      </trkpt>
      <trkpt lat="50.95688" lon="1.80372">
        <ele>5</ele>
        <time>2026-05-11T08:36:15.398Z</time>
      </trkpt>
      <trkpt lat="50.95688" lon="1.80377">
        <ele>6</ele>
        <time>2026-05-11T08:36:19.418Z</time>
      </trkpt>
      <trkpt lat="50.95685" lon="1.80384">
        <ele>6</ele>
        <time>2026-05-11T08:36:23.663Z</time>
      </trkpt>
      <trkpt lat="50.95681" lon="1.80381">
        <ele>6</ele>
        <time>2026-05-11T08:36:27.879Z</time>
      </trkpt>
      <trkpt lat="50.95677" lon="1.80379">
        <ele>5</ele>
        <time>2026-05-11T08:36:32.181Z</time>
      </trkpt>
      <trkpt lat="50.95672" lon="1.80376">
        <ele>5</ele>
        <time>2026-05-11T08:36:36.499Z</time>
      </trkpt>
      <trkpt lat="50.95674" lon="1.80372">
        <ele>5</ele>
        <time>2026-05-11T08:36:40.663Z</time>
      </trkpt>
      <trkpt lat="50.95672" lon="1.80374">
        <ele>5</ele>
        <time>2026-05-11T08:36:49.663Z</time>
      </trkpt>
      <trkpt lat="50.95668" lon="1.80374">
        <ele>5</ele>
        <time>2026-05-11T08:36:53.663Z</time>
      </trkpt>
      <trkpt lat="50.95666" lon="1.80373">
        <ele>5</ele>
        <time>2026-05-11T08:36:57.663Z</time>
      </trkpt>
      <trkpt lat="50.95663" lon="1.80372">
        <ele>5</ele>
        <time>2026-05-11T08:37:01.662Z</time>
      </trkpt>
      <trkpt lat="50.95659" lon="1.80372">
        <ele>5</ele>
        <time>2026-05-11T08:37:06.081Z</time>
      </trkpt>
      <trkpt lat="50.95657" lon="1.80372">
        <ele>5</ele>
        <time>2026-05-11T08:37:10.638Z</time>
      </trkpt>
      <trkpt lat="50.95654" lon="1.8037">
        <ele>5</ele>
        <time>2026-05-11T08:37:14.641Z</time>
      </trkpt>
      <trkpt lat="50.95653" lon="1.8037">
        <ele>5</ele>
        <time>2026-05-11T08:37:26.662Z</time>
      </trkpt>
      <trkpt lat="50.95653" lon="1.8037">
        <ele>5</ele>
        <time>2026-05-11T08:37:32.120Z</time>
      </trkpt>
      <trkpt lat="50.95653" lon="1.80372">
        <ele>5</ele>
        <time>2026-05-11T08:37:36.605Z</time>
      </trkpt>
      <trkpt lat="50.95648" lon="1.80371">
        <ele>5</ele>
        <time>2026-05-11T08:37:40.978Z</time>
      </trkpt>
      <trkpt lat="50.95643" lon="1.80373">
        <ele>5</ele>
        <time>2026-05-11T08:37:45.420Z</time>
      </trkpt>
      <trkpt lat="50.95631" lon="1.80375">
        <ele>3</ele>
        <time>2026-05-11T08:37:59.663Z</time>
      </trkpt>
      <trkpt lat="50.95631" lon="1.80375">
        <ele>3</ele>
        <time>2026-05-11T08:38:03.663Z</time>
      </trkpt>
      <trkpt lat="50.95631" lon="1.80375">
        <ele>3</ele>
        <time>2026-05-11T08:38:08.578Z</time>
      </trkpt>
      <trkpt lat="50.9563" lon="1.80376">
        <ele>3</ele>
        <time>2026-05-11T08:38:12.662Z</time>
      </trkpt>
      <trkpt lat="50.95629" lon="1.80378">
        <ele>3</ele>
        <time>2026-05-11T08:38:17.199Z</time>
      </trkpt>
      <trkpt lat="50.95628" lon="1.80381">
        <ele>3</ele>
        <time>2026-05-11T08:38:31.662Z</time>
      </trkpt>
      <trkpt lat="50.95627" lon="1.80381">
        <ele>3</ele>
        <time>2026-05-11T08:38:35.662Z</time>
      </trkpt>
      <trkpt lat="50.95627" lon="1.80382">
        <ele>3</ele>
        <time>2026-05-11T08:38:45.663Z</time>
      </trkpt>
      <trkpt lat="50.95623" lon="1.80379">
        <ele>2</ele>
        <time>2026-05-11T08:38:50.663Z</time>
      </trkpt>
      <trkpt lat="50.9562" lon="1.80371">
        <ele>4</ele>
        <time>2026-05-11T08:38:54.663Z</time>
      </trkpt>
      <trkpt lat="50.95619" lon="1.80362">
        <ele>4</ele>
        <time>2026-05-11T08:38:59.662Z</time>
      </trkpt>
      <trkpt lat="50.95618" lon="1.80354">
        <ele>4</ele>
        <time>2026-05-11T08:39:03.662Z</time>
      </trkpt>
      <trkpt lat="50.95617" lon="1.80344">
        <ele>2</ele>
        <time>2026-05-11T08:39:08.562Z</time>
      </trkpt>
      <trkpt lat="50.95616" lon="1.80335">
        <ele>2</ele>
        <time>2026-05-11T08:39:12.941Z</time>
      </trkpt>
      <trkpt lat="50.95614" lon="1.80326">
        <ele>2</ele>
        <time>2026-05-11T08:39:17.278Z</time>
      </trkpt>
      <trkpt lat="50.95612" lon="1.80319">
        <ele>3</ele>
        <time>2026-05-11T08:39:21.641Z</time>
      </trkpt>
      <trkpt lat="50.9561" lon="1.8031">
        <ele>3</ele>
        <time>2026-05-11T08:39:25.897Z</time>
      </trkpt>
      <trkpt lat="50.95607" lon="1.80302">
        <ele>3</ele>
        <time>2026-05-11T08:39:30.278Z</time>
      </trkpt>
      <trkpt lat="50.95605" lon="1.80294">
        <ele>3</ele>
        <time>2026-05-11T08:39:34.662Z</time>
      </trkpt>
      <trkpt lat="50.95602" lon="1.80288">
        <ele>3</ele>
        <time>2026-05-11T08:39:38.941Z</time>
      </trkpt>
      <trkpt lat="50.95599" lon="1.80281">
        <ele>3</ele>
        <time>2026-05-11T08:39:43.322Z</time>
      </trkpt>
      <trkpt lat="50.95596" lon="1.80275">
        <ele>3</ele>
        <time>2026-05-11T08:39:47.500Z</time>
      </trkpt>
      <trkpt lat="50.95594" lon="1.80269">
        <ele>3</ele>
        <time>2026-05-11T08:40:05.663Z</time>
      </trkpt>
      <trkpt lat="50.95594" lon="1.80268">
        <ele>3</ele>
        <time>2026-05-11T08:40:09.662Z</time>
      </trkpt>
      <trkpt lat="50.95593" lon="1.80267">
        <ele>3</ele>
        <time>2026-05-11T08:40:14.398Z</time>
      </trkpt>
      <trkpt lat="50.95589" lon="1.8026">
        <ele>3</ele>
        <time>2026-05-11T08:40:18.662Z</time>
      </trkpt>
      <trkpt lat="50.95587" lon="1.80254">
        <ele>3</ele>
        <time>2026-05-11T08:40:22.663Z</time>
      </trkpt>
      <trkpt lat="50.95582" lon="1.80252">
        <ele>3</ele>
        <time>2026-05-11T08:40:26.959Z</time>
      </trkpt>
      <trkpt lat="50.95577" lon="1.80248">
        <ele>3</ele>
        <time>2026-05-11T08:40:31.261Z</time>
      </trkpt>
      <trkpt lat="50.95573" lon="1.80245">
        <ele>3</ele>
        <time>2026-05-11T08:40:35.782Z</time>
      </trkpt>
      <trkpt lat="50.95567" lon="1.8024">
        <ele>3</ele>
        <time>2026-05-11T08:40:40.225Z</time>
      </trkpt>
      <trkpt lat="50.95561" lon="1.80235">
        <ele>3</ele>
        <time>2026-05-11T08:40:44.662Z</time>
      </trkpt>
      <trkpt lat="50.95556" lon="1.80231">
        <ele>3</ele>
        <time>2026-05-11T08:40:48.959Z</time>
      </trkpt>
      <trkpt lat="50.95552" lon="1.80228">
        <ele>3</ele>
        <time>2026-05-11T08:40:53.303Z</time>
      </trkpt>
      <trkpt lat="50.95546" lon="1.80228">
        <ele>3</ele>
        <time>2026-05-11T08:40:57.663Z</time>
      </trkpt>
      <trkpt lat="50.9554" lon="1.80228">
        <ele>4</ele>
        <time>2026-05-11T08:41:02.364Z</time>
      </trkpt>
      <trkpt lat="50.95536" lon="1.80227">
        <ele>4</ele>
        <time>2026-05-11T08:41:06.662Z</time>
      </trkpt>
      <trkpt lat="50.95531" lon="1.80225">
        <ele>4</ele>
        <time>2026-05-11T08:41:10.662Z</time>
      </trkpt>
      <trkpt lat="50.95525" lon="1.80227">
        <ele>4</ele>
        <time>2026-05-11T08:41:15.619Z</time>
      </trkpt>
      <trkpt lat="50.95521" lon="1.80231">
        <ele>4</ele>
        <time>2026-05-11T08:41:20.043Z</time>
      </trkpt>
      <trkpt lat="50.95514" lon="1.80228">
        <ele>4</ele>
        <time>2026-05-11T08:41:24.538Z</time>
      </trkpt>
      <trkpt lat="50.9551" lon="1.80236">
        <ele>3</ele>
        <time>2026-05-11T08:41:29.085Z</time>
      </trkpt>
      <trkpt lat="50.95512" lon="1.80244">
        <ele>3</ele>
        <time>2026-05-11T08:41:33.623Z</time>
      </trkpt>
      <trkpt lat="50.95513" lon="1.80248">
        <ele>3</ele>
        <time>2026-05-11T08:41:37.662Z</time>
      </trkpt>
      <trkpt lat="50.95513" lon="1.80247">
        <ele>3</ele>
        <time>2026-05-11T08:41:42.662Z</time>
      </trkpt>
      <trkpt lat="50.95511" lon="1.80253">
        <ele>3</ele>
        <time>2026-05-11T08:41:47.362Z</time>
      </trkpt>
      <trkpt lat="50.95508" lon="1.80259">
        <ele>3</ele>
        <time>2026-05-11T08:41:51.901Z</time>
      </trkpt>
      <trkpt lat="50.95508" lon="1.80267">
        <ele>3</ele>
        <time>2026-05-11T08:41:56.018Z</time>
      </trkpt>
      <trkpt lat="50.95508" lon="1.80273">
        <ele>3</ele>
        <time>2026-05-11T08:42:00.130Z</time>
      </trkpt>
      <trkpt lat="50.95508" lon="1.80277">
        <ele>3</ele>
        <time>2026-05-11T08:42:04.406Z</time>
      </trkpt>
      <trkpt lat="50.95507" lon="1.80285">
        <ele>3</ele>
        <time>2026-05-11T08:42:08.662Z</time>
      </trkpt>
      <trkpt lat="50.95508" lon="1.80292">
        <ele>3</ele>
        <time>2026-05-11T08:42:12.966Z</time>
      </trkpt>
      <trkpt lat="50.95508" lon="1.80299">
        <ele>3</ele>
        <time>2026-05-11T08:42:17.189Z</time>
      </trkpt>
      <trkpt lat="50.95508" lon="1.80306">
        <ele>3</ele>
        <time>2026-05-11T08:42:21.663Z</time>
      </trkpt>
      <trkpt lat="50.95508" lon="1.80313">
        <ele>3</ele>
        <time>2026-05-11T08:42:25.924Z</time>
      </trkpt>
      <trkpt lat="50.95507" lon="1.80321">
        <ele>4</ele>
        <time>2026-05-11T08:42:30.066Z</time>
      </trkpt>
      <trkpt lat="50.95505" lon="1.80329">
        <ele>4</ele>
        <time>2026-05-11T08:42:34.186Z</time>
      </trkpt>
      <trkpt lat="50.95504" lon="1.80337">
        <ele>4</ele>
        <time>2026-05-11T08:42:38.329Z</time>
      </trkpt>
      <trkpt lat="50.95504" lon="1.80344">
        <ele>4</ele>
        <time>2026-05-11T08:42:42.410Z</time>
      </trkpt>
      <trkpt lat="50.95504" lon="1.80351">
        <ele>3</ele>
        <time>2026-05-11T08:42:46.511Z</time>
      </trkpt>
      <trkpt lat="50.95504" lon="1.80357">
        <ele>3</ele>
        <time>2026-05-11T08:42:50.584Z</time>
      </trkpt>
      <trkpt lat="50.95503" lon="1.80365">
        <ele>3</ele>
        <time>2026-05-11T08:42:54.649Z</time>
      </trkpt>
      <trkpt lat="50.95504" lon="1.80373">
        <ele>3</ele>
        <time>2026-05-11T08:42:58.663Z</time>
      </trkpt>
      <trkpt lat="50.95504" lon="1.80381">
        <ele>4</ele>
        <time>2026-05-11T08:43:02.829Z</time>
      </trkpt>
      <trkpt lat="50.95505" lon="1.80388">
        <ele>4</ele>
        <time>2026-05-11T08:43:06.947Z</time>
      </trkpt>
      <trkpt lat="50.95505" lon="1.80395">
        <ele>4</ele>
        <time>2026-05-11T08:43:11.047Z</time>
      </trkpt>
      <trkpt lat="50.95504" lon="1.80403">
        <ele>4</ele>
        <time>2026-05-11T08:43:15.147Z</time>
      </trkpt>
      <trkpt lat="50.95503" lon="1.80411">
        <ele>4</ele>
        <time>2026-05-11T08:43:19.185Z</time>
      </trkpt>
      <trkpt lat="50.95503" lon="1.80418">
        <ele>4</ele>
        <time>2026-05-11T08:43:23.266Z</time>
      </trkpt>
      <trkpt lat="50.95503" lon="1.80425">
        <ele>4</ele>
        <time>2026-05-11T08:43:27.429Z</time>
      </trkpt>
      <trkpt lat="50.95503" lon="1.80433">
        <ele>4</ele>
        <time>2026-05-11T08:43:31.545Z</time>
      </trkpt>
      <trkpt lat="50.95503" lon="1.80441">
        <ele>4</ele>
        <time>2026-05-11T08:43:35.662Z</time>
      </trkpt>
      <trkpt lat="50.95503" lon="1.80448">
        <ele>4</ele>
        <time>2026-05-11T08:43:39.805Z</time>
      </trkpt>
      <trkpt lat="50.95504" lon="1.80456">
        <ele>4</ele>
        <time>2026-05-11T08:43:43.906Z</time>
      </trkpt>
      <trkpt lat="50.95505" lon="1.80462">
        <ele>3</ele>
        <time>2026-05-11T08:43:48.426Z</time>
      </trkpt>
      <trkpt lat="50.95506" lon="1.8047">
        <ele>3</ele>
        <time>2026-05-11T08:43:52.569Z</time>
      </trkpt>
      <trkpt lat="50.95507" lon="1.80475">
        <ele>3</ele>
        <time>2026-05-11T08:43:56.662Z</time>
      </trkpt>
      <trkpt lat="50.95508" lon="1.80484">
        <ele>3</ele>
        <time>2026-05-11T08:44:00.971Z</time>
      </trkpt>
      <trkpt lat="50.95508" lon="1.80491">
        <ele>3</ele>
        <time>2026-05-11T08:44:05.044Z</time>
      </trkpt>
      <trkpt lat="50.95508" lon="1.805">
        <ele>3</ele>
        <time>2026-05-11T08:44:09.109Z</time>
      </trkpt>
      <trkpt lat="50.95509" lon="1.80507">
        <ele>3</ele>
        <time>2026-05-11T08:44:13.662Z</time>
      </trkpt>
      <trkpt lat="50.95508" lon="1.80508">
        <ele>3</ele>
        <time>2026-05-11T08:44:18.106Z</time>
      </trkpt>
      <trkpt lat="50.95506" lon="1.80516">
        <ele>3</ele>
        <time>2026-05-11T08:44:22.330Z</time>
      </trkpt>
      <trkpt lat="50.95509" lon="1.80522">
        <ele>3</ele>
        <time>2026-05-11T08:44:26.507Z</time>
      </trkpt>
      <trkpt lat="50.95509" lon="1.80522">
        <ele>3</ele>
        <time>2026-05-11T08:44:30.662Z</time>
      </trkpt>
      <trkpt lat="50.95507" lon="1.80529">
        <ele>3</ele>
        <time>2026-05-11T08:44:35.364Z</time>
      </trkpt>
      <trkpt lat="50.95504" lon="1.80534">
        <ele>3</ele>
        <time>2026-05-11T08:44:39.526Z</time>
      </trkpt>
      <trkpt lat="50.95499" lon="1.80534">
        <ele>3</ele>
        <time>2026-05-11T08:44:43.663Z</time>
      </trkpt>
      <trkpt lat="50.95495" lon="1.8053">
        <ele>3</ele>
        <time>2026-05-11T08:45:20.662Z</time>
      </trkpt>
      <trkpt lat="50.95491" lon="1.80532">
        <ele>3</ele>
        <time>2026-05-11T08:45:24.662Z</time>
      </trkpt>
      <trkpt lat="50.95486" lon="1.80537">
        <ele>3</ele>
        <time>2026-05-11T08:45:29.310Z</time>
      </trkpt>
      <trkpt lat="50.95481" lon="1.80541">
        <ele>3</ele>
        <time>2026-05-11T08:45:33.863Z</time>
      </trkpt>
      <trkpt lat="50.95477" lon="1.80545">
        <ele>3</ele>
        <time>2026-05-11T08:45:38.331Z</time>
      </trkpt>
      <trkpt lat="50.95475" lon="1.80542">
        <ele>3</ele>
        <time>2026-05-11T08:45:42.369Z</time>
      </trkpt>
      <trkpt lat="50.95469" lon="1.80545">
        <ele>3</ele>
        <time>2026-05-11T08:45:46.663Z</time>
      </trkpt>
      <trkpt lat="50.95465" lon="1.80548">
        <ele>3</ele>
        <time>2026-05-11T08:45:51.245Z</time>
      </trkpt>
      <trkpt lat="50.9546" lon="1.8055">
        <ele>3</ele>
        <time>2026-05-11T08:45:55.662Z</time>
      </trkpt>
      <trkpt lat="50.95456" lon="1.80554">
        <ele>3</ele>
        <time>2026-05-11T08:45:59.891Z</time>
      </trkpt>
      <trkpt lat="50.95452" lon="1.80556">
        <ele>3</ele>
        <time>2026-05-11T08:46:04.088Z</time>
      </trkpt>
      <trkpt lat="50.95448" lon="1.80558">
        <ele>3</ele>
        <time>2026-05-11T08:46:08.128Z</time>
      </trkpt>
      <trkpt lat="50.95444" lon="1.80561">
        <ele>3</ele>
        <time>2026-05-11T08:46:12.662Z</time>
      </trkpt>
      <trkpt lat="50.95441" lon="1.80565">
        <ele>3</ele>
        <time>2026-05-11T08:46:16.662Z</time>
      </trkpt>
      <trkpt lat="50.9544" lon="1.80573">
        <ele>3</ele>
        <time>2026-05-11T08:46:21.409Z</time>
      </trkpt>
      <trkpt lat="50.95437" lon="1.80576">
        <ele>3</ele>
        <time>2026-05-11T08:46:25.524Z</time>
      </trkpt>
      <trkpt lat="50.95433" lon="1.80581">
        <ele>3</ele>
        <time>2026-05-11T08:46:29.607Z</time>
      </trkpt>
      <trkpt lat="50.95426" lon="1.80577">
        <ele>2</ele>
        <time>2026-05-11T08:46:34.005Z</time>
      </trkpt>
      <trkpt lat="50.95421" lon="1.80576">
        <ele>2</ele>
        <time>2026-05-11T08:46:38.070Z</time>
      </trkpt>
      <trkpt lat="50.95415" lon="1.80577">
        <ele>2</ele>
        <time>2026-05-11T08:46:42.268Z</time>
      </trkpt>
      <trkpt lat="50.95409" lon="1.8058">
        <ele>2</ele>
        <time>2026-05-11T08:46:46.384Z</time>
      </trkpt>
      <trkpt lat="50.95405" lon="1.80583">
        <ele>2</ele>
        <time>2026-05-11T08:46:50.544Z</time>
      </trkpt>
      <trkpt lat="50.95401" lon="1.80585">
        <ele>2</ele>
        <time>2026-05-11T08:46:54.610Z</time>
      </trkpt>
      <trkpt lat="50.95397" lon="1.80588">
        <ele>2</ele>
        <time>2026-05-11T08:46:58.662Z</time>
      </trkpt>
      <trkpt lat="50.95392" lon="1.80591">
        <ele>2</ele>
        <time>2026-05-11T08:47:02.905Z</time>
      </trkpt>
      <trkpt lat="50.95387" lon="1.80594">
        <ele>2</ele>
        <time>2026-05-11T08:47:06.969Z</time>
      </trkpt>
      <trkpt lat="50.95383" lon="1.80596">
        <ele>2</ele>
        <time>2026-05-11T08:47:11.043Z</time>
      </trkpt>
      <trkpt lat="50.95378" lon="1.80599">
        <ele>1</ele>
        <time>2026-05-11T08:47:15.188Z</time>
      </trkpt>
      <trkpt lat="50.95374" lon="1.80601">
        <ele>1</ele>
        <time>2026-05-11T08:47:19.207Z</time>
      </trkpt>
      <trkpt lat="50.95369" lon="1.80602">
        <ele>1</ele>
        <time>2026-05-11T08:47:23.324Z</time>
      </trkpt>
      <trkpt lat="50.95365" lon="1.80605">
        <ele>1</ele>
        <time>2026-05-11T08:47:27.485Z</time>
      </trkpt>
      <trkpt lat="50.9536" lon="1.80607">
        <ele>1</ele>
        <time>2026-05-11T08:47:31.647Z</time>
      </trkpt>
      <trkpt lat="50.95356" lon="1.80609">
        <ele>1</ele>
        <time>2026-05-11T08:47:35.965Z</time>
      </trkpt>
      <trkpt lat="50.95354" lon="1.80611">
        <ele>1</ele>
        <time>2026-05-11T08:47:40.127Z</time>
      </trkpt>
      <trkpt lat="50.9535" lon="1.80612">
        <ele>1</ele>
        <time>2026-05-11T08:47:44.662Z</time>
      </trkpt>
      <trkpt lat="50.95343" lon="1.80616">
        <ele>2</ele>
        <time>2026-05-11T08:47:49.169Z</time>
      </trkpt>
      <trkpt lat="50.95339" lon="1.80619">
        <ele>2</ele>
        <time>2026-05-11T08:47:53.489Z</time>
      </trkpt>
      <trkpt lat="50.95338" lon="1.8062">
        <ele>2</ele>
        <time>2026-05-11T08:47:57.587Z</time>
      </trkpt>
      <trkpt lat="50.95332" lon="1.80623">
        <ele>2</ele>
        <time>2026-05-11T08:48:01.845Z</time>
      </trkpt>
      <trkpt lat="50.95327" lon="1.80626">
        <ele>2</ele>
        <time>2026-05-11T08:48:06.270Z</time>
      </trkpt>
      <trkpt lat="50.95323" lon="1.80627">
        <ele>2</ele>
        <time>2026-05-11T08:48:10.405Z</time>
      </trkpt>
      <trkpt lat="50.95319" lon="1.8063">
        <ele>3</ele>
        <time>2026-05-11T08:48:14.662Z</time>
      </trkpt>
      <trkpt lat="50.95314" lon="1.80632">
        <ele>3</ele>
        <time>2026-05-11T08:48:19.051Z</time>
      </trkpt>
      <trkpt lat="50.9531" lon="1.80634">
        <ele>3</ele>
        <time>2026-05-11T08:48:23.449Z</time>
      </trkpt>
      <trkpt lat="50.95305" lon="1.80636">
        <ele>3</ele>
        <time>2026-05-11T08:48:27.629Z</time>
      </trkpt>
      <trkpt lat="50.95301" lon="1.80639">
        <ele>3</ele>
        <time>2026-05-11T08:48:31.904Z</time>
      </trkpt>
      <trkpt lat="50.95297" lon="1.80641">
        <ele>3</ele>
        <time>2026-05-11T08:48:36.205Z</time>
      </trkpt>
      <trkpt lat="50.95292" lon="1.80644">
        <ele>3</ele>
        <time>2026-05-11T08:48:40.366Z</time>
      </trkpt>
      <trkpt lat="50.95288" lon="1.80646">
        <ele>3</ele>
        <time>2026-05-11T08:48:44.650Z</time>
      </trkpt>
      <trkpt lat="50.95283" lon="1.80649">
        <ele>3</ele>
        <time>2026-05-11T08:48:48.987Z</time>
      </trkpt>
      <trkpt lat="50.95279" lon="1.80652">
        <ele>3</ele>
        <time>2026-05-11T08:48:53.211Z</time>
      </trkpt>
      <trkpt lat="50.95276" lon="1.80655">
        <ele>3</ele>
        <time>2026-05-11T08:48:57.405Z</time>
      </trkpt>
      <trkpt lat="50.95273" lon="1.80655">
        <ele>3</ele>
        <time>2026-05-11T08:49:01.830Z</time>
      </trkpt>
      <trkpt lat="50.9527" lon="1.80657">
        <ele>3</ele>
        <time>2026-05-11T08:49:06.105Z</time>
      </trkpt>
      <trkpt lat="50.95263" lon="1.80661">
        <ele>3</ele>
        <time>2026-05-11T08:49:10.486Z</time>
      </trkpt>
      <trkpt lat="50.9526" lon="1.80664">
        <ele>3</ele>
        <time>2026-05-11T08:49:14.662Z</time>
      </trkpt>
      <trkpt lat="50.95255" lon="1.80667">
        <ele>3</ele>
        <time>2026-05-11T08:49:19.125Z</time>
      </trkpt>
      <trkpt lat="50.95251" lon="1.80669">
        <ele>3</ele>
        <time>2026-05-11T08:49:23.644Z</time>
      </trkpt>
      <trkpt lat="50.95246" lon="1.80671">
        <ele>3</ele>
        <time>2026-05-11T08:49:27.885Z</time>
      </trkpt>
      <trkpt lat="50.95242" lon="1.80672">
        <ele>3</ele>
        <time>2026-05-11T08:49:32.170Z</time>
      </trkpt>
      <trkpt lat="50.95237" lon="1.80675">
        <ele>3</ele>
        <time>2026-05-11T08:49:36.348Z</time>
      </trkpt>
      <trkpt lat="50.95233" lon="1.80675">
        <ele>3</ele>
        <time>2026-05-11T08:49:40.413Z</time>
      </trkpt>
      <trkpt lat="50.95229" lon="1.80677">
        <ele>3</ele>
        <time>2026-05-11T08:49:44.906Z</time>
      </trkpt>
      <trkpt lat="50.95225" lon="1.8068">
        <ele>3</ele>
        <time>2026-05-11T08:49:49.164Z</time>
      </trkpt>
      <trkpt lat="50.95221" lon="1.80683">
        <ele>3</ele>
        <time>2026-05-11T08:49:53.449Z</time>
      </trkpt>
      <trkpt lat="50.95217" lon="1.80686">
        <ele>3</ele>
        <time>2026-05-11T08:49:57.626Z</time>
      </trkpt>
      <trkpt lat="50.95213" lon="1.80687">
        <ele>3</ele>
        <time>2026-05-11T08:50:01.662Z</time>
      </trkpt>
      <trkpt lat="50.95209" lon="1.80691">
        <ele>3</ele>
        <time>2026-05-11T08:50:06.291Z</time>
      </trkpt>
      <trkpt lat="50.95209" lon="1.80698">
        <ele>3</ele>
        <time>2026-05-11T08:50:10.662Z</time>
      </trkpt>
      <trkpt lat="50.95211" lon="1.80704">
        <ele>3</ele>
        <time>2026-05-11T08:50:15.263Z</time>
      </trkpt>
      <trkpt lat="50.95213" lon="1.80711">
        <ele>3</ele>
        <time>2026-05-11T08:50:19.610Z</time>
      </trkpt>
      <trkpt lat="50.95214" lon="1.80716">
        <ele>3</ele>
        <time>2026-05-11T08:50:23.883Z</time>
      </trkpt>
      <trkpt lat="50.95216" lon="1.80723">
        <ele>3</ele>
        <time>2026-05-11T08:50:28.072Z</time>
      </trkpt>
      <trkpt lat="50.95217" lon="1.8073">
        <ele>3</ele>
        <time>2026-05-11T08:50:32.311Z</time>
      </trkpt>
      <trkpt lat="50.95219" lon="1.80737">
        <ele>3</ele>
        <time>2026-05-11T08:50:36.552Z</time>
      </trkpt>
      <trkpt lat="50.9522" lon="1.80744">
        <ele>3</ele>
        <time>2026-05-11T08:50:40.661Z</time>
      </trkpt>
      <trkpt lat="50.95222" lon="1.80751">
        <ele>3</ele>
        <time>2026-05-11T08:50:45.661Z</time>
      </trkpt>
      <trkpt lat="50.95223" lon="1.80756">
        <ele>3</ele>
        <time>2026-05-11T08:50:49.661Z</time>
      </trkpt>
      <trkpt lat="50.95223" lon="1.80764">
        <ele>3</ele>
        <time>2026-05-11T08:50:53.848Z</time>
      </trkpt>
      <trkpt lat="50.95223" lon="1.80772">
        <ele>3</ele>
        <time>2026-05-11T08:50:58.007Z</time>
      </trkpt>
      <trkpt lat="50.95224" lon="1.8078">
        <ele>3</ele>
        <time>2026-05-11T08:51:02.150Z</time>
      </trkpt>
      <trkpt lat="50.95224" lon="1.80784">
        <ele>3</ele>
        <time>2026-05-11T08:51:38.449Z</time>
      </trkpt>
      <trkpt lat="50.95226" lon="1.80793">
        <ele>3</ele>
        <time>2026-05-11T08:51:42.663Z</time>
      </trkpt>
      <trkpt lat="50.95228" lon="1.80803">
        <ele>3</ele>
        <time>2026-05-11T08:51:46.948Z</time>
      </trkpt>
      <trkpt lat="50.9523" lon="1.80812">
        <ele>3</ele>
        <time>2026-05-11T08:51:51.346Z</time>
      </trkpt>
      <trkpt lat="50.95231" lon="1.80822">
        <ele>3</ele>
        <time>2026-05-11T08:51:55.770Z</time>
      </trkpt>
      <trkpt lat="50.95232" lon="1.8083">
        <ele>3</ele>
        <time>2026-05-11T08:52:00.071Z</time>
      </trkpt>
      <trkpt lat="50.95231" lon="1.80834">
        <ele>3</ele>
        <time>2026-05-11T08:52:04.409Z</time>
      </trkpt>
      <trkpt lat="50.95232" lon="1.80846">
        <ele>3</ele>
        <time>2026-05-11T08:52:08.849Z</time>
      </trkpt>
      <trkpt lat="50.95234" lon="1.80852">
        <ele>2</ele>
        <time>2026-05-11T08:52:13.169Z</time>
      </trkpt>
      <trkpt lat="50.95236" lon="1.80859">
        <ele>2</ele>
        <time>2026-05-11T08:52:17.470Z</time>
      </trkpt>
      <trkpt lat="50.95237" lon="1.8087">
        <ele>2</ele>
        <time>2026-05-11T08:52:21.808Z</time>
      </trkpt>
      <trkpt lat="50.95238" lon="1.80878">
        <ele>3</ele>
        <time>2026-05-11T08:52:26.144Z</time>
      </trkpt>
      <trkpt lat="50.9524" lon="1.80888">
        <ele>3</ele>
        <time>2026-05-11T08:52:30.493Z</time>
      </trkpt>
      <trkpt lat="50.95241" lon="1.80898">
        <ele>3</ele>
        <time>2026-05-11T08:52:34.949Z</time>
      </trkpt>
      <trkpt lat="50.95241" lon="1.80908">
        <ele>2</ele>
        <time>2026-05-11T08:52:39.446Z</time>
      </trkpt>
      <trkpt lat="50.95243" lon="1.80917">
        <ele>2</ele>
        <time>2026-05-11T08:52:43.964Z</time>
      </trkpt>
      <trkpt lat="50.95244" lon="1.80925">
        <ele>2</ele>
        <time>2026-05-11T08:52:47.970Z</time>
      </trkpt>
      <trkpt lat="50.95245" lon="1.80934">
        <ele>2</ele>
        <time>2026-05-11T08:52:52.472Z</time>
      </trkpt>
      <trkpt lat="50.95246" lon="1.80943">
        <ele>2</ele>
        <time>2026-05-11T08:52:56.949Z</time>
      </trkpt>
      <trkpt lat="50.95248" lon="1.80951">
        <ele>2</ele>
        <time>2026-05-11T08:53:01.444Z</time>
      </trkpt>
      <trkpt lat="50.9525" lon="1.8096">
        <ele>2</ele>
        <time>2026-05-11T08:53:05.869Z</time>
      </trkpt>
      <trkpt lat="50.95251" lon="1.80969">
        <ele>2</ele>
        <time>2026-05-11T08:53:10.251Z</time>
      </trkpt>
      <trkpt lat="50.95252" lon="1.80978">
        <ele>2</ele>
        <time>2026-05-11T08:53:14.661Z</time>
      </trkpt>
      <trkpt lat="50.95251" lon="1.80988">
        <ele>3</ele>
        <time>2026-05-11T08:53:19.107Z</time>
      </trkpt>
      <trkpt lat="50.95251" lon="1.80996">
        <ele>3</ele>
        <time>2026-05-11T08:53:23.609Z</time>
      </trkpt>
      <trkpt lat="50.95249" lon="1.81016">
        <ele>2</ele>
        <time>2026-05-11T08:53:41.661Z</time>
      </trkpt>
      <trkpt lat="50.9525" lon="1.81018">
        <ele>2</ele>
        <time>2026-05-11T08:53:46.111Z</time>
      </trkpt>
      <trkpt lat="50.95251" lon="1.81028">
        <ele>2</ele>
        <time>2026-05-11T08:53:50.661Z</time>
      </trkpt>
      <trkpt lat="50.95253" lon="1.81033">
        <ele>2</ele>
        <time>2026-05-11T08:53:54.661Z</time>
      </trkpt>
      <trkpt lat="50.95256" lon="1.81037">
        <ele>2</ele>
        <time>2026-05-11T08:53:59.269Z</time>
      </trkpt>
      <trkpt lat="50.95256" lon="1.81034">
        <ele>2</ele>
        <time>2026-05-11T08:55:22.506Z</time>
      </trkpt>
      <trkpt lat="50.95256" lon="1.81035">
        <ele>2</ele>
        <time>2026-05-11T08:55:29.661Z</time>
      </trkpt>
      <trkpt lat="50.95256" lon="1.81036">
        <ele>2</ele>
        <time>2026-05-11T08:55:34.662Z</time>
      </trkpt>
      <trkpt lat="50.95256" lon="1.8104">
        <ele>2</ele>
        <time>2026-05-11T08:55:39.150Z</time>
      </trkpt>
      <trkpt lat="50.95254" lon="1.81048">
        <ele>3</ele>
        <time>2026-05-11T08:55:43.661Z</time>
      </trkpt>
      <trkpt lat="50.95253" lon="1.8105">
        <ele>3</ele>
        <time>2026-05-11T08:55:48.661Z</time>
      </trkpt>
      <trkpt lat="50.95253" lon="1.81052">
        <ele>3</ele>
        <time>2026-05-11T08:55:52.845Z</time>
      </trkpt>
      <trkpt lat="50.95252" lon="1.8106">
        <ele>3</ele>
        <time>2026-05-11T08:55:57.069Z</time>
      </trkpt>
      <trkpt lat="50.95252" lon="1.81069">
        <ele>3</ele>
        <time>2026-05-11T08:56:01.212Z</time>
      </trkpt>
      <trkpt lat="50.95252" lon="1.81078">
        <ele>2</ele>
        <time>2026-05-11T08:56:05.661Z</time>
      </trkpt>
      <trkpt lat="50.9525" lon="1.81087">
        <ele>2</ele>
        <time>2026-05-11T08:56:10.324Z</time>
      </trkpt>
      <trkpt lat="50.95249" lon="1.81093">
        <ele>2</ele>
        <time>2026-05-11T08:56:14.889Z</time>
      </trkpt>
      <trkpt lat="50.95246" lon="1.81101">
        <ele>2</ele>
        <time>2026-05-11T08:56:19.489Z</time>
      </trkpt>
      <trkpt lat="50.95247" lon="1.81108">
        <ele>2</ele>
        <time>2026-05-11T08:56:24.505Z</time>
      </trkpt>
      <trkpt lat="50.95245" lon="1.81119">
        <ele>2</ele>
        <time>2026-05-11T08:56:28.605Z</time>
      </trkpt>
      <trkpt lat="50.95243" lon="1.81126">
        <ele>2</ele>
        <time>2026-05-11T08:56:32.661Z</time>
      </trkpt>
      <trkpt lat="50.95241" lon="1.81132">
        <ele>2</ele>
        <time>2026-05-11T08:56:36.662Z</time>
      </trkpt>
      <trkpt lat="50.95238" lon="1.81141">
        <ele>2</ele>
        <time>2026-05-11T08:56:41.326Z</time>
      </trkpt>
      <trkpt lat="50.95235" lon="1.8115">
        <ele>2</ele>
        <time>2026-05-11T08:56:45.850Z</time>
      </trkpt>
      <trkpt lat="50.95232" lon="1.81158">
        <ele>2</ele>
        <time>2026-05-11T08:56:50.352Z</time>
      </trkpt>
      <trkpt lat="50.95229" lon="1.81166">
        <ele>2</ele>
        <time>2026-05-11T08:56:54.864Z</time>
      </trkpt>
      <trkpt lat="50.95225" lon="1.81171">
        <ele>2</ele>
        <time>2026-05-11T08:56:59.323Z</time>
      </trkpt>
      <trkpt lat="50.95225" lon="1.81168">
        <ele>2</ele>
        <time>2026-05-11T08:57:04.662Z</time>
      </trkpt>
      <trkpt lat="50.95222" lon="1.81169">
        <ele>2</ele>
        <time>2026-05-11T08:57:08.661Z</time>
      </trkpt>
      <trkpt lat="50.95216" lon="1.8117">
        <ele>2</ele>
        <time>2026-05-11T08:57:13.106Z</time>
      </trkpt>
      <trkpt lat="50.95212" lon="1.81175">
        <ele>2</ele>
        <time>2026-05-11T08:57:17.285Z</time>
      </trkpt>
      <trkpt lat="50.95209" lon="1.81181">
        <ele>2</ele>
        <time>2026-05-11T08:57:21.509Z</time>
      </trkpt>
      <trkpt lat="50.95206" lon="1.81187">
        <ele>2</ele>
        <time>2026-05-11T08:57:25.661Z</time>
      </trkpt>
      <trkpt lat="50.95203" lon="1.81192">
        <ele>2</ele>
        <time>2026-05-11T08:57:29.661Z</time>
      </trkpt>
      <trkpt lat="50.952" lon="1.81198">
        <ele>2</ele>
        <time>2026-05-11T08:57:34.290Z</time>
      </trkpt>
      <trkpt lat="50.95198" lon="1.81204">
        <ele>2</ele>
        <time>2026-05-11T08:57:38.389Z</time>
      </trkpt>
      <trkpt lat="50.95194" lon="1.8121">
        <ele>2</ele>
        <time>2026-05-11T08:57:42.507Z</time>
      </trkpt>
      <trkpt lat="50.95192" lon="1.81216">
        <ele>2</ele>
        <time>2026-05-11T08:57:46.607Z</time>
      </trkpt>
      <trkpt lat="50.95191" lon="1.8122">
        <ele>2</ele>
        <time>2026-05-11T08:57:50.661Z</time>
      </trkpt>
      <trkpt lat="50.95191" lon="1.81221">
        <ele>2</ele>
        <time>2026-05-11T08:57:55.043Z</time>
      </trkpt>
      <trkpt lat="50.95188" lon="1.81228">
        <ele>2</ele>
        <time>2026-05-11T08:57:59.512Z</time>
      </trkpt>
      <trkpt lat="50.95184" lon="1.81236">
        <ele>2</ele>
        <time>2026-05-11T08:58:03.549Z</time>
      </trkpt>
      <trkpt lat="50.95183" lon="1.81243">
        <ele>2</ele>
        <time>2026-05-11T08:58:07.649Z</time>
      </trkpt>
      <trkpt lat="50.95183" lon="1.8125">
        <ele>2</ele>
        <time>2026-05-11T08:58:11.670Z</time>
      </trkpt>
      <trkpt lat="50.95185" lon="1.81258">
        <ele>2</ele>
        <time>2026-05-11T08:58:16.350Z</time>
      </trkpt>
      <trkpt lat="50.95188" lon="1.81263">
        <ele>2</ele>
        <time>2026-05-11T08:58:20.432Z</time>
      </trkpt>
      <trkpt lat="50.95193" lon="1.81266">
        <ele>2</ele>
        <time>2026-05-11T08:58:25.005Z</time>
      </trkpt>
      <trkpt lat="50.95197" lon="1.81266">
        <ele>2</ele>
        <time>2026-05-11T08:58:29.527Z</time>
      </trkpt>
      <trkpt lat="50.95201" lon="1.81269">
        <ele>2</ele>
        <time>2026-05-11T08:58:33.811Z</time>
      </trkpt>
      <trkpt lat="50.95202" lon="1.81277">
        <ele>2</ele>
        <time>2026-05-11T08:58:38.008Z</time>
      </trkpt>
      <trkpt lat="50.95203" lon="1.81284">
        <ele>2</ele>
        <time>2026-05-11T08:58:42.037Z</time>
      </trkpt>
      <trkpt lat="50.95204" lon="1.81292">
        <ele>3</ele>
        <time>2026-05-11T08:58:46.173Z</time>
      </trkpt>
      <trkpt lat="50.95205" lon="1.81299">
        <ele>3</ele>
        <time>2026-05-11T08:58:50.290Z</time>
      </trkpt>
      <trkpt lat="50.95206" lon="1.81306">
        <ele>3</ele>
        <time>2026-05-11T08:58:54.344Z</time>
      </trkpt>
      <trkpt lat="50.95207" lon="1.81313">
        <ele>3</ele>
        <time>2026-05-11T08:58:58.505Z</time>
      </trkpt>
      <trkpt lat="50.95208" lon="1.81321">
        <ele>2</ele>
        <time>2026-05-11T08:59:02.526Z</time>
      </trkpt>
      <trkpt lat="50.95209" lon="1.81328">
        <ele>2</ele>
        <time>2026-05-11T08:59:06.661Z</time>
      </trkpt>
      <trkpt lat="50.95208" lon="1.81331">
        <ele>2</ele>
        <time>2026-05-11T08:59:10.662Z</time>
      </trkpt>
      <trkpt lat="50.95208" lon="1.81329">
        <ele>2</ele>
        <time>2026-05-11T08:59:14.661Z</time>
      </trkpt>
      <trkpt lat="50.95208" lon="1.8133">
        <ele>2</ele>
        <time>2026-05-11T08:59:19.311Z</time>
      </trkpt>
      <trkpt lat="50.95207" lon="1.81336">
        <ele>2</ele>
        <time>2026-05-11T08:59:23.661Z</time>
      </trkpt>
      <trkpt lat="50.95208" lon="1.81344">
        <ele>2</ele>
        <time>2026-05-11T08:59:28.029Z</time>
      </trkpt>
      <trkpt lat="50.9521" lon="1.81349">
        <ele>2</ele>
        <time>2026-05-11T08:59:32.374Z</time>
      </trkpt>
      <trkpt lat="50.9521" lon="1.81357">
        <ele>2</ele>
        <time>2026-05-11T08:59:36.661Z</time>
      </trkpt>
      <trkpt lat="50.95211" lon="1.81364">
        <ele>2</ele>
        <time>2026-05-11T08:59:41.091Z</time>
      </trkpt>
      <trkpt lat="50.95212" lon="1.8137">
        <ele>2</ele>
        <time>2026-05-11T08:59:45.350Z</time>
      </trkpt>
      <trkpt lat="50.95212" lon="1.81378">
        <ele>3.6</ele>
        <time>2026-05-11T08:59:49.609Z</time>
      </trkpt>
      <trkpt lat="50.95212" lon="1.81386">
        <ele>3.6</ele>
        <time>2026-05-11T08:59:54.313Z</time>
      </trkpt>
      <trkpt lat="50.95214" lon="1.81389">
        <ele>3.7</ele>
        <time>2026-05-11T08:59:58.672Z</time>
      </trkpt>
      <trkpt lat="50.95217" lon="1.81395">
        <ele>3.8</ele>
        <time>2026-05-11T09:00:03.251Z</time>
      </trkpt>
      <trkpt lat="50.95215" lon="1.81406">
        <ele>3.7</ele>
        <time>2026-05-11T09:00:07.490Z</time>
      </trkpt>
      <trkpt lat="50.95213" lon="1.81414">
        <ele>3.7</ele>
        <time>2026-05-11T09:00:11.573Z</time>
      </trkpt>
      <trkpt lat="50.95216" lon="1.81423">
        <ele>3.8</ele>
        <time>2026-05-11T09:00:15.661Z</time>
      </trkpt>
      <trkpt lat="50.95219" lon="1.8143">
        <ele>3.9</ele>
        <time>2026-05-11T09:00:19.809Z</time>
      </trkpt>
      <trkpt lat="50.9522" lon="1.81437">
        <ele>1</ele>
        <time>2026-05-11T09:00:23.874Z</time>
      </trkpt>
      <trkpt lat="50.95221" lon="1.81446">
        <ele>1</ele>
        <time>2026-05-11T09:00:28.527Z</time>
      </trkpt>
      <trkpt lat="50.95222" lon="1.81453">
        <ele>1</ele>
        <time>2026-05-11T09:00:32.662Z</time>
      </trkpt>
      <trkpt lat="50.95224" lon="1.81463">
        <ele>1</ele>
        <time>2026-05-11T09:00:37.395Z</time>
      </trkpt>
      <trkpt lat="50.95226" lon="1.8147">
        <ele>1</ele>
        <time>2026-05-11T09:00:41.494Z</time>
      </trkpt>
      <trkpt lat="50.9523" lon="1.81471">
        <ele>1</ele>
        <time>2026-05-11T09:00:46.070Z</time>
      </trkpt>
      <trkpt lat="50.95234" lon="1.81468">
        <ele>1</ele>
        <time>2026-05-11T09:00:50.291Z</time>
      </trkpt>
      <trkpt lat="50.95238" lon="1.81465">
        <ele>2.8</ele>
        <time>2026-05-11T09:00:54.392Z</time>
      </trkpt>
      <trkpt lat="50.95244" lon="1.81464">
        <ele>2.8</ele>
        <time>2026-05-11T09:00:58.510Z</time>
      </trkpt>
      <trkpt lat="50.95249" lon="1.81463">
        <ele>2.7</ele>
        <time>2026-05-11T09:01:02.530Z</time>
      </trkpt>
      <trkpt lat="50.95252" lon="1.81463">
        <ele>2.7</ele>
        <time>2026-05-11T09:01:07.193Z</time>
      </trkpt>
      <trkpt lat="50.95258" lon="1.81465">
        <ele>3</ele>
        <time>2026-05-11T09:01:11.249Z</time>
      </trkpt>
      <trkpt lat="50.95263" lon="1.81467">
        <ele>3.1</ele>
        <time>2026-05-11T09:01:15.269Z</time>
      </trkpt>
      <trkpt lat="50.95267" lon="1.81468">
        <ele>1</ele>
        <time>2026-05-11T09:01:19.662Z</time>
      </trkpt>
      <trkpt lat="50.95271" lon="1.81473">
        <ele>1</ele>
        <time>2026-05-11T09:01:24.031Z</time>
      </trkpt>
      <trkpt lat="50.95277" lon="1.81474">
        <ele>1</ele>
        <time>2026-05-11T09:01:28.149Z</time>
      </trkpt>
      <trkpt lat="50.95286" lon="1.81479">
        <ele>1</ele>
        <time>2026-05-11T09:02:44.660Z</time>
      </trkpt>
      <trkpt lat="50.95286" lon="1.81479">
        <ele>1</ele>
        <time>2026-05-11T09:02:52.661Z</time>
      </trkpt>
      <trkpt lat="50.95287" lon="1.81488">
        <ele>1</ele>
        <time>2026-05-11T09:02:57.661Z</time>
      </trkpt>
      <trkpt lat="50.95288" lon="1.81497">
        <ele>1</ele>
        <time>2026-05-11T09:03:02.660Z</time>
      </trkpt>
      <trkpt lat="50.95289" lon="1.81506">
        <ele>1</ele>
        <time>2026-05-11T09:03:07.661Z</time>
      </trkpt>
      <trkpt lat="50.95291" lon="1.81516">
        <ele>1</ele>
        <time>2026-05-11T09:03:11.910Z</time>
      </trkpt>
      <trkpt lat="50.95291" lon="1.81523">
        <ele>1</ele>
        <time>2026-05-11T09:03:15.993Z</time>
      </trkpt>
      <trkpt lat="50.9529" lon="1.81526">
        <ele>1</ele>
        <time>2026-05-11T09:03:20.049Z</time>
      </trkpt>
      <trkpt lat="50.9529" lon="1.81532">
        <ele>1</ele>
        <time>2026-05-11T09:03:24.633Z</time>
      </trkpt>
      <trkpt lat="50.95292" lon="1.81542">
        <ele>2</ele>
        <time>2026-05-11T09:03:29.549Z</time>
      </trkpt>
      <trkpt lat="50.95294" lon="1.81548">
        <ele>2</ele>
        <time>2026-05-11T09:03:33.614Z</time>
      </trkpt>
      <trkpt lat="50.95294" lon="1.81553">
        <ele>2</ele>
        <time>2026-05-11T09:03:38.076Z</time>
      </trkpt>
      <trkpt lat="50.95293" lon="1.81562">
        <ele>2</ele>
        <time>2026-05-11T09:03:42.429Z</time>
      </trkpt>
      <trkpt lat="50.95294" lon="1.81569">
        <ele>2</ele>
        <time>2026-05-11T09:03:46.470Z</time>
      </trkpt>
      <trkpt lat="50.95296" lon="1.81578">
        <ele>4</ele>
        <time>2026-05-11T09:03:51.073Z</time>
      </trkpt>
      <trkpt lat="50.95296" lon="1.81587">
        <ele>4</ele>
        <time>2026-05-11T09:03:55.174Z</time>
      </trkpt>
      <trkpt lat="50.95296" lon="1.81594">
        <ele>4</ele>
        <time>2026-05-11T09:03:59.660Z</time>
      </trkpt>
      <trkpt lat="50.95296" lon="1.816">
        <ele>2</ele>
        <time>2026-05-11T09:04:03.866Z</time>
      </trkpt>
      <trkpt lat="50.95296" lon="1.8161">
        <ele>2</ele>
        <time>2026-05-11T09:04:08.414Z</time>
      </trkpt>
      <trkpt lat="50.95297" lon="1.81619">
        <ele>2</ele>
        <time>2026-05-11T09:04:12.953Z</time>
      </trkpt>
      <trkpt lat="50.95293" lon="1.8162">
        <ele>2</ele>
        <time>2026-05-11T09:04:17.010Z</time>
      </trkpt>
      <trkpt lat="50.95288" lon="1.81621">
        <ele>2</ele>
        <time>2026-05-11T09:04:21.110Z</time>
      </trkpt>
      <trkpt lat="50.95283" lon="1.81622">
        <ele>2</ele>
        <time>2026-05-11T09:04:25.193Z</time>
      </trkpt>
      <trkpt lat="50.95278" lon="1.81622">
        <ele>2</ele>
        <time>2026-05-11T09:04:29.293Z</time>
      </trkpt>
      <trkpt lat="50.95273" lon="1.81624">
        <ele>2</ele>
        <time>2026-05-11T09:04:33.972Z</time>
      </trkpt>
      <trkpt lat="50.95271" lon="1.81621">
        <ele>2</ele>
        <time>2026-05-11T09:04:38.407Z</time>
      </trkpt>
      <trkpt lat="50.95264" lon="1.81621">
        <ele>2</ele>
        <time>2026-05-11T09:04:42.911Z</time>
      </trkpt>
      <trkpt lat="50.95259" lon="1.81622">
        <ele>1</ele>
        <time>2026-05-11T09:04:47.433Z</time>
      </trkpt>
      <trkpt lat="50.95254" lon="1.81622">
        <ele>1</ele>
        <time>2026-05-11T09:04:52.490Z</time>
      </trkpt>
      <trkpt lat="50.95248" lon="1.81623">
        <ele>1</ele>
        <time>2026-05-11T09:04:56.968Z</time>
      </trkpt>
      <trkpt lat="50.95242" lon="1.81623">
        <ele>1</ele>
        <time>2026-05-11T09:05:00.989Z</time>
      </trkpt>
      <trkpt lat="50.95237" lon="1.81624">
        <ele>1</ele>
        <time>2026-05-11T09:05:05.028Z</time>
      </trkpt>
      <trkpt lat="50.95232" lon="1.81625">
        <ele>3.3</ele>
        <time>2026-05-11T09:05:09.093Z</time>
      </trkpt>
      <trkpt lat="50.95227" lon="1.81625">
        <ele>1</ele>
        <time>2026-05-11T09:05:13.150Z</time>
      </trkpt>
      <trkpt lat="50.95222" lon="1.81628">
        <ele>1</ele>
        <time>2026-05-11T09:05:17.232Z</time>
      </trkpt>
      <trkpt lat="50.95218" lon="1.81631">
        <ele>1</ele>
        <time>2026-05-11T09:05:21.660Z</time>
      </trkpt>
      <trkpt lat="50.95216" lon="1.81632">
        <ele>1</ele>
        <time>2026-05-11T09:05:25.660Z</time>
      </trkpt>
      <trkpt lat="50.9521" lon="1.81638">
        <ele>1</ele>
        <time>2026-05-11T09:05:29.866Z</time>
      </trkpt>
      <trkpt lat="50.95207" lon="1.81644">
        <ele>1</ele>
        <time>2026-05-11T09:05:34.054Z</time>
      </trkpt>
      <trkpt lat="50.95203" lon="1.81648">
        <ele>1</ele>
        <time>2026-05-11T09:05:38.207Z</time>
      </trkpt>
      <trkpt lat="50.95199" lon="1.81653">
        <ele>1</ele>
        <time>2026-05-11T09:05:42.333Z</time>
      </trkpt>
      <trkpt lat="50.95197" lon="1.81658">
        <ele>2.8</ele>
        <time>2026-05-11T09:05:46.390Z</time>
      </trkpt>
      <trkpt lat="50.95196" lon="1.81667">
        <ele>3.1</ele>
        <time>2026-05-11T09:05:50.490Z</time>
      </trkpt>
      <trkpt lat="50.95197" lon="1.81675">
        <ele>3.1</ele>
        <time>2026-05-11T09:05:54.609Z</time>
      </trkpt>
      <trkpt lat="50.95198" lon="1.81682">
        <ele>3.1</ele>
        <time>2026-05-11T09:05:58.647Z</time>
      </trkpt>
      <trkpt lat="50.95199" lon="1.8169">
        <ele>3.2</ele>
        <time>2026-05-11T09:06:02.660Z</time>
      </trkpt>
      <trkpt lat="50.952" lon="1.81699">
        <ele>3.1</ele>
        <time>2026-05-11T09:06:07.330Z</time>
      </trkpt>
      <trkpt lat="50.95199" lon="1.81705">
        <ele>2.9</ele>
        <time>2026-05-11T09:06:11.412Z</time>
      </trkpt>
      <trkpt lat="50.95199" lon="1.81711">
        <ele>-1</ele>
        <time>2026-05-11T09:06:15.450Z</time>
      </trkpt>
      <trkpt lat="50.95199" lon="1.81721">
        <ele>-1</ele>
        <time>2026-05-11T09:06:20.033Z</time>
      </trkpt>
      <trkpt lat="50.95199" lon="1.81729">
        <ele>-1</ele>
        <time>2026-05-11T09:06:24.407Z</time>
      </trkpt>
      <trkpt lat="50.952" lon="1.81734">
        <ele>-1</ele>
        <time>2026-05-11T09:06:28.472Z</time>
      </trkpt>
      <trkpt lat="50.95201" lon="1.81744">
        <ele>2.3</ele>
        <time>2026-05-11T09:06:33.046Z</time>
      </trkpt>
      <trkpt lat="50.95201" lon="1.81752">
        <ele>2.2</ele>
        <time>2026-05-11T09:06:37.093Z</time>
      </trkpt>
      <trkpt lat="50.95202" lon="1.81761">
        <ele>2</ele>
        <time>2026-05-11T09:06:41.168Z</time>
      </trkpt>
      <trkpt lat="50.95202" lon="1.81769">
        <ele>1.8</ele>
        <time>2026-05-11T09:06:45.347Z</time>
      </trkpt>
      <trkpt lat="50.95203" lon="1.81777">
        <ele>1.6</ele>
        <time>2026-05-11T09:06:49.589Z</time>
      </trkpt>
      <trkpt lat="50.95204" lon="1.81784">
        <ele>1.7</ele>
        <time>2026-05-11T09:06:53.661Z</time>
      </trkpt>
      <trkpt lat="50.95204" lon="1.81791">
        <ele>1.9</ele>
        <time>2026-05-11T09:06:57.831Z</time>
      </trkpt>
      <trkpt lat="50.95205" lon="1.81799">
        <ele>2.1</ele>
        <time>2026-05-11T09:07:01.917Z</time>
      </trkpt>
      <trkpt lat="50.95206" lon="1.81806">
        <ele>2.3</ele>
        <time>2026-05-11T09:07:05.971Z</time>
      </trkpt>
      <trkpt lat="50.95208" lon="1.81813">
        <ele>2.3</ele>
        <time>2026-05-11T09:07:10.132Z</time>
      </trkpt>
      <trkpt lat="50.95209" lon="1.8182">
        <ele>2.3</ele>
        <time>2026-05-11T09:07:14.192Z</time>
      </trkpt>
      <trkpt lat="50.95211" lon="1.81828">
        <ele>2.3</ele>
        <time>2026-05-11T09:07:18.307Z</time>
      </trkpt>
      <trkpt lat="50.95213" lon="1.81836">
        <ele>2.3</ele>
        <time>2026-05-11T09:07:22.408Z</time>
      </trkpt>
      <trkpt lat="50.95215" lon="1.81842">
        <ele>2.5</ele>
        <time>2026-05-11T09:07:26.550Z</time>
      </trkpt>
      <trkpt lat="50.95217" lon="1.81849">
        <ele>1</ele>
        <time>2026-05-11T09:07:30.633Z</time>
      </trkpt>
      <trkpt lat="50.95218" lon="1.81856">
        <ele>1</ele>
        <time>2026-05-11T09:07:34.661Z</time>
      </trkpt>
      <trkpt lat="50.9522" lon="1.81863">
        <ele>1</ele>
        <time>2026-05-11T09:07:38.807Z</time>
      </trkpt>
      <trkpt lat="50.95221" lon="1.8187">
        <ele>1</ele>
        <time>2026-05-11T09:07:42.952Z</time>
      </trkpt>
      <trkpt lat="50.95223" lon="1.81877">
        <ele>2</ele>
        <time>2026-05-11T09:07:47.087Z</time>
      </trkpt>
      <trkpt lat="50.95225" lon="1.81884">
        <ele>2</ele>
        <time>2026-05-11T09:07:51.248Z</time>
      </trkpt>
      <trkpt lat="50.95227" lon="1.81892">
        <ele>2</ele>
        <time>2026-05-11T09:07:55.349Z</time>
      </trkpt>
      <trkpt lat="50.95228" lon="1.81899">
        <ele>2</ele>
        <time>2026-05-11T09:07:59.492Z</time>
      </trkpt>
      <trkpt lat="50.9523" lon="1.81905">
        <ele>2</ele>
        <time>2026-05-11T09:08:03.592Z</time>
      </trkpt>
      <trkpt lat="50.95232" lon="1.81912">
        <ele>2</ele>
        <time>2026-05-11T09:08:07.631Z</time>
      </trkpt>
      <trkpt lat="50.95233" lon="1.81919">
        <ele>2</ele>
        <time>2026-05-11T09:08:11.661Z</time>
      </trkpt>
      <trkpt lat="50.95235" lon="1.81926">
        <ele>2</ele>
        <time>2026-05-11T09:08:15.893Z</time>
      </trkpt>
      <trkpt lat="50.95238" lon="1.81933">
        <ele>3</ele>
        <time>2026-05-11T09:08:19.931Z</time>
      </trkpt>
      <trkpt lat="50.9524" lon="1.8194">
        <ele>3</ele>
        <time>2026-05-11T09:08:24.006Z</time>
      </trkpt>
      <trkpt lat="50.95242" lon="1.81947">
        <ele>3</ele>
        <time>2026-05-11T09:08:28.107Z</time>
      </trkpt>
      <trkpt lat="50.95243" lon="1.81954">
        <ele>3</ele>
        <time>2026-05-11T09:08:32.268Z</time>
      </trkpt>
      <trkpt lat="50.95245" lon="1.81961">
        <ele>3</ele>
        <time>2026-05-11T09:08:36.369Z</time>
      </trkpt>
      <trkpt lat="50.95247" lon="1.81968">
        <ele>3</ele>
        <time>2026-05-11T09:08:40.511Z</time>
      </trkpt>
      <trkpt lat="50.9525" lon="1.81976">
        <ele>3</ele>
        <time>2026-05-11T09:08:44.595Z</time>
      </trkpt>
      <trkpt lat="50.95251" lon="1.81982">
        <ele>3</ele>
        <time>2026-05-11T09:08:48.660Z</time>
      </trkpt>
      <trkpt lat="50.95253" lon="1.8199">
        <ele>4</ele>
        <time>2026-05-11T09:08:52.892Z</time>
      </trkpt>
      <trkpt lat="50.95255" lon="1.81997">
        <ele>4</ele>
        <time>2026-05-11T09:08:57.114Z</time>
      </trkpt>
      <trkpt lat="50.95256" lon="1.82004">
        <ele>4</ele>
        <time>2026-05-11T09:09:01.249Z</time>
      </trkpt>
      <trkpt lat="50.95258" lon="1.82011">
        <ele>4</ele>
        <time>2026-05-11T09:09:05.429Z</time>
      </trkpt>
      <trkpt lat="50.95261" lon="1.82018">
        <ele>2</ele>
        <time>2026-05-11T09:09:09.531Z</time>
      </trkpt>
      <trkpt lat="50.95262" lon="1.82024">
        <ele>2</ele>
        <time>2026-05-11T09:09:13.489Z</time>
      </trkpt>
      <trkpt lat="50.95265" lon="1.82031">
        <ele>2</ele>
        <time>2026-05-11T09:09:17.660Z</time>
      </trkpt>
      <trkpt lat="50.95267" lon="1.82039">
        <ele>2</ele>
        <time>2026-05-11T09:09:21.891Z</time>
      </trkpt>
      <trkpt lat="50.95269" lon="1.82046">
        <ele>2</ele>
        <time>2026-05-11T09:09:26.070Z</time>
      </trkpt>
      <trkpt lat="50.9527" lon="1.82053">
        <ele>2</ele>
        <time>2026-05-11T09:09:30.152Z</time>
      </trkpt>
      <trkpt lat="50.95273" lon="1.8206">
        <ele>2</ele>
        <time>2026-05-11T09:09:34.210Z</time>
      </trkpt>
      <trkpt lat="50.95274" lon="1.82067">
        <ele>2</ele>
        <time>2026-05-11T09:09:38.352Z</time>
      </trkpt>
      <trkpt lat="50.95275" lon="1.82074">
        <ele>1</ele>
        <time>2026-05-11T09:09:42.550Z</time>
      </trkpt>
      <trkpt lat="50.95277" lon="1.82081">
        <ele>1</ele>
        <time>2026-05-11T09:09:46.661Z</time>
      </trkpt>
      <trkpt lat="50.95279" lon="1.82088">
        <ele>1</ele>
        <time>2026-05-11T09:09:50.970Z</time>
      </trkpt>
      <trkpt lat="50.95281" lon="1.82096">
        <ele>1</ele>
        <time>2026-05-11T09:09:55.086Z</time>
      </trkpt>
      <trkpt lat="50.95283" lon="1.82104">
        <ele>1</ele>
        <time>2026-05-11T09:09:59.670Z</time>
      </trkpt>
      <trkpt lat="50.95286" lon="1.82112">
        <ele>1</ele>
        <time>2026-05-11T09:10:04.314Z</time>
      </trkpt>
      <trkpt lat="50.95288" lon="1.82119">
        <ele>1</ele>
        <time>2026-05-11T09:10:08.413Z</time>
      </trkpt>
      <trkpt lat="50.9529" lon="1.82126">
        <ele>1</ele>
        <time>2026-05-11T09:10:12.567Z</time>
      </trkpt>
      <trkpt lat="50.95292" lon="1.82133">
        <ele>1</ele>
        <time>2026-05-11T09:10:16.660Z</time>
      </trkpt>
      <trkpt lat="50.95293" lon="1.8214">
        <ele>1</ele>
        <time>2026-05-11T09:10:20.846Z</time>
      </trkpt>
      <trkpt lat="50.95295" lon="1.82147">
        <ele>1</ele>
        <time>2026-05-11T09:10:25.034Z</time>
      </trkpt>
      <trkpt lat="50.95297" lon="1.82153">
        <ele>1</ele>
        <time>2026-05-11T09:10:29.251Z</time>
      </trkpt>
      <trkpt lat="50.95298" lon="1.8216">
        <ele>1</ele>
        <time>2026-05-11T09:10:33.454Z</time>
      </trkpt>
      <trkpt lat="50.95301" lon="1.82166">
        <ele>1</ele>
        <time>2026-05-11T09:10:37.659Z</time>
      </trkpt>
      <trkpt lat="50.95303" lon="1.82173">
        <ele>1</ele>
        <time>2026-05-11T09:10:41.952Z</time>
      </trkpt>
      <trkpt lat="50.95305" lon="1.8218">
        <ele>1</ele>
        <time>2026-05-11T09:10:46.149Z</time>
      </trkpt>
      <trkpt lat="50.95307" lon="1.82188">
        <ele>1</ele>
        <time>2026-05-11T09:10:50.310Z</time>
      </trkpt>
      <trkpt lat="50.95308" lon="1.82195">
        <ele>1</ele>
        <time>2026-05-11T09:10:54.349Z</time>
      </trkpt>
      <trkpt lat="50.95311" lon="1.82202">
        <ele>1</ele>
        <time>2026-05-11T09:10:58.451Z</time>
      </trkpt>
      <trkpt lat="50.95312" lon="1.82208">
        <ele>1</ele>
        <time>2026-05-11T09:11:02.549Z</time>
      </trkpt>
      <trkpt lat="50.95314" lon="1.82214">
        <ele>2.3</ele>
        <time>2026-05-11T09:11:06.659Z</time>
      </trkpt>
      <trkpt lat="50.95317" lon="1.82219">
        <ele>2.4</ele>
        <time>2026-05-11T09:11:11.249Z</time>
      </trkpt>
      <trkpt lat="50.95318" lon="1.82221">
        <ele>2.4</ele>
        <time>2026-05-11T09:11:15.659Z</time>
      </trkpt>
      <trkpt lat="50.95321" lon="1.82224">
        <ele>1</ele>
        <time>2026-05-11T09:16:23.658Z</time>
      </trkpt>
      <trkpt lat="50.95321" lon="1.82224">
        <ele>1</ele>
        <time>2026-05-11T09:16:29.659Z</time>
      </trkpt>
      <trkpt lat="50.95321" lon="1.82225">
        <ele>1</ele>
        <time>2026-05-11T09:16:34.659Z</time>
      </trkpt>
      <trkpt lat="50.95323" lon="1.82228">
        <ele>1</ele>
        <time>2026-05-11T09:16:39.660Z</time>
      </trkpt>
      <trkpt lat="50.95327" lon="1.82232">
        <ele>1</ele>
        <time>2026-05-11T09:16:44.430Z</time>
      </trkpt>
      <trkpt lat="50.95337" lon="1.82224">
        <ele>1</ele>
        <time>2026-05-11T09:19:04.658Z</time>
      </trkpt>
      <trkpt lat="50.95342" lon="1.82222">
        <ele>1</ele>
        <time>2026-05-11T09:19:08.911Z</time>
      </trkpt>
      <trkpt lat="50.95345" lon="1.82218">
        <ele>1</ele>
        <time>2026-05-11T09:19:13.327Z</time>
      </trkpt>
      <trkpt lat="50.95351" lon="1.82213">
        <ele>2</ele>
        <time>2026-05-11T09:19:17.813Z</time>
      </trkpt>
      <trkpt lat="50.95355" lon="1.82211">
        <ele>2</ele>
        <time>2026-05-11T09:19:22.310Z</time>
      </trkpt>
      <trkpt lat="50.9536" lon="1.82203">
        <ele>1</ele>
        <time>2026-05-11T09:19:27.350Z</time>
      </trkpt>
      <trkpt lat="50.95363" lon="1.82201">
        <ele>1</ele>
        <time>2026-05-11T09:19:31.449Z</time>
      </trkpt>
      <trkpt lat="50.95367" lon="1.82196">
        <ele>1</ele>
        <time>2026-05-11T09:19:35.952Z</time>
      </trkpt>
      <trkpt lat="50.95372" lon="1.82192">
        <ele>1</ele>
        <time>2026-05-11T09:19:39.974Z</time>
      </trkpt>
      <trkpt lat="50.95377" lon="1.82188">
        <ele>2</ele>
        <time>2026-05-11T09:19:44.408Z</time>
      </trkpt>
      <trkpt lat="50.95381" lon="1.82185">
        <ele>2</ele>
        <time>2026-05-11T09:19:48.658Z</time>
      </trkpt>
      <trkpt lat="50.95385" lon="1.8218">
        <ele>2</ele>
        <time>2026-05-11T09:19:53.110Z</time>
      </trkpt>
      <trkpt lat="50.95389" lon="1.82175">
        <ele>2</ele>
        <time>2026-05-11T09:19:57.570Z</time>
      </trkpt>
      <trkpt lat="50.95393" lon="1.82171">
        <ele>2</ele>
        <time>2026-05-11T09:20:01.571Z</time>
      </trkpt>
      <trkpt lat="50.95397" lon="1.82166">
        <ele>2</ele>
        <time>2026-05-11T09:20:06.093Z</time>
      </trkpt>
      <trkpt lat="50.95402" lon="1.82162">
        <ele>2</ele>
        <time>2026-05-11T09:20:10.650Z</time>
      </trkpt>
      <trkpt lat="50.95406" lon="1.82158">
        <ele>2</ele>
        <time>2026-05-11T09:20:15.234Z</time>
      </trkpt>
      <trkpt lat="50.9541" lon="1.82154">
        <ele>2</ele>
        <time>2026-05-11T09:20:19.658Z</time>
      </trkpt>
      <trkpt lat="50.95415" lon="1.82151">
        <ele>2</ele>
        <time>2026-05-11T09:20:23.750Z</time>
      </trkpt>
      <trkpt lat="50.9542" lon="1.8215">
        <ele>2</ele>
        <time>2026-05-11T09:20:28.173Z</time>
      </trkpt>
      <trkpt lat="50.95422" lon="1.82152">
        <ele>2</ele>
        <time>2026-05-11T09:20:32.658Z</time>
      </trkpt>
      <trkpt lat="50.95423" lon="1.82154">
        <ele>2</ele>
        <time>2026-05-11T09:20:40.658Z</time>
      </trkpt>
      <trkpt lat="50.95425" lon="1.82157">
        <ele>2</ele>
        <time>2026-05-11T09:20:44.659Z</time>
      </trkpt>
      <trkpt lat="50.95431" lon="1.82167">
        <ele>2</ele>
        <time>2026-05-11T09:20:49.270Z</time>
      </trkpt>
      <trkpt lat="50.95434" lon="1.82173">
        <ele>2</ele>
        <time>2026-05-11T09:20:53.273Z</time>
      </trkpt>
      <trkpt lat="50.95436" lon="1.8218">
        <ele>2</ele>
        <time>2026-05-11T09:20:57.658Z</time>
      </trkpt>
      <trkpt lat="50.95438" lon="1.8219">
        <ele>2</ele>
        <time>2026-05-11T09:21:02.289Z</time>
      </trkpt>
      <trkpt lat="50.95442" lon="1.82197">
        <ele>2</ele>
        <time>2026-05-11T09:21:06.829Z</time>
      </trkpt>
      <trkpt lat="50.95445" lon="1.82203">
        <ele>2</ele>
        <time>2026-05-11T09:21:11.349Z</time>
      </trkpt>
      <trkpt lat="50.95444" lon="1.82212">
        <ele>2</ele>
        <time>2026-05-11T09:21:15.389Z</time>
      </trkpt>
      <trkpt lat="50.95445" lon="1.82221">
        <ele>2</ele>
        <time>2026-05-11T09:21:19.927Z</time>
      </trkpt>
      <trkpt lat="50.95442" lon="1.82227">
        <ele>2</ele>
        <time>2026-05-11T09:21:23.949Z</time>
      </trkpt>
      <trkpt lat="50.95437" lon="1.8223">
        <ele>2</ele>
        <time>2026-05-11T09:21:28.030Z</time>
      </trkpt>
      <trkpt lat="50.95433" lon="1.82234">
        <ele>2</ele>
        <time>2026-05-11T09:21:32.086Z</time>
      </trkpt>
      <trkpt lat="50.95429" lon="1.82239">
        <ele>2</ele>
        <time>2026-05-11T09:21:36.107Z</time>
      </trkpt>
      <trkpt lat="50.95425" lon="1.82242">
        <ele>2</ele>
        <time>2026-05-11T09:21:40.154Z</time>
      </trkpt>
      <trkpt lat="50.95422" lon="1.82247">
        <ele>2</ele>
        <time>2026-05-11T09:21:44.192Z</time>
      </trkpt>
      <trkpt lat="50.95418" lon="1.82253">
        <ele>2</ele>
        <time>2026-05-11T09:21:48.249Z</time>
      </trkpt>
      <trkpt lat="50.95414" lon="1.82257">
        <ele>2</ele>
        <time>2026-05-11T09:21:52.349Z</time>
      </trkpt>
      <trkpt lat="50.9541" lon="1.8226">
        <ele>2</ele>
        <time>2026-05-11T09:21:56.413Z</time>
      </trkpt>
      <trkpt lat="50.95406" lon="1.82264">
        <ele>3</ele>
        <time>2026-05-11T09:22:00.469Z</time>
      </trkpt>
      <trkpt lat="50.95403" lon="1.8227">
        <ele>3</ele>
        <time>2026-05-11T09:22:04.490Z</time>
      </trkpt>
      <trkpt lat="50.95401" lon="1.82279">
        <ele>3</ele>
        <time>2026-05-11T09:22:09.045Z</time>
      </trkpt>
      <trkpt lat="50.95401" lon="1.82287">
        <ele>3</ele>
        <time>2026-05-11T09:22:13.110Z</time>
      </trkpt>
      <trkpt lat="50.95403" lon="1.82296">
        <ele>2</ele>
        <time>2026-05-11T09:22:17.659Z</time>
      </trkpt>
      <trkpt lat="50.95406" lon="1.82304">
        <ele>3</ele>
        <time>2026-05-11T09:22:22.329Z</time>
      </trkpt>
      <trkpt lat="50.95409" lon="1.8231">
        <ele>3</ele>
        <time>2026-05-11T09:22:26.331Z</time>
      </trkpt>
      <trkpt lat="50.95412" lon="1.82318">
        <ele>3</ele>
        <time>2026-05-11T09:22:30.852Z</time>
      </trkpt>
      <trkpt lat="50.95414" lon="1.82324">
        <ele>3</ele>
        <time>2026-05-11T09:22:35.374Z</time>
      </trkpt>
      <trkpt lat="50.95412" lon="1.8233">
        <ele>3</ele>
        <time>2026-05-11T09:22:39.807Z</time>
      </trkpt>
      <trkpt lat="50.95414" lon="1.8234">
        <ele>3</ele>
        <time>2026-05-11T09:22:44.329Z</time>
      </trkpt>
      <trkpt lat="50.95415" lon="1.82349">
        <ele>4</ele>
        <time>2026-05-11T09:22:48.366Z</time>
      </trkpt>
      <trkpt lat="50.95417" lon="1.82356">
        <ele>4</ele>
        <time>2026-05-11T09:22:52.370Z</time>
      </trkpt>
      <trkpt lat="50.9542" lon="1.82364">
        <ele>4</ele>
        <time>2026-05-11T09:22:56.909Z</time>
      </trkpt>
      <trkpt lat="50.95422" lon="1.82371">
        <ele>4</ele>
        <time>2026-05-11T09:23:00.930Z</time>
      </trkpt>
      <trkpt lat="50.95423" lon="1.82378">
        <ele>4</ele>
        <time>2026-05-11T09:23:05.573Z</time>
      </trkpt>
      <trkpt lat="50.95426" lon="1.82384">
        <ele>4</ele>
        <time>2026-05-11T09:23:09.658Z</time>
      </trkpt>
      <trkpt lat="50.95429" lon="1.82397">
        <ele>4</ele>
        <time>2026-05-11T09:23:26.659Z</time>
      </trkpt>
      <trkpt lat="50.9543" lon="1.82397">
        <ele>4</ele>
        <time>2026-05-11T09:23:31.613Z</time>
      </trkpt>
      <trkpt lat="50.95428" lon="1.82402">
        <ele>4</ele>
        <time>2026-05-11T09:23:35.658Z</time>
      </trkpt>
      <trkpt lat="50.95422" lon="1.82407">
        <ele>4</ele>
        <time>2026-05-11T09:23:39.658Z</time>
      </trkpt>
      <trkpt lat="50.95415" lon="1.82408">
        <ele>4</ele>
        <time>2026-05-11T09:23:44.247Z</time>
      </trkpt>
      <trkpt lat="50.95408" lon="1.82406">
        <ele>4</ele>
        <time>2026-05-11T09:23:48.658Z</time>
      </trkpt>
      <trkpt lat="50.95402" lon="1.82407">
        <ele>3</ele>
        <time>2026-05-11T09:23:52.850Z</time>
      </trkpt>
      <trkpt lat="50.95397" lon="1.8241">
        <ele>3</ele>
        <time>2026-05-11T09:23:56.872Z</time>
      </trkpt>
      <trkpt lat="50.95392" lon="1.82413">
        <ele>3</ele>
        <time>2026-05-11T09:24:01.456Z</time>
      </trkpt>
      <trkpt lat="50.95387" lon="1.82416">
        <ele>3</ele>
        <time>2026-05-11T09:24:05.967Z</time>
      </trkpt>
      <trkpt lat="50.95382" lon="1.82417">
        <ele>3</ele>
        <time>2026-05-11T09:24:10.490Z</time>
      </trkpt>
      <trkpt lat="50.95376" lon="1.82419">
        <ele>3</ele>
        <time>2026-05-11T09:24:15.009Z</time>
      </trkpt>
      <trkpt lat="50.95371" lon="1.82421">
        <ele>2</ele>
        <time>2026-05-11T09:24:19.575Z</time>
      </trkpt>
      <trkpt lat="50.95371" lon="1.82421">
        <ele>2</ele>
        <time>2026-05-11T09:24:23.658Z</time>
      </trkpt>
      <trkpt lat="50.95371" lon="1.82421">
        <ele>2</ele>
        <time>2026-05-11T09:24:27.968Z</time>
      </trkpt>
      <trkpt lat="50.95366" lon="1.82424">
        <ele>2</ele>
        <time>2026-05-11T09:24:32.173Z</time>
      </trkpt>
      <trkpt lat="50.95363" lon="1.8243">
        <ele>2</ele>
        <time>2026-05-11T09:24:36.386Z</time>
      </trkpt>
      <trkpt lat="50.95361" lon="1.82436">
        <ele>2</ele>
        <time>2026-05-11T09:24:40.658Z</time>
      </trkpt>
      <trkpt lat="50.95363" lon="1.82442">
        <ele>2</ele>
        <time>2026-05-11T09:24:45.071Z</time>
      </trkpt>
      <trkpt lat="50.95365" lon="1.82448">
        <ele>2</ele>
        <time>2026-05-11T09:24:49.327Z</time>
      </trkpt>
      <trkpt lat="50.95367" lon="1.82455">
        <ele>2</ele>
        <time>2026-05-11T09:24:53.532Z</time>
      </trkpt>
      <trkpt lat="50.95369" lon="1.82461">
        <ele>2</ele>
        <time>2026-05-11T09:24:57.658Z</time>
      </trkpt>
      <trkpt lat="50.95372" lon="1.82469">
        <ele>2</ele>
        <time>2026-05-11T09:25:02.294Z</time>
      </trkpt>
      <trkpt lat="50.95373" lon="1.82476">
        <ele>2</ele>
        <time>2026-05-11T09:25:06.569Z</time>
      </trkpt>
      <trkpt lat="50.95375" lon="1.8248">
        <ele>2</ele>
        <time>2026-05-11T09:25:10.658Z</time>
      </trkpt>
      <trkpt lat="50.95376" lon="1.82479">
        <ele>2</ele>
        <time>2026-05-11T09:25:14.659Z</time>
      </trkpt>
      <trkpt lat="50.95376" lon="1.82479">
        <ele>2</ele>
        <time>2026-05-11T09:25:19.658Z</time>
      </trkpt>
      <trkpt lat="50.95377" lon="1.8248">
        <ele>2</ele>
        <time>2026-05-11T09:25:24.041Z</time>
      </trkpt>
      <trkpt lat="50.95379" lon="1.82489">
        <ele>2</ele>
        <time>2026-05-11T09:25:28.350Z</time>
      </trkpt>
      <trkpt lat="50.95381" lon="1.82496">
        <ele>2</ele>
        <time>2026-05-11T09:25:32.512Z</time>
      </trkpt>
      <trkpt lat="50.95382" lon="1.82502">
        <ele>2</ele>
        <time>2026-05-11T09:25:36.658Z</time>
      </trkpt>
      <trkpt lat="50.95384" lon="1.82508">
        <ele>2</ele>
        <time>2026-05-11T09:25:40.949Z</time>
      </trkpt>
      <trkpt lat="50.95387" lon="1.82512">
        <ele>2</ele>
        <time>2026-05-11T09:25:45.014Z</time>
      </trkpt>
      <trkpt lat="50.9539" lon="1.82518">
        <ele>1</ele>
        <time>2026-05-11T09:25:49.272Z</time>
      </trkpt>
      <trkpt lat="50.95391" lon="1.82526">
        <ele>1</ele>
        <time>2026-05-11T09:25:53.389Z</time>
      </trkpt>
      <trkpt lat="50.95393" lon="1.82533">
        <ele>1</ele>
        <time>2026-05-11T09:25:57.552Z</time>
      </trkpt>
      <trkpt lat="50.95394" lon="1.8254">
        <ele>1</ele>
        <time>2026-05-11T09:26:01.590Z</time>
      </trkpt>
      <trkpt lat="50.95396" lon="1.82546">
        <ele>1</ele>
        <time>2026-05-11T09:26:05.658Z</time>
      </trkpt>
      <trkpt lat="50.95397" lon="1.82555">
        <ele>1</ele>
        <time>2026-05-11T09:26:10.657Z</time>
      </trkpt>
      <trkpt lat="50.95401" lon="1.82561">
        <ele>1</ele>
        <time>2026-05-11T09:26:14.873Z</time>
      </trkpt>
      <trkpt lat="50.95403" lon="1.82567">
        <ele>1</ele>
        <time>2026-05-11T09:26:19.149Z</time>
      </trkpt>
      <trkpt lat="50.95404" lon="1.82575">
        <ele>2</ele>
        <time>2026-05-11T09:26:23.574Z</time>
      </trkpt>
      <trkpt lat="50.95407" lon="1.82582">
        <ele>2</ele>
        <time>2026-05-11T09:26:27.657Z</time>
      </trkpt>
      <trkpt lat="50.95409" lon="1.82587">
        <ele>2</ele>
        <time>2026-05-11T09:26:31.889Z</time>
      </trkpt>
      <trkpt lat="50.95411" lon="1.82594">
        <ele>2</ele>
        <time>2026-05-11T09:26:36.068Z</time>
      </trkpt>
      <trkpt lat="50.95413" lon="1.82602">
        <ele>2</ele>
        <time>2026-05-11T09:26:40.450Z</time>
      </trkpt>
      <trkpt lat="50.95415" lon="1.82609">
        <ele>2</ele>
        <time>2026-05-11T09:26:44.550Z</time>
      </trkpt>
      <trkpt lat="50.95418" lon="1.82616">
        <ele>2</ele>
        <time>2026-05-11T09:26:49.091Z</time>
      </trkpt>
      <trkpt lat="50.95421" lon="1.82623">
        <ele>2</ele>
        <time>2026-05-11T09:26:53.658Z</time>
      </trkpt>
      <trkpt lat="50.95426" lon="1.82629">
        <ele>2</ele>
        <time>2026-05-11T09:26:58.657Z</time>
      </trkpt>
      <trkpt lat="50.9543" lon="1.82634">
        <ele>2</ele>
        <time>2026-05-11T09:27:03.014Z</time>
      </trkpt>
      <trkpt lat="50.95434" lon="1.82638">
        <ele>3</ele>
        <time>2026-05-11T09:27:07.534Z</time>
      </trkpt>
      <trkpt lat="50.95438" lon="1.8264">
        <ele>3</ele>
        <time>2026-05-11T09:27:11.657Z</time>
      </trkpt>
      <trkpt lat="50.95443" lon="1.82643">
        <ele>3</ele>
        <time>2026-05-11T09:27:15.812Z</time>
      </trkpt>
      <trkpt lat="50.95447" lon="1.82646">
        <ele>3</ele>
        <time>2026-05-11T09:27:19.950Z</time>
      </trkpt>
      <trkpt lat="50.95451" lon="1.82648">
        <ele>3</ele>
        <time>2026-05-11T09:27:24.110Z</time>
      </trkpt>
      <trkpt lat="50.95456" lon="1.82648">
        <ele>3</ele>
        <time>2026-05-11T09:27:28.429Z</time>
      </trkpt>
      <trkpt lat="50.9546" lon="1.82646">
        <ele>3</ele>
        <time>2026-05-11T09:27:32.658Z</time>
      </trkpt>
      <trkpt lat="50.95463" lon="1.8264">
        <ele>3</ele>
        <time>2026-05-11T09:27:36.930Z</time>
      </trkpt>
      <trkpt lat="50.95465" lon="1.82635">
        <ele>3</ele>
        <time>2026-05-11T09:27:41.170Z</time>
      </trkpt>
      <trkpt lat="50.95469" lon="1.82631">
        <ele>3</ele>
        <time>2026-05-11T09:27:45.252Z</time>
      </trkpt>
      <trkpt lat="50.95473" lon="1.8263">
        <ele>3</ele>
        <time>2026-05-11T09:27:49.309Z</time>
      </trkpt>
      <trkpt lat="50.95479" lon="1.82632">
        <ele>3</ele>
        <time>2026-05-11T09:28:02.657Z</time>
      </trkpt>
      <trkpt lat="50.9548" lon="1.82632">
        <ele>3</ele>
        <time>2026-05-11T09:28:10.522Z</time>
      </trkpt>
      <trkpt lat="50.95481" lon="1.82632">
        <ele>3</ele>
        <time>2026-05-11T09:28:15.194Z</time>
      </trkpt>
      <trkpt lat="50.95484" lon="1.82628">
        <ele>3</ele>
        <time>2026-05-11T09:28:19.533Z</time>
      </trkpt>
      <trkpt lat="50.95488" lon="1.82621">
        <ele>3</ele>
        <time>2026-05-11T09:28:23.657Z</time>
      </trkpt>
      <trkpt lat="50.95491" lon="1.82615">
        <ele>3</ele>
        <time>2026-05-11T09:28:27.892Z</time>
      </trkpt>
      <trkpt lat="50.95494" lon="1.8261">
        <ele>3</ele>
        <time>2026-05-11T09:28:32.075Z</time>
      </trkpt>
      <trkpt lat="50.95496" lon="1.82605">
        <ele>3</ele>
        <time>2026-05-11T09:28:36.189Z</time>
      </trkpt>
      <trkpt lat="50.955" lon="1.82599">
        <ele>3</ele>
        <time>2026-05-11T09:28:40.227Z</time>
      </trkpt>
      <trkpt lat="50.95503" lon="1.82593">
        <ele>4</ele>
        <time>2026-05-11T09:28:44.432Z</time>
      </trkpt>
      <trkpt lat="50.95507" lon="1.82589">
        <ele>4</ele>
        <time>2026-05-11T09:28:48.532Z</time>
      </trkpt>
      <trkpt lat="50.9551" lon="1.82584">
        <ele>4</ele>
        <time>2026-05-11T09:28:52.571Z</time>
      </trkpt>
      <trkpt lat="50.95513" lon="1.82578">
        <ele>4</ele>
        <time>2026-05-11T09:28:56.793Z</time>
      </trkpt>
      <trkpt lat="50.95516" lon="1.82573">
        <ele>4</ele>
        <time>2026-05-11T09:29:14.450Z</time>
      </trkpt>
      <trkpt lat="50.95519" lon="1.8257">
        <ele>4</ele>
        <time>2026-05-11T09:29:18.658Z</time>
      </trkpt>
      <trkpt lat="50.95523" lon="1.82564">
        <ele>4</ele>
        <time>2026-05-11T09:29:23.210Z</time>
      </trkpt>
      <trkpt lat="50.95525" lon="1.82558">
        <ele>4</ele>
        <time>2026-05-11T09:29:27.230Z</time>
      </trkpt>
      <trkpt lat="50.95528" lon="1.82554">
        <ele>4</ele>
        <time>2026-05-11T09:29:31.250Z</time>
      </trkpt>
      <trkpt lat="50.95531" lon="1.82549">
        <ele>4</ele>
        <time>2026-05-11T09:29:35.381Z</time>
      </trkpt>
      <trkpt lat="50.95534" lon="1.82544">
        <ele>4</ele>
        <time>2026-05-11T09:29:39.511Z</time>
      </trkpt>
      <trkpt lat="50.95537" lon="1.82539">
        <ele>4</ele>
        <time>2026-05-11T09:29:43.658Z</time>
      </trkpt>
      <trkpt lat="50.95541" lon="1.82534">
        <ele>4</ele>
        <time>2026-05-11T09:29:47.829Z</time>
      </trkpt>
      <trkpt lat="50.95543" lon="1.82529">
        <ele>5</ele>
        <time>2026-05-11T09:29:52.010Z</time>
      </trkpt>
      <trkpt lat="50.95546" lon="1.82523">
        <ele>5</ele>
        <time>2026-05-11T09:29:56.120Z</time>
      </trkpt>
      <trkpt lat="50.95547" lon="1.82517">
        <ele>5</ele>
        <time>2026-05-11T09:30:00.209Z</time>
      </trkpt>
      <trkpt lat="50.95552" lon="1.82511">
        <ele>4</ele>
        <time>2026-05-11T09:30:04.658Z</time>
      </trkpt>
      <trkpt lat="50.95555" lon="1.82501">
        <ele>4</ele>
        <time>2026-05-11T09:30:17.811Z</time>
      </trkpt>
      <trkpt lat="50.95557" lon="1.82494">
        <ele>4</ele>
        <time>2026-05-11T09:30:21.929Z</time>
      </trkpt>
      <trkpt lat="50.9556" lon="1.82487">
        <ele>4</ele>
        <time>2026-05-11T09:30:26.012Z</time>
      </trkpt>
      <trkpt lat="50.95562" lon="1.8248">
        <ele>5</ele>
        <time>2026-05-11T09:30:30.549Z</time>
      </trkpt>
      <trkpt lat="50.95565" lon="1.82475">
        <ele>5</ele>
        <time>2026-05-11T09:30:34.658Z</time>
      </trkpt>
      <trkpt lat="50.95565" lon="1.82477">
        <ele>5</ele>
        <time>2026-05-11T09:30:39.657Z</time>
      </trkpt>
      <trkpt lat="50.95567" lon="1.82476">
        <ele>5</ele>
        <time>2026-05-11T09:30:44.011Z</time>
      </trkpt>
      <trkpt lat="50.95571" lon="1.82468">
        <ele>5</ele>
        <time>2026-05-11T09:30:48.451Z</time>
      </trkpt>
      <trkpt lat="50.95573" lon="1.82461">
        <ele>5</ele>
        <time>2026-05-11T09:30:52.973Z</time>
      </trkpt>
      <trkpt lat="50.95577" lon="1.82453">
        <ele>5</ele>
        <time>2026-05-11T09:30:57.658Z</time>
      </trkpt>
      <trkpt lat="50.95579" lon="1.82446">
        <ele>5</ele>
        <time>2026-05-11T09:31:02.069Z</time>
      </trkpt>
      <trkpt lat="50.95582" lon="1.8244">
        <ele>5</ele>
        <time>2026-05-11T09:31:06.510Z</time>
      </trkpt>
      <trkpt lat="50.95586" lon="1.82435">
        <ele>5</ele>
        <time>2026-05-11T09:31:10.989Z</time>
      </trkpt>
      <trkpt lat="50.95588" lon="1.82429">
        <ele>5</ele>
        <time>2026-05-11T09:31:15.026Z</time>
      </trkpt>
      <trkpt lat="50.95592" lon="1.82425">
        <ele>5</ele>
        <time>2026-05-11T09:31:19.110Z</time>
      </trkpt>
      <trkpt lat="50.95596" lon="1.8242">
        <ele>5</ele>
        <time>2026-05-11T09:31:23.570Z</time>
      </trkpt>
      <trkpt lat="50.956" lon="1.82413">
        <ele>5</ele>
        <time>2026-05-11T09:31:28.213Z</time>
      </trkpt>
      <trkpt lat="50.95604" lon="1.82407">
        <ele>5</ele>
        <time>2026-05-11T09:31:32.658Z</time>
      </trkpt>
      <trkpt lat="50.95608" lon="1.82402">
        <ele>5</ele>
        <time>2026-05-11T09:31:37.326Z</time>
      </trkpt>
      <trkpt lat="50.95611" lon="1.82397">
        <ele>5</ele>
        <time>2026-05-11T09:31:41.346Z</time>
      </trkpt>
      <trkpt lat="50.95615" lon="1.82392">
        <ele>5</ele>
        <time>2026-05-11T09:31:45.370Z</time>
      </trkpt>
      <trkpt lat="50.95622" lon="1.82381">
        <ele>5</ele>
        <time>2026-05-11T09:32:10.658Z</time>
      </trkpt>
      <trkpt lat="50.95622" lon="1.82381">
        <ele>5</ele>
        <time>2026-05-11T09:32:14.657Z</time>
      </trkpt>
      <trkpt lat="50.95623" lon="1.82381">
        <ele>5</ele>
        <time>2026-05-11T09:32:19.932Z</time>
      </trkpt>
      <trkpt lat="50.95627" lon="1.82381">
        <ele>5</ele>
        <time>2026-05-11T09:32:24.110Z</time>
      </trkpt>
      <trkpt lat="50.95631" lon="1.82383">
        <ele>5</ele>
        <time>2026-05-11T09:32:28.667Z</time>
      </trkpt>
      <trkpt lat="50.95634" lon="1.82391">
        <ele>5</ele>
        <time>2026-05-11T09:32:33.232Z</time>
      </trkpt>
      <trkpt lat="50.95635" lon="1.82399">
        <ele>5</ele>
        <time>2026-05-11T09:32:37.657Z</time>
      </trkpt>
      <trkpt lat="50.95638" lon="1.82406">
        <ele>5</ele>
        <time>2026-05-11T09:32:41.793Z</time>
      </trkpt>
      <trkpt lat="50.9564" lon="1.82412">
        <ele>5</ele>
        <time>2026-05-11T09:32:46.658Z</time>
      </trkpt>
      <trkpt lat="50.95639" lon="1.82411">
        <ele>5</ele>
        <time>2026-05-11T09:32:55.658Z</time>
      </trkpt>
      <trkpt lat="50.95639" lon="1.82412">
        <ele>5</ele>
        <time>2026-05-11T09:33:00.658Z</time>
      </trkpt>
      <trkpt lat="50.9564" lon="1.82414">
        <ele>5</ele>
        <time>2026-05-11T09:33:04.812Z</time>
      </trkpt>
      <trkpt lat="50.95642" lon="1.82421">
        <ele>5</ele>
        <time>2026-05-11T09:33:09.650Z</time>
      </trkpt>
      <trkpt lat="50.95646" lon="1.82428">
        <ele>5</ele>
        <time>2026-05-11T09:33:14.294Z</time>
      </trkpt>
      <trkpt lat="50.95648" lon="1.82435">
        <ele>6</ele>
        <time>2026-05-11T09:33:18.851Z</time>
      </trkpt>
      <trkpt lat="50.95651" lon="1.82442">
        <ele>6</ele>
        <time>2026-05-11T09:33:23.450Z</time>
      </trkpt>
      <trkpt lat="50.95653" lon="1.8245">
        <ele>6</ele>
        <time>2026-05-11T09:33:28.069Z</time>
      </trkpt>
      <trkpt lat="50.95656" lon="1.82457">
        <ele>6</ele>
        <time>2026-05-11T09:33:32.607Z</time>
      </trkpt>
      <trkpt lat="50.9566" lon="1.82463">
        <ele>6</ele>
        <time>2026-05-11T09:33:37.594Z</time>
      </trkpt>
      <trkpt lat="50.95662" lon="1.82461">
        <ele>6</ele>
        <time>2026-05-11T09:33:42.670Z</time>
      </trkpt>
      <trkpt lat="50.95667" lon="1.82458">
        <ele>6</ele>
        <time>2026-05-11T09:33:47.206Z</time>
      </trkpt>
      <trkpt lat="50.95671" lon="1.82453">
        <ele>6</ele>
        <time>2026-05-11T09:33:51.658Z</time>
      </trkpt>
      <trkpt lat="50.95676" lon="1.82448">
        <ele>6</ele>
        <time>2026-05-11T09:33:56.232Z</time>
      </trkpt>
      <trkpt lat="50.9568" lon="1.82446">
        <ele>6</ele>
        <time>2026-05-11T09:34:00.790Z</time>
      </trkpt>
      <trkpt lat="50.95684" lon="1.82445">
        <ele>5</ele>
        <time>2026-05-11T09:34:04.827Z</time>
      </trkpt>
      <trkpt lat="50.95689" lon="1.82443">
        <ele>5</ele>
        <time>2026-05-11T09:34:09.189Z</time>
      </trkpt>
      <trkpt lat="50.95692" lon="1.8244">
        <ele>5</ele>
        <time>2026-05-11T09:34:13.193Z</time>
      </trkpt>
      <trkpt lat="50.95697" lon="1.82438">
        <ele>5</ele>
        <time>2026-05-11T09:34:17.294Z</time>
      </trkpt>
      <trkpt lat="50.95701" lon="1.82436">
        <ele>5</ele>
        <time>2026-05-11T09:34:21.658Z</time>
      </trkpt>
      <trkpt lat="50.95707" lon="1.82434">
        <ele>5</ele>
        <time>2026-05-11T09:34:26.250Z</time>
      </trkpt>
      <trkpt lat="50.95712" lon="1.82433">
        <ele>5</ele>
        <time>2026-05-11T09:34:30.658Z</time>
      </trkpt>
      <trkpt lat="50.95718" lon="1.82431">
        <ele>5</ele>
        <time>2026-05-11T09:34:35.027Z</time>
      </trkpt>
      <trkpt lat="50.95723" lon="1.82429">
        <ele>4</ele>
        <time>2026-05-11T09:34:39.074Z</time>
      </trkpt>
      <trkpt lat="50.95727" lon="1.82427">
        <ele>4</ele>
        <time>2026-05-11T09:34:43.112Z</time>
      </trkpt>
      <trkpt lat="50.95732" lon="1.82426">
        <ele>4</ele>
        <time>2026-05-11T09:34:47.573Z</time>
      </trkpt>
      <trkpt lat="50.95737" lon="1.82425">
        <ele>4</ele>
        <time>2026-05-11T09:34:52.094Z</time>
      </trkpt>
      <trkpt lat="50.95739" lon="1.82422">
        <ele>4</ele>
        <time>2026-05-11T09:34:56.133Z</time>
      </trkpt>
      <trkpt lat="50.95742" lon="1.82416">
        <ele>4</ele>
        <time>2026-05-11T09:35:00.231Z</time>
      </trkpt>
      <trkpt lat="50.95745" lon="1.82419">
        <ele>4</ele>
        <time>2026-05-11T09:35:04.657Z</time>
      </trkpt>
      <trkpt lat="50.95746" lon="1.8242">
        <ele>4</ele>
        <time>2026-05-11T09:35:09.353Z</time>
      </trkpt>
      <trkpt lat="50.95748" lon="1.82428">
        <ele>4</ele>
        <time>2026-05-11T09:35:13.751Z</time>
      </trkpt>
      <trkpt lat="50.95749" lon="1.82437">
        <ele>4</ele>
        <time>2026-05-11T09:35:18.272Z</time>
      </trkpt>
      <trkpt lat="50.95749" lon="1.82446">
        <ele>4</ele>
        <time>2026-05-11T09:35:22.705Z</time>
      </trkpt>
      <trkpt lat="50.95749" lon="1.82453">
        <ele>4</ele>
        <time>2026-05-11T09:35:26.849Z</time>
      </trkpt>
      <trkpt lat="50.95749" lon="1.82462">
        <ele>5</ele>
        <time>2026-05-11T09:35:31.658Z</time>
      </trkpt>
      <trkpt lat="50.95751" lon="1.82471">
        <ele>5</ele>
        <time>2026-05-11T09:35:36.454Z</time>
      </trkpt>
      <trkpt lat="50.9576" lon="1.82491">
        <ele>5</ele>
        <time>2026-05-11T09:35:54.657Z</time>
      </trkpt>
      <trkpt lat="50.95762" lon="1.82491">
        <ele>5</ele>
        <time>2026-05-11T09:35:59.656Z</time>
      </trkpt>
      <trkpt lat="50.95766" lon="1.82492">
        <ele>5</ele>
        <time>2026-05-11T09:36:03.656Z</time>
      </trkpt>
      <trkpt lat="50.95771" lon="1.82494">
        <ele>5</ele>
        <time>2026-05-11T09:36:08.173Z</time>
      </trkpt>
      <trkpt lat="50.95776" lon="1.82492">
        <ele>5</ele>
        <time>2026-05-11T09:36:12.656Z</time>
      </trkpt>
      <trkpt lat="50.95781" lon="1.8249">
        <ele>5</ele>
        <time>2026-05-11T09:36:17.249Z</time>
      </trkpt>
      <trkpt lat="50.95785" lon="1.82491">
        <ele>5</ele>
        <time>2026-05-11T09:36:21.411Z</time>
      </trkpt>
      <trkpt lat="50.95789" lon="1.82491">
        <ele>5</ele>
        <time>2026-05-11T09:36:25.870Z</time>
      </trkpt>
      <trkpt lat="50.95793" lon="1.82492">
        <ele>5</ele>
        <time>2026-05-11T09:36:29.987Z</time>
      </trkpt>
      <trkpt lat="50.95798" lon="1.82491">
        <ele>5</ele>
        <time>2026-05-11T09:36:34.570Z</time>
      </trkpt>
      <trkpt lat="50.95803" lon="1.82492">
        <ele>5</ele>
        <time>2026-05-11T09:36:38.573Z</time>
      </trkpt>
      <trkpt lat="50.95808" lon="1.82492">
        <ele>5</ele>
        <time>2026-05-11T09:36:43.094Z</time>
      </trkpt>
      <trkpt lat="50.95813" lon="1.82492">
        <ele>5</ele>
        <time>2026-05-11T09:36:47.669Z</time>
      </trkpt>
      <trkpt lat="50.95818" lon="1.82491">
        <ele>5</ele>
        <time>2026-05-11T09:36:52.154Z</time>
      </trkpt>
      <trkpt lat="50.95822" lon="1.82491">
        <ele>5</ele>
        <time>2026-05-11T09:36:56.657Z</time>
      </trkpt>
      <trkpt lat="50.95826" lon="1.82492">
        <ele>5</ele>
        <time>2026-05-11T09:37:01.354Z</time>
      </trkpt>
      <trkpt lat="50.95832" lon="1.82494">
        <ele>5</ele>
        <time>2026-05-11T09:37:05.506Z</time>
      </trkpt>
      <trkpt lat="50.95834" lon="1.82477">
        <ele>5</ele>
        <time>2026-05-11T09:37:37.657Z</time>
      </trkpt>
      <trkpt lat="50.95834" lon="1.82477">
        <ele>5</ele>
        <time>2026-05-11T09:37:41.657Z</time>
      </trkpt>
      <trkpt lat="50.95835" lon="1.82477">
        <ele>5</ele>
        <time>2026-05-11T09:37:46.249Z</time>
      </trkpt>
      <trkpt lat="50.9584" lon="1.82475">
        <ele>5</ele>
        <time>2026-05-11T09:37:50.657Z</time>
      </trkpt>
      <trkpt lat="50.95844" lon="1.82478">
        <ele>5</ele>
        <time>2026-05-11T09:37:54.889Z</time>
      </trkpt>
      <trkpt lat="50.95847" lon="1.82484">
        <ele>5</ele>
        <time>2026-05-11T09:37:59.030Z</time>
      </trkpt>
      <trkpt lat="50.9585" lon="1.82491">
        <ele>5</ele>
        <time>2026-05-11T09:38:03.070Z</time>
      </trkpt>
      <trkpt lat="50.9585" lon="1.82494">
        <ele>5</ele>
        <time>2026-05-11T09:38:07.656Z</time>
      </trkpt>
      <trkpt lat="50.95851" lon="1.82496">
        <ele>5</ele>
        <time>2026-05-11T09:38:12.146Z</time>
      </trkpt>
      <trkpt lat="50.95858" lon="1.825">
        <ele>5</ele>
        <time>2026-05-11T09:38:16.657Z</time>
      </trkpt>
      <trkpt lat="50.95863" lon="1.82504">
        <ele>5</ele>
        <time>2026-05-11T09:38:21.071Z</time>
      </trkpt>
      <trkpt lat="50.95867" lon="1.82508">
        <ele>5</ele>
        <time>2026-05-11T09:38:25.303Z</time>
      </trkpt>
      <trkpt lat="50.95871" lon="1.82509">
        <ele>5</ele>
        <time>2026-05-11T09:38:29.371Z</time>
      </trkpt>
      <trkpt lat="50.95876" lon="1.82511">
        <ele>4</ele>
        <time>2026-05-11T09:38:33.532Z</time>
      </trkpt>
      <trkpt lat="50.95881" lon="1.82511">
        <ele>4</ele>
        <time>2026-05-11T09:38:37.656Z</time>
      </trkpt>
      <trkpt lat="50.95884" lon="1.8251">
        <ele>4</ele>
        <time>2026-05-11T09:38:43.549Z</time>
      </trkpt>
      <trkpt lat="50.95889" lon="1.82508">
        <ele>4</ele>
        <time>2026-05-11T09:38:47.587Z</time>
      </trkpt>
      <trkpt lat="50.95894" lon="1.82511">
        <ele>4</ele>
        <time>2026-05-11T09:38:51.656Z</time>
      </trkpt>
      <trkpt lat="50.95904" lon="1.82506">
        <ele>5</ele>
        <time>2026-05-11T09:39:08.657Z</time>
      </trkpt>
      <trkpt lat="50.95908" lon="1.8251">
        <ele>5</ele>
        <time>2026-05-11T09:39:12.656Z</time>
      </trkpt>
      <trkpt lat="50.95911" lon="1.82511">
        <ele>5</ele>
        <time>2026-05-11T09:39:17.426Z</time>
      </trkpt>
      <trkpt lat="50.95914" lon="1.82512">
        <ele>5</ele>
        <time>2026-05-11T09:39:21.656Z</time>
      </trkpt>
      <trkpt lat="50.95918" lon="1.82513">
        <ele>5</ele>
        <time>2026-05-11T09:39:26.250Z</time>
      </trkpt>
      <trkpt lat="50.95922" lon="1.82515">
        <ele>5</ele>
        <time>2026-05-11T09:39:30.427Z</time>
      </trkpt>
      <trkpt lat="50.95926" lon="1.82517">
        <ele>5</ele>
        <time>2026-05-11T09:39:34.656Z</time>
      </trkpt>
      <trkpt lat="50.95929" lon="1.82518">
        <ele>5</ele>
        <time>2026-05-11T09:39:38.986Z</time>
      </trkpt>
      <trkpt lat="50.95933" lon="1.82518">
        <ele>6</ele>
        <time>2026-05-11T09:39:43.430Z</time>
      </trkpt>
      <trkpt lat="50.9594" lon="1.8252">
        <ele>6</ele>
        <time>2026-05-11T09:40:01.656Z</time>
      </trkpt>
      <trkpt lat="50.9594" lon="1.82519">
        <ele>6</ele>
        <time>2026-05-11T09:40:06.392Z</time>
      </trkpt>
      <trkpt lat="50.95945" lon="1.82523">
        <ele>6</ele>
        <time>2026-05-11T09:40:10.606Z</time>
      </trkpt>
      <trkpt lat="50.9595" lon="1.82524">
        <ele>6</ele>
        <time>2026-05-11T09:40:14.656Z</time>
      </trkpt>
      <trkpt lat="50.95955" lon="1.82525">
        <ele>6</ele>
        <time>2026-05-11T09:40:18.656Z</time>
      </trkpt>
      <trkpt lat="50.95959" lon="1.82528">
        <ele>6</ele>
        <time>2026-05-11T09:40:23.247Z</time>
      </trkpt>
      <trkpt lat="50.95964" lon="1.82527">
        <ele>6</ele>
        <time>2026-05-11T09:40:27.656Z</time>
      </trkpt>
      <trkpt lat="50.95969" lon="1.82526">
        <ele>6</ele>
        <time>2026-05-11T09:40:31.657Z</time>
      </trkpt>
      <trkpt lat="50.95969" lon="1.82524">
        <ele>6</ele>
        <time>2026-05-11T09:40:36.327Z</time>
      </trkpt>
      <trkpt lat="50.95969" lon="1.82524">
        <ele>6</ele>
        <time>2026-05-11T09:40:40.865Z</time>
      </trkpt>
      <trkpt lat="50.95972" lon="1.82522">
        <ele>6</ele>
        <time>2026-05-11T09:40:45.449Z</time>
      </trkpt>
      <trkpt lat="50.95977" lon="1.82526">
        <ele>6</ele>
        <time>2026-05-11T09:40:49.469Z</time>
      </trkpt>
      <trkpt lat="50.95983" lon="1.82528">
        <ele>6</ele>
        <time>2026-05-11T09:40:53.471Z</time>
      </trkpt>
      <trkpt lat="50.95989" lon="1.8253">
        <ele>6</ele>
        <time>2026-05-11T09:40:57.835Z</time>
      </trkpt>
      <trkpt lat="50.95993" lon="1.82536">
        <ele>6</ele>
        <time>2026-05-11T09:41:02.409Z</time>
      </trkpt>
      <trkpt lat="50.95999" lon="1.82536">
        <ele>6</ele>
        <time>2026-05-11T09:41:07.306Z</time>
      </trkpt>
      <trkpt lat="50.96005" lon="1.82538">
        <ele>6</ele>
        <time>2026-05-11T09:41:11.657Z</time>
      </trkpt>
      <trkpt lat="50.96011" lon="1.82538">
        <ele>6</ele>
        <time>2026-05-11T09:41:16.130Z</time>
      </trkpt>
      <trkpt lat="50.96017" lon="1.82539">
        <ele>7</ele>
        <time>2026-05-11T09:41:20.615Z</time>
      </trkpt>
      <trkpt lat="50.96022" lon="1.8254">
        <ele>7</ele>
        <time>2026-05-11T09:41:25.109Z</time>
      </trkpt>
      <trkpt lat="50.96028" lon="1.82542">
        <ele>7</ele>
        <time>2026-05-11T09:41:29.612Z</time>
      </trkpt>
      <trkpt lat="50.96033" lon="1.82542">
        <ele>7</ele>
        <time>2026-05-11T09:41:34.090Z</time>
      </trkpt>
      <trkpt lat="50.96039" lon="1.82541">
        <ele>7</ele>
        <time>2026-05-11T09:41:38.530Z</time>
      </trkpt>
      <trkpt lat="50.96044" lon="1.82539">
        <ele>6</ele>
        <time>2026-05-11T09:41:43.009Z</time>
      </trkpt>
      <trkpt lat="50.96049" lon="1.82542">
        <ele>7</ele>
        <time>2026-05-11T09:41:47.530Z</time>
      </trkpt>
      <trkpt lat="50.96054" lon="1.82546">
        <ele>7</ele>
        <time>2026-05-11T09:41:51.989Z</time>
      </trkpt>
      <trkpt lat="50.9606" lon="1.8255">
        <ele>7</ele>
        <time>2026-05-11T09:41:56.492Z</time>
      </trkpt>
      <trkpt lat="50.96065" lon="1.82552">
        <ele>7</ele>
        <time>2026-05-11T09:42:00.986Z</time>
      </trkpt>
      <trkpt lat="50.96069" lon="1.82555">
        <ele>7</ele>
        <time>2026-05-11T09:42:05.006Z</time>
      </trkpt>
      <trkpt lat="50.96073" lon="1.82559">
        <ele>7</ele>
        <time>2026-05-11T09:42:09.071Z</time>
      </trkpt>
      <trkpt lat="50.96078" lon="1.82565">
        <ele>7</ele>
        <time>2026-05-11T09:42:13.451Z</time>
      </trkpt>
      <trkpt lat="50.96082" lon="1.8257">
        <ele>6</ele>
        <time>2026-05-11T09:42:17.929Z</time>
      </trkpt>
      <trkpt lat="50.96085" lon="1.82575">
        <ele>6</ele>
        <time>2026-05-11T09:42:22.029Z</time>
      </trkpt>
      <trkpt lat="50.96088" lon="1.82581">
        <ele>6</ele>
        <time>2026-05-11T09:42:26.127Z</time>
      </trkpt>
      <trkpt lat="50.96091" lon="1.82586">
        <ele>6</ele>
        <time>2026-05-11T09:42:30.193Z</time>
      </trkpt>
      <trkpt lat="50.96095" lon="1.82592">
        <ele>6</ele>
        <time>2026-05-11T09:42:34.230Z</time>
      </trkpt>
      <trkpt lat="50.96098" lon="1.82598">
        <ele>4</ele>
        <time>2026-05-11T09:42:38.233Z</time>
      </trkpt>
      <trkpt lat="50.96102" lon="1.82604">
        <ele>4</ele>
        <time>2026-05-11T09:42:42.657Z</time>
      </trkpt>
      <trkpt lat="50.96104" lon="1.82612">
        <ele>4</ele>
        <time>2026-05-11T09:42:47.309Z</time>
      </trkpt>
      <trkpt lat="50.96106" lon="1.82619">
        <ele>4</ele>
        <time>2026-05-11T09:42:51.769Z</time>
      </trkpt>
      <trkpt lat="50.96109" lon="1.82627">
        <ele>6</ele>
        <time>2026-05-11T09:42:56.332Z</time>
      </trkpt>
      <trkpt lat="50.96112" lon="1.82633">
        <ele>6</ele>
        <time>2026-05-11T09:43:00.855Z</time>
      </trkpt>
      <trkpt lat="50.96114" lon="1.8264">
        <ele>6</ele>
        <time>2026-05-11T09:43:05.366Z</time>
      </trkpt>
      <trkpt lat="50.96117" lon="1.82648">
        <ele>6</ele>
        <time>2026-05-11T09:43:09.852Z</time>
      </trkpt>
      <trkpt lat="50.96119" lon="1.82656">
        <ele>4</ele>
        <time>2026-05-11T09:43:14.249Z</time>
      </trkpt>
      <trkpt lat="50.96123" lon="1.82663">
        <ele>4</ele>
        <time>2026-05-11T09:43:18.657Z</time>
      </trkpt>
      <trkpt lat="50.96125" lon="1.82671">
        <ele>5</ele>
        <time>2026-05-11T09:43:23.169Z</time>
      </trkpt>
      <trkpt lat="50.96128" lon="1.82679">
        <ele>5</ele>
        <time>2026-05-11T09:43:27.627Z</time>
      </trkpt>
      <trkpt lat="50.96129" lon="1.82686">
        <ele>6</ele>
        <time>2026-05-11T09:43:32.010Z</time>
      </trkpt>
      <trkpt lat="50.96131" lon="1.82693">
        <ele>6</ele>
        <time>2026-05-11T09:43:36.656Z</time>
      </trkpt>
      <trkpt lat="50.96131" lon="1.82693">
        <ele>6</ele>
        <time>2026-05-11T09:43:41.549Z</time>
      </trkpt>
      <trkpt lat="50.96129" lon="1.82704">
        <ele>6</ele>
        <time>2026-05-11T09:43:45.885Z</time>
      </trkpt>
      <trkpt lat="50.96124" lon="1.82709">
        <ele>6</ele>
        <time>2026-05-11T09:43:50.188Z</time>
      </trkpt>
      <trkpt lat="50.96119" lon="1.82712">
        <ele>6</ele>
        <time>2026-05-11T09:43:54.568Z</time>
      </trkpt>
      <trkpt lat="50.96114" lon="1.82715">
        <ele>6</ele>
        <time>2026-05-11T09:43:59.010Z</time>
      </trkpt>
      <trkpt lat="50.9611" lon="1.82718">
        <ele>6</ele>
        <time>2026-05-11T09:44:03.390Z</time>
      </trkpt>
      <trkpt lat="50.96105" lon="1.82722">
        <ele>6</ele>
        <time>2026-05-11T09:44:07.831Z</time>
      </trkpt>
      <trkpt lat="50.96101" lon="1.82726">
        <ele>6</ele>
        <time>2026-05-11T09:44:12.229Z</time>
      </trkpt>
      <trkpt lat="50.96096" lon="1.8273">
        <ele>5</ele>
        <time>2026-05-11T09:44:16.656Z</time>
      </trkpt>
      <trkpt lat="50.96091" lon="1.82733">
        <ele>5</ele>
        <time>2026-05-11T09:44:21.173Z</time>
      </trkpt>
      <trkpt lat="50.96087" lon="1.82738">
        <ele>5</ele>
        <time>2026-05-11T09:44:25.633Z</time>
      </trkpt>
      <trkpt lat="50.96092" lon="1.82744">
        <ele>5</ele>
        <time>2026-05-11T09:44:30.127Z</time>
      </trkpt>
      <trkpt lat="50.96096" lon="1.8275">
        <ele>5</ele>
        <time>2026-05-11T09:44:34.649Z</time>
      </trkpt>
      <trkpt lat="50.96101" lon="1.82754">
        <ele>6</ele>
        <time>2026-05-11T09:44:39.170Z</time>
      </trkpt>
      <trkpt lat="50.96104" lon="1.82759">
        <ele>6</ele>
        <time>2026-05-11T09:44:43.190Z</time>
      </trkpt>
      <trkpt lat="50.96107" lon="1.82763">
        <ele>6</ele>
        <time>2026-05-11T09:44:47.289Z</time>
      </trkpt>
      <trkpt lat="50.96111" lon="1.82769">
        <ele>5</ele>
        <time>2026-05-11T09:44:51.334Z</time>
      </trkpt>
      <trkpt lat="50.96114" lon="1.82772">
        <ele>5</ele>
        <time>2026-05-11T09:44:55.469Z</time>
      </trkpt>
      <trkpt lat="50.9612" lon="1.82772">
        <ele>5</ele>
        <time>2026-05-11T09:44:59.611Z</time>
      </trkpt>
      <trkpt lat="50.96124" lon="1.82772">
        <ele>5</ele>
        <time>2026-05-11T09:45:03.657Z</time>
      </trkpt>
      <trkpt lat="50.96128" lon="1.82772">
        <ele>5</ele>
        <time>2026-05-11T09:45:07.810Z</time>
      </trkpt>
      <trkpt lat="50.96133" lon="1.82772">
        <ele>5</ele>
        <time>2026-05-11T09:45:11.909Z</time>
      </trkpt>
      <trkpt lat="50.96137" lon="1.82773">
        <ele>5</ele>
        <time>2026-05-11T09:45:16.412Z</time>
      </trkpt>
    </trkseg>
  </trk>
</gpx>